<?xml version="1.0" encoding="UTF-8"?>
<gpx xmlns="http://www.topografix.com/GPX/1/1" xmlns:gpsies="http://www.gpsies.com/GPX/1/0" creator="GPSies http://www.gpsies.com - GBI Toscana 2018 Day 3 Track 2 final (Florence-San Gimignano)" version="1.1" xmlns:xsi="http://www.w3.org/2001/XMLSchema-instance" xsi:schemaLocation="http://www.topografix.com/GPX/1/1 http://www.topografix.com/GPX/1/1/gpx.xsd http://www.gpsies.com/GPX/1/0 http://www.gpsies.com/gpsies.xsd">
  <metadata>
    <name>GBIIT21 D3 T2</name>
    <author>
      <name>TOAO</name>
      <link href="http://www.gpsies.com/mapUser.do?username=TOAO">
        <text>TOAO on GPSies.com</text>
        <type>GPSiesUserOnWeb</type>
      </link>
    </author>
    <link href="http://www.gpsies.com/map.do?fileId=ptyjgxehmepmhxzv">
      <text>GBIIT21 D3 T2</text>
      <type>trackOnWeb</type>
    </link>
    <time>2018-03-27T17:49:30Z</time>
    <extensions>
      <gpsies:property>one-way trip</gpsies:property>
      <gpsies:trackLengthMeter>109883.89514481215</gpsies:trackLengthMeter>
      <gpsies:totalAscentMeter>2187.0</gpsies:totalAscentMeter>
      <gpsies:totalDescentMeter>2248.0</gpsies:totalDescentMeter>
      <gpsies:minHeightMeter>104.0</gpsies:minHeightMeter>
      <gpsies:maxHeightMeter>755.0</gpsies:maxHeightMeter>
    </extensions>
  </metadata>
  <wpt lat="43.39007990" lon="11.22292041">
    <ele>271.00000</ele>
    <name>Monteriggioni</name>
    <sym>sightseeing</sym>
    <type>Sightseeing</type>
  </wpt>
  <wpt lat="43.42336994" lon="11.12563133">
    <ele>146.00000</ele>
    <name>Rough surface</name>
    <sym>attention</sym>
    <type>Attention</type>
  </wpt>
  <wpt lat="43.42213095" lon="11.12086772">
    <ele>203.00000</ele>
    <name>Colle di Val d'Elsa</name>
    <sym>sightseeing</sym>
    <type>Sightseeing</type>
  </wpt>
  <wpt lat="43.46776193" lon="11.04271888">
    <ele>337.00000</ele>
    <name>San Gimignano</name>
    <sym>sightseeing</sym>
    <type>Sightseeing</type>
  </wpt>
  <wpt lat="43.52065634" lon="11.40417337">
    <ele>622.00000</ele>
    <name>Steep descent!</name>
    <sym>attention</sym>
    <type>Attention</type>
  </wpt>
  <wpt lat="43.58259030" lon="11.31672263">
    <ele>237.00000</ele>
    <name>Greve</name>
    <sym>sightseeing</sym>
    <type>Sightseeing</type>
  </wpt>
  <wpt lat="43.42320630" lon="11.12340509">
    <ele>185.00000</ele>
    <name>Walk the bike</name>
    <sym>attention</sym>
    <type>Attention</type>
  </wpt>
  <wpt lat="43.45890794" lon="11.05352818">
    <ele>220.00000</ele>
    <name>Albergo Le Colline</name>
    <sym>hostel</sym>
    <type>Hostel</type>
  </wpt>
  <trk>
    <name>GBIIT21 D3 T2</name>
    <link href="http://www.gpsies.com/map.do?fileId=ptyjgxehmepmhxzv">
      <type>trackOnWeb</type>
    </link>
    <link href="http://www.gpsies.com/charts/pt/map/ptyjgxehmepmhxzv_map.png">
      <type>elevationChartUrlMap</type>
    </link>
    <link href="http://www.gpsies.com/charts/pt/mapThumb/ptyjgxehmepmhxzv_mapThumb.png">
      <type>elevationChartUrlMapThumb</type>
    </link>
    <link href="http://www.gpsies.com/charts/pt/tab/ptyjgxehmepmhxzv_tab.png">
      <type>elevationChartUrlTab</type>
    </link>
    <trkseg>
      <trkpt lat="43.73847300" lon="11.34994400">
        <ele>277.00000</ele>
        <time>2010-01-01T00:00:00Z</time>
      </trkpt>
      <trkpt lat="43.73773000" lon="11.35031000">
        <ele>290.00000</ele>
        <time>2010-01-01T00:00:31Z</time>
      </trkpt>
      <trkpt lat="43.73736000" lon="11.35064000">
        <ele>295.00000</ele>
        <time>2010-01-01T00:00:49Z</time>
      </trkpt>
      <trkpt lat="43.73719000" lon="11.35100000">
        <ele>300.00000</ele>
        <time>2010-01-01T00:01:01Z</time>
      </trkpt>
      <trkpt lat="43.73667000" lon="11.35173000">
        <ele>310.00000</ele>
        <time>2010-01-01T00:01:31Z</time>
      </trkpt>
      <trkpt lat="43.73643000" lon="11.35196000">
        <ele>311.00000</ele>
        <time>2010-01-01T00:01:42Z</time>
      </trkpt>
      <trkpt lat="43.73502000" lon="11.35304000">
        <ele>329.00000</ele>
        <time>2010-01-01T00:02:47Z</time>
      </trkpt>
      <trkpt lat="43.73478000" lon="11.35326000">
        <ele>331.00000</ele>
        <time>2010-01-01T00:02:58Z</time>
      </trkpt>
      <trkpt lat="43.73444510" lon="11.35376930">
        <ele>339.00000</ele>
        <time>2010-01-01T00:03:18Z</time>
      </trkpt>
      <trkpt lat="43.73411950" lon="11.35441830">
        <ele>345.00000</ele>
        <time>2010-01-01T00:03:41Z</time>
      </trkpt>
      <trkpt lat="43.73391000" lon="11.35511000">
        <ele>351.00000</ele>
        <time>2010-01-01T00:04:03Z</time>
      </trkpt>
      <trkpt lat="43.73384000" lon="11.35545000">
        <ele>353.00000</ele>
        <time>2010-01-01T00:04:13Z</time>
      </trkpt>
      <trkpt lat="43.73388000" lon="11.35670000">
        <ele>349.00000</ele>
        <time>2010-01-01T00:04:49Z</time>
      </trkpt>
      <trkpt lat="43.73382000" lon="11.35786000">
        <ele>344.00000</ele>
        <time>2010-01-01T00:05:23Z</time>
      </trkpt>
      <trkpt lat="43.73390000" lon="11.35835000">
        <ele>345.00000</ele>
        <time>2010-01-01T00:05:38Z</time>
      </trkpt>
      <trkpt lat="43.73389000" lon="11.35854000">
        <ele>343.00000</ele>
        <time>2010-01-01T00:05:43Z</time>
      </trkpt>
      <trkpt lat="43.73381000" lon="11.35905000">
        <ele>338.00000</ele>
        <time>2010-01-01T00:05:58Z</time>
      </trkpt>
      <trkpt lat="43.73380000" lon="11.35919000">
        <ele>337.00000</ele>
        <time>2010-01-01T00:06:02Z</time>
      </trkpt>
      <trkpt lat="43.73382000" lon="11.35947000">
        <ele>336.00000</ele>
        <time>2010-01-01T00:06:10Z</time>
      </trkpt>
      <trkpt lat="43.73388000" lon="11.35973000">
        <ele>335.00000</ele>
        <time>2010-01-01T00:06:18Z</time>
      </trkpt>
      <trkpt lat="43.73414000" lon="11.36043000">
        <ele>332.00000</ele>
        <time>2010-01-01T00:06:41Z</time>
      </trkpt>
      <trkpt lat="43.73417000" lon="11.36061000">
        <ele>331.00000</ele>
        <time>2010-01-01T00:06:46Z</time>
      </trkpt>
      <trkpt lat="43.73418000" lon="11.36081000">
        <ele>330.00000</ele>
        <time>2010-01-01T00:06:52Z</time>
      </trkpt>
      <trkpt lat="43.73416000" lon="11.36101000">
        <ele>330.00000</ele>
        <time>2010-01-01T00:06:58Z</time>
      </trkpt>
      <trkpt lat="43.73400710" lon="11.36159590">
        <ele>329.00000</ele>
        <time>2010-01-01T00:07:16Z</time>
      </trkpt>
      <trkpt lat="43.73395670" lon="11.36235230">
        <ele>332.00000</ele>
        <time>2010-01-01T00:07:38Z</time>
      </trkpt>
      <trkpt lat="43.73384000" lon="11.36278000">
        <ele>333.00000</ele>
        <time>2010-01-01T00:07:51Z</time>
      </trkpt>
      <trkpt lat="43.73321000" lon="11.36456000">
        <ele>331.00000</ele>
        <time>2010-01-01T00:08:49Z</time>
      </trkpt>
      <trkpt lat="43.73287530" lon="11.36509350">
        <ele>326.00000</ele>
        <time>2010-01-01T00:09:09Z</time>
      </trkpt>
      <trkpt lat="43.73278000" lon="11.36525000">
        <ele>324.00000</ele>
        <time>2010-01-01T00:09:15Z</time>
      </trkpt>
      <trkpt lat="43.73276000" lon="11.36553000">
        <ele>323.00000</ele>
        <time>2010-01-01T00:09:23Z</time>
      </trkpt>
      <trkpt lat="43.73281000" lon="11.36586000">
        <ele>324.00000</ele>
        <time>2010-01-01T00:09:33Z</time>
      </trkpt>
      <trkpt lat="43.73283000" lon="11.36612000">
        <ele>323.00000</ele>
        <time>2010-01-01T00:09:40Z</time>
      </trkpt>
      <trkpt lat="43.73280000" lon="11.36717000">
        <ele>316.00000</ele>
        <time>2010-01-01T00:10:11Z</time>
      </trkpt>
      <trkpt lat="43.73277000" lon="11.36748000">
        <ele>314.00000</ele>
        <time>2010-01-01T00:10:20Z</time>
      </trkpt>
      <trkpt lat="43.73264000" lon="11.36820000">
        <ele>309.00000</ele>
        <time>2010-01-01T00:10:41Z</time>
      </trkpt>
      <trkpt lat="43.73237000" lon="11.36751000">
        <ele>308.00000</ele>
        <time>2010-01-01T00:11:04Z</time>
      </trkpt>
      <trkpt lat="43.73226000" lon="11.36703000">
        <ele>309.00000</ele>
        <time>2010-01-01T00:11:19Z</time>
      </trkpt>
      <trkpt lat="43.73222000" lon="11.36655000">
        <ele>306.00000</ele>
        <time>2010-01-01T00:11:32Z</time>
      </trkpt>
      <trkpt lat="43.73216000" lon="11.36624000">
        <ele>302.00000</ele>
        <time>2010-01-01T00:11:42Z</time>
      </trkpt>
      <trkpt lat="43.73181000" lon="11.36540000">
        <ele>294.00000</ele>
        <time>2010-01-01T00:12:10Z</time>
      </trkpt>
      <trkpt lat="43.73112710" lon="11.36358080">
        <ele>285.00000</ele>
        <time>2010-01-01T00:13:09Z</time>
      </trkpt>
      <trkpt lat="43.73104000" lon="11.36301000">
        <ele>282.00000</ele>
        <time>2010-01-01T00:13:26Z</time>
      </trkpt>
      <trkpt lat="43.73093000" lon="11.36269000">
        <ele>280.00000</ele>
        <time>2010-01-01T00:13:36Z</time>
      </trkpt>
      <trkpt lat="43.73077000" lon="11.36240000">
        <ele>276.00000</ele>
        <time>2010-01-01T00:13:47Z</time>
      </trkpt>
      <trkpt lat="43.73072000" lon="11.36224000">
        <ele>275.00000</ele>
        <time>2010-01-01T00:13:52Z</time>
      </trkpt>
      <trkpt lat="43.73066000" lon="11.36176000">
        <ele>277.00000</ele>
        <time>2010-01-01T00:14:06Z</time>
      </trkpt>
      <trkpt lat="43.73052000" lon="11.36149000">
        <ele>276.00000</ele>
        <time>2010-01-01T00:14:16Z</time>
      </trkpt>
      <trkpt lat="43.73041000" lon="11.36121000">
        <ele>275.00000</ele>
        <time>2010-01-01T00:14:25Z</time>
      </trkpt>
      <trkpt lat="43.73040000" lon="11.36089000">
        <ele>273.00000</ele>
        <time>2010-01-01T00:14:34Z</time>
      </trkpt>
      <trkpt lat="43.73053000" lon="11.36039000">
        <ele>270.00000</ele>
        <time>2010-01-01T00:14:49Z</time>
      </trkpt>
      <trkpt lat="43.73069000" lon="11.36014000">
        <ele>268.00000</ele>
        <time>2010-01-01T00:14:59Z</time>
      </trkpt>
      <trkpt lat="43.73100000" lon="11.35990000">
        <ele>268.00000</ele>
        <time>2010-01-01T00:15:13Z</time>
      </trkpt>
      <trkpt lat="43.73118140" lon="11.35950920">
        <ele>269.00000</ele>
        <time>2010-01-01T00:15:27Z</time>
      </trkpt>
      <trkpt lat="43.73125000" lon="11.35894000">
        <ele>269.00000</ele>
        <time>2010-01-01T00:15:43Z</time>
      </trkpt>
      <trkpt lat="43.73124730" lon="11.35849530">
        <ele>269.00000</ele>
        <time>2010-01-01T00:15:56Z</time>
      </trkpt>
      <trkpt lat="43.73114000" lon="11.35817000">
        <ele>267.00000</ele>
        <time>2010-01-01T00:16:07Z</time>
      </trkpt>
      <trkpt lat="43.73079000" lon="11.35758000">
        <ele>264.00000</ele>
        <time>2010-01-01T00:16:29Z</time>
      </trkpt>
      <trkpt lat="43.73073000" lon="11.35727000">
        <ele>264.00000</ele>
        <time>2010-01-01T00:16:38Z</time>
      </trkpt>
      <trkpt lat="43.73073560" lon="11.35667140">
        <ele>264.00000</ele>
        <time>2010-01-01T00:16:55Z</time>
      </trkpt>
      <trkpt lat="43.73068130" lon="11.35637100">
        <ele>262.00000</ele>
        <time>2010-01-01T00:17:04Z</time>
      </trkpt>
      <trkpt lat="43.73044490" lon="11.35607060">
        <ele>259.00000</ele>
        <time>2010-01-01T00:17:17Z</time>
      </trkpt>
      <trkpt lat="43.73024000" lon="11.35601000">
        <ele>254.00000</ele>
        <time>2010-01-01T00:17:25Z</time>
      </trkpt>
      <trkpt lat="43.72999000" lon="11.35604000">
        <ele>247.00000</ele>
        <time>2010-01-01T00:17:36Z</time>
      </trkpt>
      <trkpt lat="43.72983630" lon="11.35592570">
        <ele>244.00000</ele>
        <time>2010-01-01T00:17:43Z</time>
      </trkpt>
      <trkpt lat="43.72986000" lon="11.35506000">
        <ele>247.00000</ele>
        <time>2010-01-01T00:18:08Z</time>
      </trkpt>
      <trkpt lat="43.72980000" lon="11.35413000">
        <ele>241.00000</ele>
        <time>2010-01-01T00:18:35Z</time>
      </trkpt>
      <trkpt lat="43.72989000" lon="11.35384000">
        <ele>240.00000</ele>
        <time>2010-01-01T00:18:44Z</time>
      </trkpt>
      <trkpt lat="43.72986000" lon="11.35349000">
        <ele>238.00000</ele>
        <time>2010-01-01T00:18:54Z</time>
      </trkpt>
      <trkpt lat="43.72974000" lon="11.35316000">
        <ele>237.00000</ele>
        <time>2010-01-01T00:19:05Z</time>
      </trkpt>
      <trkpt lat="43.72948000" lon="11.35275000">
        <ele>235.00000</ele>
        <time>2010-01-01T00:19:20Z</time>
      </trkpt>
      <trkpt lat="43.72934000" lon="11.35244000">
        <ele>234.00000</ele>
        <time>2010-01-01T00:19:31Z</time>
      </trkpt>
      <trkpt lat="43.72924000" lon="11.35210000">
        <ele>234.00000</ele>
        <time>2010-01-01T00:19:42Z</time>
      </trkpt>
      <trkpt lat="43.72919000" lon="11.35173000">
        <ele>233.00000</ele>
        <time>2010-01-01T00:19:52Z</time>
      </trkpt>
      <trkpt lat="43.72918000" lon="11.35136000">
        <ele>232.00000</ele>
        <time>2010-01-01T00:20:03Z</time>
      </trkpt>
      <trkpt lat="43.72916000" lon="11.35117000">
        <ele>230.00000</ele>
        <time>2010-01-01T00:20:09Z</time>
      </trkpt>
      <trkpt lat="43.72895000" lon="11.35027000">
        <ele>225.00000</ele>
        <time>2010-01-01T00:20:36Z</time>
      </trkpt>
      <trkpt lat="43.72892000" lon="11.34989000">
        <ele>224.00000</ele>
        <time>2010-01-01T00:20:47Z</time>
      </trkpt>
      <trkpt lat="43.72886000" lon="11.34951000">
        <ele>224.00000</ele>
        <time>2010-01-01T00:20:58Z</time>
      </trkpt>
      <trkpt lat="43.72870000" lon="11.34900000">
        <ele>222.00000</ele>
        <time>2010-01-01T00:21:14Z</time>
      </trkpt>
      <trkpt lat="43.72870000" lon="11.34869000">
        <ele>224.00000</ele>
        <time>2010-01-01T00:21:23Z</time>
      </trkpt>
      <trkpt lat="43.72936000" lon="11.34655000">
        <ele>225.00000</ele>
        <time>2010-01-01T00:22:31Z</time>
      </trkpt>
      <trkpt lat="43.72842000" lon="11.34497000">
        <ele>211.00000</ele>
        <time>2010-01-01T00:23:30Z</time>
      </trkpt>
      <trkpt lat="43.72833230" lon="11.34454780">
        <ele>208.00000</ele>
        <time>2010-01-01T00:23:43Z</time>
      </trkpt>
      <trkpt lat="43.72835940" lon="11.34360370">
        <ele>203.00000</ele>
        <time>2010-01-01T00:24:10Z</time>
      </trkpt>
      <trkpt lat="43.72853000" lon="11.34273000">
        <ele>203.00000</ele>
        <time>2010-01-01T00:24:36Z</time>
      </trkpt>
      <trkpt lat="43.72874000" lon="11.34151000">
        <ele>195.00000</ele>
        <time>2010-01-01T00:25:12Z</time>
      </trkpt>
      <trkpt lat="43.72872000" lon="11.34138000">
        <ele>195.00000</ele>
        <time>2010-01-01T00:25:16Z</time>
      </trkpt>
      <trkpt lat="43.72862000" lon="11.34118000">
        <ele>195.00000</ele>
        <time>2010-01-01T00:25:23Z</time>
      </trkpt>
      <trkpt lat="43.72808000" lon="11.34093000">
        <ele>198.00000</ele>
        <time>2010-01-01T00:25:46Z</time>
      </trkpt>
      <trkpt lat="43.72803000" lon="11.34084000">
        <ele>198.00000</ele>
        <time>2010-01-01T00:25:49Z</time>
      </trkpt>
      <trkpt lat="43.72809000" lon="11.33878000">
        <ele>188.00000</ele>
        <time>2010-01-01T00:26:49Z</time>
      </trkpt>
      <trkpt lat="43.72887000" lon="11.33587000">
        <ele>182.00000</ele>
        <time>2010-01-01T00:28:19Z</time>
      </trkpt>
      <trkpt lat="43.72890000" lon="11.33547000">
        <ele>181.00000</ele>
        <time>2010-01-01T00:28:30Z</time>
      </trkpt>
      <trkpt lat="43.72873000" lon="11.33326000">
        <ele>172.00000</ele>
        <time>2010-01-01T00:29:35Z</time>
      </trkpt>
      <trkpt lat="43.72875000" lon="11.33208000">
        <ele>167.00000</ele>
        <time>2010-01-01T00:30:09Z</time>
      </trkpt>
      <trkpt lat="43.72865000" lon="11.33164000">
        <ele>165.00000</ele>
        <time>2010-01-01T00:30:22Z</time>
      </trkpt>
      <trkpt lat="43.72856000" lon="11.33073000">
        <ele>163.00000</ele>
        <time>2010-01-01T00:30:49Z</time>
      </trkpt>
      <trkpt lat="43.72892000" lon="11.32792000">
        <ele>155.00000</ele>
        <time>2010-01-01T00:32:11Z</time>
      </trkpt>
      <trkpt lat="43.72892000" lon="11.32735000">
        <ele>149.00000</ele>
        <time>2010-01-01T00:32:28Z</time>
      </trkpt>
      <trkpt lat="43.72875000" lon="11.32632000">
        <ele>142.00000</ele>
        <time>2010-01-01T00:32:58Z</time>
      </trkpt>
      <trkpt lat="43.72845000" lon="11.32563000">
        <ele>135.00000</ele>
        <time>2010-01-01T00:33:22Z</time>
      </trkpt>
      <trkpt lat="43.72779000" lon="11.32448000">
        <ele>132.00000</ele>
        <time>2010-01-01T00:34:04Z</time>
      </trkpt>
      <trkpt lat="43.72702000" lon="11.32334000">
        <ele>118.00000</ele>
        <time>2010-01-01T00:34:49Z</time>
      </trkpt>
      <trkpt lat="43.72697000" lon="11.32321000">
        <ele>118.00000</ele>
        <time>2010-01-01T00:34:54Z</time>
      </trkpt>
      <trkpt lat="43.72708000" lon="11.32251000">
        <ele>117.00000</ele>
        <time>2010-01-01T00:35:14Z</time>
      </trkpt>
      <trkpt lat="43.72731000" lon="11.32184000">
        <ele>116.00000</ele>
        <time>2010-01-01T00:35:36Z</time>
      </trkpt>
      <trkpt lat="43.72785000" lon="11.32050000">
        <ele>114.00000</ele>
        <time>2010-01-01T00:36:20Z</time>
      </trkpt>
      <trkpt lat="43.72769000" lon="11.32050000">
        <ele>114.00000</ele>
        <time>2010-01-01T00:36:27Z</time>
      </trkpt>
      <trkpt lat="43.72785000" lon="11.32050000">
        <ele>114.00000</ele>
        <time>2010-01-01T00:36:33Z</time>
      </trkpt>
      <trkpt lat="43.72769000" lon="11.32050000">
        <ele>114.00000</ele>
        <time>2010-01-01T00:36:39Z</time>
      </trkpt>
      <trkpt lat="43.72660720" lon="11.32127160">
        <ele>112.00000</ele>
        <time>2010-01-01T00:37:28Z</time>
      </trkpt>
      <trkpt lat="43.72631650" lon="11.32205480">
        <ele>113.00000</ele>
        <time>2010-01-01T00:37:54Z</time>
      </trkpt>
      <trkpt lat="43.72565000" lon="11.32186000">
        <ele>116.00000</ele>
        <time>2010-01-01T00:38:21Z</time>
      </trkpt>
      <trkpt lat="43.72494000" lon="11.32162000">
        <ele>124.00000</ele>
        <time>2010-01-01T00:38:50Z</time>
      </trkpt>
      <trkpt lat="43.72378000" lon="11.32107000">
        <ele>139.00000</ele>
        <time>2010-01-01T00:39:39Z</time>
      </trkpt>
      <trkpt lat="43.72332000" lon="11.32103000">
        <ele>146.00000</ele>
        <time>2010-01-01T00:39:58Z</time>
      </trkpt>
      <trkpt lat="43.72166000" lon="11.32074000">
        <ele>154.00000</ele>
        <time>2010-01-01T00:41:05Z</time>
      </trkpt>
      <trkpt lat="43.72114000" lon="11.32069000">
        <ele>158.00000</ele>
        <time>2010-01-01T00:41:25Z</time>
      </trkpt>
      <trkpt lat="43.72083000" lon="11.32072000">
        <ele>160.00000</ele>
        <time>2010-01-01T00:41:38Z</time>
      </trkpt>
      <trkpt lat="43.72003000" lon="11.32106000">
        <ele>164.00000</ele>
        <time>2010-01-01T00:42:11Z</time>
      </trkpt>
      <trkpt lat="43.71967000" lon="11.32092000">
        <ele>168.00000</ele>
        <time>2010-01-01T00:42:26Z</time>
      </trkpt>
      <trkpt lat="43.71929000" lon="11.32047000">
        <ele>171.00000</ele>
        <time>2010-01-01T00:42:46Z</time>
      </trkpt>
      <trkpt lat="43.71827000" lon="11.31985000">
        <ele>169.00000</ele>
        <time>2010-01-01T00:43:31Z</time>
      </trkpt>
      <trkpt lat="43.71796000" lon="11.31956000">
        <ele>174.00000</ele>
        <time>2010-01-01T00:43:46Z</time>
      </trkpt>
      <trkpt lat="43.71736000" lon="11.31888000">
        <ele>187.00000</ele>
        <time>2010-01-01T00:44:17Z</time>
      </trkpt>
      <trkpt lat="43.71687000" lon="11.31853000">
        <ele>187.00000</ele>
        <time>2010-01-01T00:44:39Z</time>
      </trkpt>
      <trkpt lat="43.71633000" lon="11.31820000">
        <ele>192.00000</ele>
        <time>2010-01-01T00:45:03Z</time>
      </trkpt>
      <trkpt lat="43.71570000" lon="11.31788000">
        <ele>192.00000</ele>
        <time>2010-01-01T00:45:30Z</time>
      </trkpt>
      <trkpt lat="43.71525000" lon="11.31775000">
        <ele>196.00000</ele>
        <time>2010-01-01T00:45:48Z</time>
      </trkpt>
      <trkpt lat="43.71449000" lon="11.31777000">
        <ele>196.00000</ele>
        <time>2010-01-01T00:46:18Z</time>
      </trkpt>
      <trkpt lat="43.71360000" lon="11.31702000">
        <ele>195.00000</ele>
        <time>2010-01-01T00:47:00Z</time>
      </trkpt>
      <trkpt lat="43.71335170" lon="11.31700150">
        <ele>193.00000</ele>
        <time>2010-01-01T00:47:10Z</time>
      </trkpt>
      <trkpt lat="43.71288000" lon="11.31720000">
        <ele>194.00000</ele>
        <time>2010-01-01T00:47:30Z</time>
      </trkpt>
      <trkpt lat="43.71159000" lon="11.31847000">
        <ele>192.00000</ele>
        <time>2010-01-01T00:48:33Z</time>
      </trkpt>
      <trkpt lat="43.71090000" lon="11.31858000">
        <ele>184.00000</ele>
        <time>2010-01-01T00:49:01Z</time>
      </trkpt>
      <trkpt lat="43.70979000" lon="11.31574000">
        <ele>185.00000</ele>
        <time>2010-01-01T00:50:34Z</time>
      </trkpt>
      <trkpt lat="43.70982000" lon="11.31359000">
        <ele>170.00000</ele>
        <time>2010-01-01T00:51:37Z</time>
      </trkpt>
      <trkpt lat="43.70976000" lon="11.31337000">
        <ele>169.00000</ele>
        <time>2010-01-01T00:51:43Z</time>
      </trkpt>
      <trkpt lat="43.70851000" lon="11.31095000">
        <ele>154.00000</ele>
        <time>2010-01-01T00:53:10Z</time>
      </trkpt>
      <trkpt lat="43.70825000" lon="11.31009000">
        <ele>150.00000</ele>
        <time>2010-01-01T00:53:37Z</time>
      </trkpt>
      <trkpt lat="43.70793000" lon="11.30914000">
        <ele>144.00000</ele>
        <time>2010-01-01T00:54:07Z</time>
      </trkpt>
      <trkpt lat="43.70721000" lon="11.30776000">
        <ele>131.00000</ele>
        <time>2010-01-01T00:54:56Z</time>
      </trkpt>
      <trkpt lat="43.70697000" lon="11.30722000">
        <ele>127.00000</ele>
        <time>2010-01-01T00:55:14Z</time>
      </trkpt>
      <trkpt lat="43.70682180" lon="11.30707740">
        <ele>125.00000</ele>
        <time>2010-01-01T00:55:22Z</time>
      </trkpt>
      <trkpt lat="43.70669000" lon="11.30713000">
        <ele>124.00000</ele>
        <time>2010-01-01T00:55:27Z</time>
      </trkpt>
      <trkpt lat="43.70667000" lon="11.30725000">
        <ele>125.00000</ele>
        <time>2010-01-01T00:55:31Z</time>
      </trkpt>
      <trkpt lat="43.70668000" lon="11.30754000">
        <ele>126.00000</ele>
        <time>2010-01-01T00:55:39Z</time>
      </trkpt>
      <trkpt lat="43.70662400" lon="11.30773180">
        <ele>125.00000</ele>
        <time>2010-01-01T00:55:45Z</time>
      </trkpt>
      <trkpt lat="43.70646000" lon="11.30766000">
        <ele>122.00000</ele>
        <time>2010-01-01T00:55:52Z</time>
      </trkpt>
      <trkpt lat="43.70623000" lon="11.30717000">
        <ele>117.00000</ele>
        <time>2010-01-01T00:56:09Z</time>
      </trkpt>
      <trkpt lat="43.70620520" lon="11.30682520">
        <ele>115.00000</ele>
        <time>2010-01-01T00:56:19Z</time>
      </trkpt>
      <trkpt lat="43.70643400" lon="11.30603670">
        <ele>110.00000</ele>
        <time>2010-01-01T00:56:43Z</time>
      </trkpt>
      <trkpt lat="43.70537000" lon="11.30703000">
        <ele>108.00000</ele>
        <time>2010-01-01T00:57:35Z</time>
      </trkpt>
      <trkpt lat="43.70459000" lon="11.30750000">
        <ele>105.00000</ele>
        <time>2010-01-01T00:58:09Z</time>
      </trkpt>
      <trkpt lat="43.70356000" lon="11.30737000">
        <ele>104.00000</ele>
        <time>2010-01-01T00:58:50Z</time>
      </trkpt>
      <trkpt lat="43.70263000" lon="11.30731000">
        <ele>104.00000</ele>
        <time>2010-01-01T00:59:28Z</time>
      </trkpt>
      <trkpt lat="43.70207000" lon="11.30735000">
        <ele>104.00000</ele>
        <time>2010-01-01T00:59:50Z</time>
      </trkpt>
      <trkpt lat="43.70184240" lon="11.30757620">
        <ele>105.00000</ele>
        <time>2010-01-01T01:00:01Z</time>
      </trkpt>
      <trkpt lat="43.70102020" lon="11.30861690">
        <ele>106.00000</ele>
        <time>2010-01-01T01:00:46Z</time>
      </trkpt>
      <trkpt lat="43.70047000" lon="11.30979000">
        <ele>110.00000</ele>
        <time>2010-01-01T01:01:26Z</time>
      </trkpt>
      <trkpt lat="43.69948000" lon="11.30979000">
        <ele>107.00000</ele>
        <time>2010-01-01T01:02:06Z</time>
      </trkpt>
      <trkpt lat="43.69788000" lon="11.30833000">
        <ele>110.00000</ele>
        <time>2010-01-01T01:03:23Z</time>
      </trkpt>
      <trkpt lat="43.69716000" lon="11.30789000">
        <ele>111.00000</ele>
        <time>2010-01-01T01:03:54Z</time>
      </trkpt>
      <trkpt lat="43.69661000" lon="11.30792000">
        <ele>111.00000</ele>
        <time>2010-01-01T01:04:16Z</time>
      </trkpt>
      <trkpt lat="43.69563000" lon="11.30773000">
        <ele>113.00000</ele>
        <time>2010-01-01T01:04:56Z</time>
      </trkpt>
      <trkpt lat="43.69541000" lon="11.30761000">
        <ele>114.00000</ele>
        <time>2010-01-01T01:05:05Z</time>
      </trkpt>
      <trkpt lat="43.69471000" lon="11.30704000">
        <ele>111.00000</ele>
        <time>2010-01-01T01:05:38Z</time>
      </trkpt>
      <trkpt lat="43.69431000" lon="11.30697000">
        <ele>111.00000</ele>
        <time>2010-01-01T01:05:54Z</time>
      </trkpt>
      <trkpt lat="43.69380000" lon="11.30725000">
        <ele>113.00000</ele>
        <time>2010-01-01T01:06:16Z</time>
      </trkpt>
      <trkpt lat="43.69276000" lon="11.30810000">
        <ele>115.00000</ele>
        <time>2010-01-01T01:07:04Z</time>
      </trkpt>
      <trkpt lat="43.69249000" lon="11.30825000">
        <ele>115.00000</ele>
        <time>2010-01-01T01:07:16Z</time>
      </trkpt>
      <trkpt lat="43.69191340" lon="11.30849360">
        <ele>114.00000</ele>
        <time>2010-01-01T01:07:40Z</time>
      </trkpt>
      <trkpt lat="43.69157000" lon="11.30890000">
        <ele>114.00000</ele>
        <time>2010-01-01T01:07:58Z</time>
      </trkpt>
      <trkpt lat="43.69134320" lon="11.30908370">
        <ele>115.00000</ele>
        <time>2010-01-01T01:08:09Z</time>
      </trkpt>
      <trkpt lat="43.69088000" lon="11.30926000">
        <ele>118.00000</ele>
        <time>2010-01-01T01:08:28Z</time>
      </trkpt>
      <trkpt lat="43.69065000" lon="11.30943000">
        <ele>122.00000</ele>
        <time>2010-01-01T01:08:38Z</time>
      </trkpt>
      <trkpt lat="43.68992000" lon="11.31029000">
        <ele>137.00000</ele>
        <time>2010-01-01T01:09:17Z</time>
      </trkpt>
      <trkpt lat="43.68971000" lon="11.31036000">
        <ele>140.00000</ele>
        <time>2010-01-01T01:09:25Z</time>
      </trkpt>
      <trkpt lat="43.68803000" lon="11.31061000">
        <ele>154.00000</ele>
        <time>2010-01-01T01:10:33Z</time>
      </trkpt>
      <trkpt lat="43.68774000" lon="11.31069000">
        <ele>153.00000</ele>
        <time>2010-01-01T01:10:45Z</time>
      </trkpt>
      <trkpt lat="43.68615000" lon="11.31126000">
        <ele>156.00000</ele>
        <time>2010-01-01T01:11:51Z</time>
      </trkpt>
      <trkpt lat="43.68569000" lon="11.31131000">
        <ele>156.00000</ele>
        <time>2010-01-01T01:12:09Z</time>
      </trkpt>
      <trkpt lat="43.68504000" lon="11.31132000">
        <ele>157.00000</ele>
        <time>2010-01-01T01:12:35Z</time>
      </trkpt>
      <trkpt lat="43.68201000" lon="11.31113000">
        <ele>173.00000</ele>
        <time>2010-01-01T01:14:37Z</time>
      </trkpt>
      <trkpt lat="43.68147000" lon="11.31121000">
        <ele>175.00000</ele>
        <time>2010-01-01T01:14:58Z</time>
      </trkpt>
      <trkpt lat="43.68098000" lon="11.31114000">
        <ele>179.00000</ele>
        <time>2010-01-01T01:15:18Z</time>
      </trkpt>
      <trkpt lat="43.67990000" lon="11.31061000">
        <ele>193.00000</ele>
        <time>2010-01-01T01:16:04Z</time>
      </trkpt>
      <trkpt lat="43.67980000" lon="11.31062000">
        <ele>194.00000</ele>
        <time>2010-01-01T01:16:08Z</time>
      </trkpt>
      <trkpt lat="43.67768420" lon="11.31175510">
        <ele>196.00000</ele>
        <time>2010-01-01T01:17:39Z</time>
      </trkpt>
      <trkpt lat="43.67677000" lon="11.31315000">
        <ele>195.00000</ele>
        <time>2010-01-01T01:18:33Z</time>
      </trkpt>
      <trkpt lat="43.67557000" lon="11.31419000">
        <ele>200.00000</ele>
        <time>2010-01-01T01:19:30Z</time>
      </trkpt>
      <trkpt lat="43.67469000" lon="11.31485000">
        <ele>202.00000</ele>
        <time>2010-01-01T01:20:10Z</time>
      </trkpt>
      <trkpt lat="43.67129000" lon="11.31812000">
        <ele>217.00000</ele>
        <time>2010-01-01T01:22:56Z</time>
      </trkpt>
      <trkpt lat="43.67090000" lon="11.31830000">
        <ele>214.00000</ele>
        <time>2010-01-01T01:23:12Z</time>
      </trkpt>
      <trkpt lat="43.67062000" lon="11.31828000">
        <ele>211.00000</ele>
        <time>2010-01-01T01:23:23Z</time>
      </trkpt>
      <trkpt lat="43.67023000" lon="11.31817000">
        <ele>208.00000</ele>
        <time>2010-01-01T01:23:39Z</time>
      </trkpt>
      <trkpt lat="43.66931120" lon="11.31781160">
        <ele>201.00000</ele>
        <time>2010-01-01T01:24:18Z</time>
      </trkpt>
      <trkpt lat="43.66926000" lon="11.31792000">
        <ele>198.00000</ele>
        <time>2010-01-01T01:24:21Z</time>
      </trkpt>
      <trkpt lat="43.66950000" lon="11.31843000">
        <ele>196.00000</ele>
        <time>2010-01-01T01:24:39Z</time>
      </trkpt>
      <trkpt lat="43.66944000" lon="11.31866000">
        <ele>193.00000</ele>
        <time>2010-01-01T01:24:46Z</time>
      </trkpt>
      <trkpt lat="43.66855000" lon="11.31910000">
        <ele>181.00000</ele>
        <time>2010-01-01T01:25:24Z</time>
      </trkpt>
      <trkpt lat="43.66846000" lon="11.31927000">
        <ele>179.00000</ele>
        <time>2010-01-01T01:25:30Z</time>
      </trkpt>
      <trkpt lat="43.66847000" lon="11.31943000">
        <ele>178.00000</ele>
        <time>2010-01-01T01:25:35Z</time>
      </trkpt>
      <trkpt lat="43.66868000" lon="11.31982000">
        <ele>176.00000</ele>
        <time>2010-01-01T01:25:49Z</time>
      </trkpt>
      <trkpt lat="43.66869000" lon="11.31995000">
        <ele>175.00000</ele>
        <time>2010-01-01T01:25:53Z</time>
      </trkpt>
      <trkpt lat="43.66826000" lon="11.32020000">
        <ele>169.00000</ele>
        <time>2010-01-01T01:26:11Z</time>
      </trkpt>
      <trkpt lat="43.66814000" lon="11.32021000">
        <ele>167.00000</ele>
        <time>2010-01-01T01:26:16Z</time>
      </trkpt>
      <trkpt lat="43.66801000" lon="11.32014000">
        <ele>165.00000</ele>
        <time>2010-01-01T01:26:22Z</time>
      </trkpt>
      <trkpt lat="43.66773960" lon="11.31980710">
        <ele>162.00000</ele>
        <time>2010-01-01T01:26:36Z</time>
      </trkpt>
      <trkpt lat="43.66760000" lon="11.31983000">
        <ele>160.00000</ele>
        <time>2010-01-01T01:26:42Z</time>
      </trkpt>
      <trkpt lat="43.66751000" lon="11.32028000">
        <ele>160.00000</ele>
        <time>2010-01-01T01:26:55Z</time>
      </trkpt>
      <trkpt lat="43.66687000" lon="11.32080000">
        <ele>152.00000</ele>
        <time>2010-01-01T01:27:25Z</time>
      </trkpt>
      <trkpt lat="43.66682000" lon="11.32170000">
        <ele>153.00000</ele>
        <time>2010-01-01T01:27:51Z</time>
      </trkpt>
      <trkpt lat="43.66538810" lon="11.31563900">
        <ele>142.00000</ele>
        <time>2010-01-01T01:30:56Z</time>
      </trkpt>
      <trkpt lat="43.66500000" lon="11.31482000">
        <ele>141.00000</ele>
        <time>2010-01-01T01:31:24Z</time>
      </trkpt>
      <trkpt lat="43.66386000" lon="11.31450000">
        <ele>144.00000</ele>
        <time>2010-01-01T01:32:11Z</time>
      </trkpt>
      <trkpt lat="43.66329000" lon="11.31482000">
        <ele>148.00000</ele>
        <time>2010-01-01T01:32:35Z</time>
      </trkpt>
      <trkpt lat="43.66295000" lon="11.31493000">
        <ele>150.00000</ele>
        <time>2010-01-01T01:32:49Z</time>
      </trkpt>
      <trkpt lat="43.66243000" lon="11.31469000">
        <ele>152.00000</ele>
        <time>2010-01-01T01:33:11Z</time>
      </trkpt>
      <trkpt lat="43.66185000" lon="11.31425000">
        <ele>154.00000</ele>
        <time>2010-01-01T01:33:38Z</time>
      </trkpt>
      <trkpt lat="43.66108000" lon="11.31392000">
        <ele>166.00000</ele>
        <time>2010-01-01T01:34:10Z</time>
      </trkpt>
      <trkpt lat="43.65996000" lon="11.31377000">
        <ele>167.00000</ele>
        <time>2010-01-01T01:34:55Z</time>
      </trkpt>
      <trkpt lat="43.65900000" lon="11.31306000">
        <ele>172.00000</ele>
        <time>2010-01-01T01:35:39Z</time>
      </trkpt>
      <trkpt lat="43.65814000" lon="11.31186000">
        <ele>178.00000</ele>
        <time>2010-01-01T01:36:27Z</time>
      </trkpt>
      <trkpt lat="43.65787000" lon="11.31132000">
        <ele>181.00000</ele>
        <time>2010-01-01T01:36:47Z</time>
      </trkpt>
      <trkpt lat="43.65781000" lon="11.31072000">
        <ele>188.00000</ele>
        <time>2010-01-01T01:37:04Z</time>
      </trkpt>
      <trkpt lat="43.65772000" lon="11.31048000">
        <ele>190.00000</ele>
        <time>2010-01-01T01:37:12Z</time>
      </trkpt>
      <trkpt lat="43.65752000" lon="11.31035000">
        <ele>190.00000</ele>
        <time>2010-01-01T01:37:21Z</time>
      </trkpt>
      <trkpt lat="43.65699000" lon="11.31018000">
        <ele>190.00000</ele>
        <time>2010-01-01T01:37:43Z</time>
      </trkpt>
      <trkpt lat="43.65603000" lon="11.30933000">
        <ele>198.00000</ele>
        <time>2010-01-01T01:38:28Z</time>
      </trkpt>
      <trkpt lat="43.65539000" lon="11.30900000">
        <ele>201.00000</ele>
        <time>2010-01-01T01:38:55Z</time>
      </trkpt>
      <trkpt lat="43.65404030" lon="11.30840770">
        <ele>209.00000</ele>
        <time>2010-01-01T01:39:52Z</time>
      </trkpt>
      <trkpt lat="43.65279000" lon="11.30811000">
        <ele>216.00000</ele>
        <time>2010-01-01T01:40:43Z</time>
      </trkpt>
      <trkpt lat="43.65256000" lon="11.30818000">
        <ele>216.00000</ele>
        <time>2010-01-01T01:40:52Z</time>
      </trkpt>
      <trkpt lat="43.65211000" lon="11.30808000">
        <ele>215.00000</ele>
        <time>2010-01-01T01:41:11Z</time>
      </trkpt>
      <trkpt lat="43.65174000" lon="11.30878000">
        <ele>217.00000</ele>
        <time>2010-01-01T01:41:36Z</time>
      </trkpt>
      <trkpt lat="43.64947580" lon="11.31085390">
        <ele>228.00000</ele>
        <time>2010-01-01T01:43:24Z</time>
      </trkpt>
      <trkpt lat="43.64646360" lon="11.31164780">
        <ele>245.00000</ele>
        <time>2010-01-01T01:45:27Z</time>
      </trkpt>
      <trkpt lat="43.64540770" lon="11.31214140">
        <ele>247.00000</ele>
        <time>2010-01-01T01:46:12Z</time>
      </trkpt>
      <trkpt lat="43.64132390" lon="11.31278510">
        <ele>269.00000</ele>
        <time>2010-01-01T01:48:56Z</time>
      </trkpt>
      <trkpt lat="43.64039220" lon="11.31332150">
        <ele>276.00000</ele>
        <time>2010-01-01T01:49:37Z</time>
      </trkpt>
      <trkpt lat="43.63924310" lon="11.31347170">
        <ele>280.00000</ele>
        <time>2010-01-01T01:50:23Z</time>
      </trkpt>
      <trkpt lat="43.63823370" lon="11.31396530">
        <ele>282.00000</ele>
        <time>2010-01-01T01:51:06Z</time>
      </trkpt>
      <trkpt lat="43.63706900" lon="11.31409400">
        <ele>290.00000</ele>
        <time>2010-01-01T01:51:53Z</time>
      </trkpt>
      <trkpt lat="43.63624590" lon="11.31360050">
        <ele>299.00000</ele>
        <time>2010-01-01T01:52:29Z</time>
      </trkpt>
      <trkpt lat="43.63529860" lon="11.31345030">
        <ele>304.00000</ele>
        <time>2010-01-01T01:53:07Z</time>
      </trkpt>
      <trkpt lat="43.63425810" lon="11.31409400">
        <ele>304.00000</ele>
        <time>2010-01-01T01:53:52Z</time>
      </trkpt>
      <trkpt lat="43.63362140" lon="11.31377220">
        <ele>304.00000</ele>
        <time>2010-01-01T01:54:19Z</time>
      </trkpt>
      <trkpt lat="43.63286040" lon="11.31387940">
        <ele>313.00000</ele>
        <time>2010-01-01T01:54:50Z</time>
      </trkpt>
      <trkpt lat="43.63213040" lon="11.31337520">
        <ele>312.00000</ele>
        <time>2010-01-01T01:55:23Z</time>
      </trkpt>
      <trkpt lat="43.63138490" lon="11.31306400">
        <ele>318.00000</ele>
        <time>2010-01-01T01:55:54Z</time>
      </trkpt>
      <trkpt lat="43.63096560" lon="11.31259200">
        <ele>321.00000</ele>
        <time>2010-01-01T01:56:16Z</time>
      </trkpt>
      <trkpt lat="43.62983180" lon="11.31207700">
        <ele>331.00000</ele>
        <time>2010-01-01T01:57:03Z</time>
      </trkpt>
      <trkpt lat="43.62931930" lon="11.31160490">
        <ele>338.00000</ele>
        <time>2010-01-01T01:57:28Z</time>
      </trkpt>
      <trkpt lat="43.62823210" lon="11.31141180">
        <ele>343.00000</ele>
        <time>2010-01-01T01:58:12Z</time>
      </trkpt>
      <trkpt lat="43.62764190" lon="11.31091830">
        <ele>334.00000</ele>
        <time>2010-01-01T01:58:40Z</time>
      </trkpt>
      <trkpt lat="43.62714490" lon="11.31001710">
        <ele>326.00000</ele>
        <time>2010-01-01T01:59:12Z</time>
      </trkpt>
      <trkpt lat="43.62378980" lon="11.30868670">
        <ele>295.00000</ele>
        <time>2010-01-01T02:01:32Z</time>
      </trkpt>
      <trkpt lat="43.62290450" lon="11.30774250">
        <ele>286.00000</ele>
        <time>2010-01-01T02:02:17Z</time>
      </trkpt>
      <trkpt lat="43.62229870" lon="11.30632630">
        <ele>291.00000</ele>
        <time>2010-01-01T02:03:05Z</time>
      </trkpt>
      <trkpt lat="43.62178610" lon="11.30470630">
        <ele>291.00000</ele>
        <time>2010-01-01T02:03:56Z</time>
      </trkpt>
      <trkpt lat="43.62004630" lon="11.30315060">
        <ele>275.00000</ele>
        <time>2010-01-01T02:05:19Z</time>
      </trkpt>
      <trkpt lat="43.61897440" lon="11.30256050">
        <ele>267.00000</ele>
        <time>2010-01-01T02:06:05Z</time>
      </trkpt>
      <trkpt lat="43.61789480" lon="11.30102630">
        <ele>268.00000</ele>
        <time>2010-01-01T02:07:07Z</time>
      </trkpt>
      <trkpt lat="43.61678410" lon="11.29983540">
        <ele>266.00000</ele>
        <time>2010-01-01T02:08:03Z</time>
      </trkpt>
      <trkpt lat="43.61538600" lon="11.29938480">
        <ele>257.00000</ele>
        <time>2010-01-01T02:09:01Z</time>
      </trkpt>
      <trkpt lat="43.61404990" lon="11.29868740">
        <ele>250.00000</ele>
        <time>2010-01-01T02:09:58Z</time>
      </trkpt>
      <trkpt lat="43.61380140" lon="11.29832260">
        <ele>248.00000</ele>
        <time>2010-01-01T02:10:12Z</time>
      </trkpt>
      <trkpt lat="43.61344400" lon="11.29770040">
        <ele>242.00000</ele>
        <time>2010-01-01T02:10:35Z</time>
      </trkpt>
      <trkpt lat="43.61308670" lon="11.29795780">
        <ele>246.00000</ele>
        <time>2010-01-01T02:10:52Z</time>
      </trkpt>
      <trkpt lat="43.61313330" lon="11.29849430">
        <ele>246.00000</ele>
        <time>2010-01-01T02:11:07Z</time>
      </trkpt>
      <trkpt lat="43.61359940" lon="11.29943840">
        <ele>241.00000</ele>
        <time>2010-01-01T02:11:40Z</time>
      </trkpt>
      <trkpt lat="43.61429850" lon="11.30001780">
        <ele>239.00000</ele>
        <time>2010-01-01T02:12:13Z</time>
      </trkpt>
      <trkpt lat="43.61418970" lon="11.30027530">
        <ele>235.00000</ele>
        <time>2010-01-01T02:12:22Z</time>
      </trkpt>
      <trkpt lat="43.61207690" lon="11.29922380">
        <ele>226.00000</ele>
        <time>2010-01-01T02:13:51Z</time>
      </trkpt>
      <trkpt lat="43.61139330" lon="11.29955640">
        <ele>220.00000</ele>
        <time>2010-01-01T02:14:20Z</time>
      </trkpt>
      <trkpt lat="43.61094280" lon="11.29937410">
        <ele>220.00000</ele>
        <time>2010-01-01T02:14:39Z</time>
      </trkpt>
      <trkpt lat="43.60980080" lon="11.29995340">
        <ele>211.00000</ele>
        <time>2010-01-01T02:15:28Z</time>
      </trkpt>
      <trkpt lat="43.60881430" lon="11.29966370">
        <ele>205.00000</ele>
        <time>2010-01-01T02:16:08Z</time>
      </trkpt>
      <trkpt lat="43.60805300" lon="11.30109070">
        <ele>206.00000</ele>
        <time>2010-01-01T02:17:00Z</time>
      </trkpt>
      <trkpt lat="43.60786650" lon="11.30239960">
        <ele>208.00000</ele>
        <time>2010-01-01T02:17:38Z</time>
      </trkpt>
      <trkpt lat="43.60681000" lon="11.30445950">
        <ele>213.00000</ele>
        <time>2010-01-01T02:18:52Z</time>
      </trkpt>
      <trkpt lat="43.60423070" lon="11.30673400">
        <ele>209.00000</ele>
        <time>2010-01-01T02:20:54Z</time>
      </trkpt>
      <trkpt lat="43.60412200" lon="11.30848280">
        <ele>216.00000</ele>
        <time>2010-01-01T02:21:45Z</time>
      </trkpt>
      <trkpt lat="43.60378010" lon="11.30922310">
        <ele>217.00000</ele>
        <time>2010-01-01T02:22:10Z</time>
      </trkpt>
      <trkpt lat="43.60095210" lon="11.31083250">
        <ele>215.00000</ele>
        <time>2010-01-01T02:24:13Z</time>
      </trkpt>
      <trkpt lat="43.59785980" lon="11.31627200">
        <ele>219.00000</ele>
        <time>2010-01-01T02:27:33Z</time>
      </trkpt>
      <trkpt lat="43.59650790" lon="11.31696930">
        <ele>220.00000</ele>
        <time>2010-01-01T02:28:31Z</time>
      </trkpt>
      <trkpt lat="43.59548220" lon="11.31664750">
        <ele>219.00000</ele>
        <time>2010-01-01T02:29:13Z</time>
      </trkpt>
      <trkpt lat="43.59461980" lon="11.31669040">
        <ele>223.00000</ele>
        <time>2010-01-01T02:29:48Z</time>
      </trkpt>
      <trkpt lat="43.59089770" lon="11.31445880">
        <ele>224.00000</ele>
        <time>2010-01-01T02:32:30Z</time>
      </trkpt>
      <trkpt lat="43.59019060" lon="11.31438370">
        <ele>223.00000</ele>
        <time>2010-01-01T02:32:59Z</time>
      </trkpt>
      <trkpt lat="43.58496060" lon="11.31540290">
        <ele>229.00000</ele>
        <time>2010-01-01T02:36:30Z</time>
      </trkpt>
      <trkpt lat="43.58418340" lon="11.31574630">
        <ele>231.00000</ele>
        <time>2010-01-01T02:37:03Z</time>
      </trkpt>
      <trkpt lat="43.58337520" lon="11.31737700">
        <ele>234.00000</ele>
        <time>2010-01-01T02:38:00Z</time>
      </trkpt>
      <trkpt lat="43.58295550" lon="11.31778470">
        <ele>235.00000</ele>
        <time>2010-01-01T02:38:20Z</time>
      </trkpt>
      <trkpt lat="43.58367830" lon="11.32568120">
        <ele>260.00000</ele>
        <time>2010-01-01T02:42:11Z</time>
      </trkpt>
      <trkpt lat="43.58387260" lon="11.32633560">
        <ele>264.00000</ele>
        <time>2010-01-01T02:42:32Z</time>
      </trkpt>
      <trkpt lat="43.58443210" lon="11.32721540">
        <ele>267.00000</ele>
        <time>2010-01-01T02:43:06Z</time>
      </trkpt>
      <trkpt lat="43.58482850" lon="11.33024090">
        <ele>281.00000</ele>
        <time>2010-01-01T02:44:35Z</time>
      </trkpt>
      <trkpt lat="43.58406690" lon="11.33130310">
        <ele>285.00000</ele>
        <time>2010-01-01T02:45:18Z</time>
      </trkpt>
      <trkpt lat="43.58357730" lon="11.33158200">
        <ele>291.00000</ele>
        <time>2010-01-01T02:45:39Z</time>
      </trkpt>
      <trkpt lat="43.58359280" lon="11.33201120">
        <ele>291.00000</ele>
        <time>2010-01-01T02:45:52Z</time>
      </trkpt>
      <trkpt lat="43.58433110" lon="11.33282660">
        <ele>295.00000</ele>
        <time>2010-01-01T02:46:30Z</time>
      </trkpt>
      <trkpt lat="43.58437770" lon="11.33392090">
        <ele>305.00000</ele>
        <time>2010-01-01T02:47:02Z</time>
      </trkpt>
      <trkpt lat="43.58529480" lon="11.33408180">
        <ele>308.00000</ele>
        <time>2010-01-01T02:47:39Z</time>
      </trkpt>
      <trkpt lat="43.58574550" lon="11.33468270">
        <ele>318.00000</ele>
        <time>2010-01-01T02:48:04Z</time>
      </trkpt>
      <trkpt lat="43.58636720" lon="11.33503670">
        <ele>318.00000</ele>
        <time>2010-01-01T02:48:31Z</time>
      </trkpt>
      <trkpt lat="43.58680240" lon="11.33545510">
        <ele>327.00000</ele>
        <time>2010-01-01T02:48:52Z</time>
      </trkpt>
      <trkpt lat="43.58793700" lon="11.33606670">
        <ele>333.00000</ele>
        <time>2010-01-01T02:49:41Z</time>
      </trkpt>
      <trkpt lat="43.58831000" lon="11.33708590">
        <ele>343.00000</ele>
        <time>2010-01-01T02:50:14Z</time>
      </trkpt>
      <trkpt lat="43.58869860" lon="11.33709660">
        <ele>342.00000</ele>
        <time>2010-01-01T02:50:29Z</time>
      </trkpt>
      <trkpt lat="43.58890060" lon="11.33656020">
        <ele>343.00000</ele>
        <time>2010-01-01T02:50:47Z</time>
      </trkpt>
      <trkpt lat="43.58872960" lon="11.33541220">
        <ele>343.00000</ele>
        <time>2010-01-01T02:51:21Z</time>
      </trkpt>
      <trkpt lat="43.58867520" lon="11.33379220">
        <ele>352.00000</ele>
        <time>2010-01-01T02:52:08Z</time>
      </trkpt>
      <trkpt lat="43.58875300" lon="11.33333080">
        <ele>353.00000</ele>
        <time>2010-01-01T02:52:21Z</time>
      </trkpt>
      <trkpt lat="43.58908710" lon="11.33311620">
        <ele>356.00000</ele>
        <time>2010-01-01T02:52:36Z</time>
      </trkpt>
      <trkpt lat="43.58951450" lon="11.33332010">
        <ele>358.00000</ele>
        <time>2010-01-01T02:52:54Z</time>
      </trkpt>
      <trkpt lat="43.59001180" lon="11.33443590">
        <ele>369.00000</ele>
        <time>2010-01-01T02:53:32Z</time>
      </trkpt>
      <trkpt lat="43.59128620" lon="11.33622760">
        <ele>377.00000</ele>
        <time>2010-01-01T02:54:45Z</time>
      </trkpt>
      <trkpt lat="43.59138730" lon="11.33698940">
        <ele>389.00000</ele>
        <time>2010-01-01T02:55:08Z</time>
      </trkpt>
      <trkpt lat="43.59159710" lon="11.33749360">
        <ele>393.00000</ele>
        <time>2010-01-01T02:55:24Z</time>
      </trkpt>
      <trkpt lat="43.59206330" lon="11.33796570">
        <ele>391.00000</ele>
        <time>2010-01-01T02:55:48Z</time>
      </trkpt>
      <trkpt lat="43.59254510" lon="11.34002560">
        <ele>408.00000</ele>
        <time>2010-01-01T02:56:50Z</time>
      </trkpt>
      <trkpt lat="43.59282480" lon="11.34049770">
        <ele>406.00000</ele>
        <time>2010-01-01T02:57:08Z</time>
      </trkpt>
      <trkpt lat="43.59322890" lon="11.34079810">
        <ele>409.00000</ele>
        <time>2010-01-01T02:57:26Z</time>
      </trkpt>
      <trkpt lat="43.59359410" lon="11.34130230">
        <ele>414.00000</ele>
        <time>2010-01-01T02:57:47Z</time>
      </trkpt>
      <trkpt lat="43.59357080" lon="11.34172080">
        <ele>415.00000</ele>
        <time>2010-01-01T02:57:59Z</time>
      </trkpt>
      <trkpt lat="43.59282480" lon="11.34237520">
        <ele>420.00000</ele>
        <time>2010-01-01T02:58:35Z</time>
      </trkpt>
      <trkpt lat="43.59246740" lon="11.34242890">
        <ele>425.00000</ele>
        <time>2010-01-01T02:58:49Z</time>
      </trkpt>
      <trkpt lat="43.59235080" lon="11.34302970">
        <ele>420.00000</ele>
        <time>2010-01-01T02:59:07Z</time>
      </trkpt>
      <trkpt lat="43.59170590" lon="11.34342670">
        <ele>424.00000</ele>
        <time>2010-01-01T02:59:35Z</time>
      </trkpt>
      <trkpt lat="43.59109970" lon="11.34521840">
        <ele>429.00000</ele>
        <time>2010-01-01T03:00:33Z</time>
      </trkpt>
      <trkpt lat="43.59115410" lon="11.34594790">
        <ele>436.00000</ele>
        <time>2010-01-01T03:00:54Z</time>
      </trkpt>
      <trkpt lat="43.59149600" lon="11.34625910">
        <ele>436.00000</ele>
        <time>2010-01-01T03:01:10Z</time>
      </trkpt>
      <trkpt lat="43.59214100" lon="11.34622690">
        <ele>433.00000</ele>
        <time>2010-01-01T03:01:36Z</time>
      </trkpt>
      <trkpt lat="43.59256060" lon="11.34638780">
        <ele>435.00000</ele>
        <time>2010-01-01T03:01:54Z</time>
      </trkpt>
      <trkpt lat="43.59319780" lon="11.34717100">
        <ele>439.00000</ele>
        <time>2010-01-01T03:02:28Z</time>
      </trkpt>
      <trkpt lat="43.59314340" lon="11.34812590">
        <ele>446.00000</ele>
        <time>2010-01-01T03:02:55Z</time>
      </trkpt>
      <trkpt lat="43.59347750" lon="11.34899490">
        <ele>450.00000</ele>
        <time>2010-01-01T03:03:24Z</time>
      </trkpt>
      <trkpt lat="43.59331430" lon="11.34984250">
        <ele>463.00000</ele>
        <time>2010-01-01T03:03:49Z</time>
      </trkpt>
      <trkpt lat="43.59364070" lon="11.35087250">
        <ele>462.00000</ele>
        <time>2010-01-01T03:04:22Z</time>
      </trkpt>
      <trkpt lat="43.59361740" lon="11.35143040">
        <ele>467.00000</ele>
        <time>2010-01-01T03:04:38Z</time>
      </trkpt>
      <trkpt lat="43.59339200" lon="11.35207410">
        <ele>468.00000</ele>
        <time>2010-01-01T03:04:59Z</time>
      </trkpt>
      <trkpt lat="43.59300350" lon="11.35278220">
        <ele>472.00000</ele>
        <time>2010-01-01T03:05:25Z</time>
      </trkpt>
      <trkpt lat="43.59290250" lon="11.35339370">
        <ele>468.00000</ele>
        <time>2010-01-01T03:05:43Z</time>
      </trkpt>
      <trkpt lat="43.59222650" lon="11.35425200">
        <ele>473.00000</ele>
        <time>2010-01-01T03:06:20Z</time>
      </trkpt>
      <trkpt lat="43.59179130" lon="11.35438080">
        <ele>479.00000</ele>
        <time>2010-01-01T03:06:37Z</time>
      </trkpt>
      <trkpt lat="43.59144940" lon="11.35480990">
        <ele>476.00000</ele>
        <time>2010-01-01T03:06:56Z</time>
      </trkpt>
      <trkpt lat="43.59088220" lon="11.35502450">
        <ele>477.00000</ele>
        <time>2010-01-01T03:07:19Z</time>
      </trkpt>
      <trkpt lat="43.59071900" lon="11.35535710">
        <ele>476.00000</ele>
        <time>2010-01-01T03:07:31Z</time>
      </trkpt>
      <trkpt lat="43.59087440" lon="11.35574340">
        <ele>476.00000</ele>
        <time>2010-01-01T03:07:44Z</time>
      </trkpt>
      <trkpt lat="43.59147270" lon="11.35574340">
        <ele>476.00000</ele>
        <time>2010-01-01T03:08:08Z</time>
      </trkpt>
      <trkpt lat="43.59169810" lon="11.35615110">
        <ele>487.00000</ele>
        <time>2010-01-01T03:08:23Z</time>
      </trkpt>
      <trkpt lat="43.59221870" lon="11.35663390">
        <ele>485.00000</ele>
        <time>2010-01-01T03:08:48Z</time>
      </trkpt>
      <trkpt lat="43.59249070" lon="11.35818950">
        <ele>501.00000</ele>
        <time>2010-01-01T03:09:34Z</time>
      </trkpt>
      <trkpt lat="43.59274710" lon="11.35890840">
        <ele>496.00000</ele>
        <time>2010-01-01T03:09:57Z</time>
      </trkpt>
      <trkpt lat="43.59249840" lon="11.35939120">
        <ele>507.00000</ele>
        <time>2010-01-01T03:10:15Z</time>
      </trkpt>
      <trkpt lat="43.59232750" lon="11.36064640">
        <ele>525.00000</ele>
        <time>2010-01-01T03:10:52Z</time>
      </trkpt>
      <trkpt lat="43.59282480" lon="11.36090390">
        <ele>509.00000</ele>
        <time>2010-01-01T03:11:13Z</time>
      </trkpt>
      <trkpt lat="43.59288700" lon="11.36148330">
        <ele>511.00000</ele>
        <time>2010-01-01T03:11:30Z</time>
      </trkpt>
      <trkpt lat="43.59246740" lon="11.36279220">
        <ele>533.00000</ele>
        <time>2010-01-01T03:12:11Z</time>
      </trkpt>
      <trkpt lat="43.59242070" lon="11.36319990">
        <ele>534.00000</ele>
        <time>2010-01-01T03:12:23Z</time>
      </trkpt>
      <trkpt lat="43.59265390" lon="11.36337160">
        <ele>529.00000</ele>
        <time>2010-01-01T03:12:34Z</time>
      </trkpt>
      <trkpt lat="43.59350080" lon="11.36317840">
        <ele>521.00000</ele>
        <time>2010-01-01T03:13:08Z</time>
      </trkpt>
      <trkpt lat="43.59432450" lon="11.36351100">
        <ele>525.00000</ele>
        <time>2010-01-01T03:13:43Z</time>
      </trkpt>
      <trkpt lat="43.59493830" lon="11.36298530">
        <ele>518.00000</ele>
        <time>2010-01-01T03:14:12Z</time>
      </trkpt>
      <trkpt lat="43.59604170" lon="11.36221280">
        <ele>520.00000</ele>
        <time>2010-01-01T03:15:01Z</time>
      </trkpt>
      <trkpt lat="43.59656230" lon="11.36216990">
        <ele>521.00000</ele>
        <time>2010-01-01T03:15:22Z</time>
      </trkpt>
      <trkpt lat="43.59695080" lon="11.36291020">
        <ele>532.00000</ele>
        <time>2010-01-01T03:15:49Z</time>
      </trkpt>
      <trkpt lat="43.59796860" lon="11.36330720">
        <ele>532.00000</ele>
        <time>2010-01-01T03:16:31Z</time>
      </trkpt>
      <trkpt lat="43.59818620" lon="11.36377930">
        <ele>534.00000</ele>
        <time>2010-01-01T03:16:47Z</time>
      </trkpt>
      <trkpt lat="43.59831050" lon="11.36450880">
        <ele>530.00000</ele>
        <time>2010-01-01T03:17:09Z</time>
      </trkpt>
      <trkpt lat="43.59893210" lon="11.36523840">
        <ele>525.00000</ele>
        <time>2010-01-01T03:17:41Z</time>
      </trkpt>
      <trkpt lat="43.59904080" lon="11.36573190">
        <ele>522.00000</ele>
        <time>2010-01-01T03:17:56Z</time>
      </trkpt>
      <trkpt lat="43.59888550" lon="11.36666530">
        <ele>524.00000</ele>
        <time>2010-01-01T03:18:24Z</time>
      </trkpt>
      <trkpt lat="43.59965460" lon="11.36744850">
        <ele>514.00000</ele>
        <time>2010-01-01T03:19:02Z</time>
      </trkpt>
      <trkpt lat="43.59996540" lon="11.36762020">
        <ele>510.00000</ele>
        <time>2010-01-01T03:19:16Z</time>
      </trkpt>
      <trkpt lat="43.60013640" lon="11.36821030">
        <ele>510.00000</ele>
        <time>2010-01-01T03:19:34Z</time>
      </trkpt>
      <trkpt lat="43.60048600" lon="11.36849990">
        <ele>507.00000</ele>
        <time>2010-01-01T03:19:51Z</time>
      </trkpt>
      <trkpt lat="43.60083560" lon="11.36907930">
        <ele>502.00000</ele>
        <time>2010-01-01T03:20:12Z</time>
      </trkpt>
      <trkpt lat="43.60061030" lon="11.36987320">
        <ele>496.00000</ele>
        <time>2010-01-01T03:20:37Z</time>
      </trkpt>
      <trkpt lat="43.60035390" lon="11.36995910">
        <ele>494.00000</ele>
        <time>2010-01-01T03:20:48Z</time>
      </trkpt>
      <trkpt lat="43.59995770" lon="11.36954060">
        <ele>496.00000</ele>
        <time>2010-01-01T03:21:08Z</time>
      </trkpt>
      <trkpt lat="43.59966240" lon="11.36961570">
        <ele>496.00000</ele>
        <time>2010-01-01T03:21:20Z</time>
      </trkpt>
      <trkpt lat="43.59949930" lon="11.37000200">
        <ele>492.00000</ele>
        <time>2010-01-01T03:21:33Z</time>
      </trkpt>
      <trkpt lat="43.59943710" lon="11.37046330">
        <ele>489.00000</ele>
        <time>2010-01-01T03:21:46Z</time>
      </trkpt>
      <trkpt lat="43.59920400" lon="11.37062430">
        <ele>488.00000</ele>
        <time>2010-01-01T03:21:57Z</time>
      </trkpt>
      <trkpt lat="43.59877670" lon="11.37049550">
        <ele>487.00000</ele>
        <time>2010-01-01T03:22:14Z</time>
      </trkpt>
      <trkpt lat="43.59840370" lon="11.37080660">
        <ele>482.00000</ele>
        <time>2010-01-01T03:22:32Z</time>
      </trkpt>
      <trkpt lat="43.59810850" lon="11.37139670">
        <ele>479.00000</ele>
        <time>2010-01-01T03:22:52Z</time>
      </trkpt>
      <trkpt lat="43.59804630" lon="11.37179370">
        <ele>477.00000</ele>
        <time>2010-01-01T03:23:04Z</time>
      </trkpt>
      <trkpt lat="43.59816290" lon="11.37210480">
        <ele>476.00000</ele>
        <time>2010-01-01T03:23:14Z</time>
      </trkpt>
      <trkpt lat="43.59850470" lon="11.37206190">
        <ele>473.00000</ele>
        <time>2010-01-01T03:23:28Z</time>
      </trkpt>
      <trkpt lat="43.59877670" lon="11.37214770">
        <ele>473.00000</ele>
        <time>2010-01-01T03:23:39Z</time>
      </trkpt>
      <trkpt lat="43.59890880" lon="11.37252330">
        <ele>471.00000</ele>
        <time>2010-01-01T03:23:51Z</time>
      </trkpt>
      <trkpt lat="43.59884660" lon="11.37319920">
        <ele>477.00000</ele>
        <time>2010-01-01T03:24:11Z</time>
      </trkpt>
      <trkpt lat="43.59918850" lon="11.37341380">
        <ele>472.00000</ele>
        <time>2010-01-01T03:24:26Z</time>
      </trkpt>
      <trkpt lat="43.59974790" lon="11.37342450">
        <ele>464.00000</ele>
        <time>2010-01-01T03:24:49Z</time>
      </trkpt>
      <trkpt lat="43.59998870" lon="11.37370340">
        <ele>460.00000</ele>
        <time>2010-01-01T03:25:01Z</time>
      </trkpt>
      <trkpt lat="43.59997320" lon="11.37444370">
        <ele>462.00000</ele>
        <time>2010-01-01T03:25:23Z</time>
      </trkpt>
      <trkpt lat="43.60018300" lon="11.37456170">
        <ele>457.00000</ele>
        <time>2010-01-01T03:25:32Z</time>
      </trkpt>
      <trkpt lat="43.60046270" lon="11.37405750">
        <ele>455.00000</ele>
        <time>2010-01-01T03:25:50Z</time>
      </trkpt>
      <trkpt lat="43.60089000" lon="11.37386440">
        <ele>449.00000</ele>
        <time>2010-01-01T03:26:08Z</time>
      </trkpt>
      <trkpt lat="43.60109200" lon="11.37349960">
        <ele>448.00000</ele>
        <time>2010-01-01T03:26:21Z</time>
      </trkpt>
      <trkpt lat="43.60078900" lon="11.37300610">
        <ele>451.00000</ele>
        <time>2010-01-01T03:26:40Z</time>
      </trkpt>
      <trkpt lat="43.60104540" lon="11.37235160">
        <ele>451.00000</ele>
        <time>2010-01-01T03:27:02Z</time>
      </trkpt>
      <trkpt lat="43.60163580" lon="11.37242670">
        <ele>441.00000</ele>
        <time>2010-01-01T03:27:25Z</time>
      </trkpt>
      <trkpt lat="43.60231950" lon="11.37217990">
        <ele>441.00000</ele>
        <time>2010-01-01T03:27:54Z</time>
      </trkpt>
      <trkpt lat="43.60259150" lon="11.37304900">
        <ele>427.00000</ele>
        <time>2010-01-01T03:28:21Z</time>
      </trkpt>
      <trkpt lat="43.60299550" lon="11.37307040">
        <ele>425.00000</ele>
        <time>2010-01-01T03:28:37Z</time>
      </trkpt>
      <trkpt lat="43.60307320" lon="11.37344590">
        <ele>422.00000</ele>
        <time>2010-01-01T03:28:49Z</time>
      </trkpt>
      <trkpt lat="43.60169020" lon="11.37862800">
        <ele>399.00000</ele>
        <time>2010-01-01T03:31:29Z</time>
      </trkpt>
      <trkpt lat="43.60169020" lon="11.37965790">
        <ele>397.00000</ele>
        <time>2010-01-01T03:31:59Z</time>
      </trkpt>
      <trkpt lat="43.60086670" lon="11.38136380">
        <ele>382.00000</ele>
        <time>2010-01-01T03:32:58Z</time>
      </trkpt>
      <trkpt lat="43.60019070" lon="11.38225430">
        <ele>372.00000</ele>
        <time>2010-01-01T03:33:35Z</time>
      </trkpt>
      <trkpt lat="43.59984110" lon="11.38313410">
        <ele>373.00000</ele>
        <time>2010-01-01T03:34:05Z</time>
      </trkpt>
      <trkpt lat="43.59852800" lon="11.38416400">
        <ele>370.00000</ele>
        <time>2010-01-01T03:35:05Z</time>
      </trkpt>
      <trkpt lat="43.59818620" lon="11.38432500">
        <ele>367.00000</ele>
        <time>2010-01-01T03:35:19Z</time>
      </trkpt>
      <trkpt lat="43.59776660" lon="11.38489360">
        <ele>363.00000</ele>
        <time>2010-01-01T03:35:43Z</time>
      </trkpt>
      <trkpt lat="43.59683420" lon="11.38494720">
        <ele>352.00000</ele>
        <time>2010-01-01T03:36:20Z</time>
      </trkpt>
      <trkpt lat="43.59616600" lon="11.38590210">
        <ele>345.00000</ele>
        <time>2010-01-01T03:36:59Z</time>
      </trkpt>
      <trkpt lat="43.59553660" lon="11.38811230">
        <ele>337.00000</ele>
        <time>2010-01-01T03:38:08Z</time>
      </trkpt>
      <trkpt lat="43.59557550" lon="11.38854140">
        <ele>337.00000</ele>
        <time>2010-01-01T03:38:20Z</time>
      </trkpt>
      <trkpt lat="43.59504710" lon="11.38856290">
        <ele>335.00000</ele>
        <time>2010-01-01T03:38:41Z</time>
      </trkpt>
      <trkpt lat="43.59453430" lon="11.38808010">
        <ele>336.00000</ele>
        <time>2010-01-01T03:39:06Z</time>
      </trkpt>
      <trkpt lat="43.59430890" lon="11.38758650">
        <ele>345.00000</ele>
        <time>2010-01-01T03:39:23Z</time>
      </trkpt>
      <trkpt lat="43.59427790" lon="11.38698570">
        <ele>348.00000</ele>
        <time>2010-01-01T03:39:41Z</time>
      </trkpt>
      <trkpt lat="43.59403700" lon="11.38661020">
        <ele>348.00000</ele>
        <time>2010-01-01T03:39:55Z</time>
      </trkpt>
      <trkpt lat="43.59266940" lon="11.38672820">
        <ele>364.00000</ele>
        <time>2010-01-01T03:40:50Z</time>
      </trkpt>
      <trkpt lat="43.59243630" lon="11.38701790">
        <ele>368.00000</ele>
        <time>2010-01-01T03:41:03Z</time>
      </trkpt>
      <trkpt lat="43.59246740" lon="11.38777970">
        <ele>370.00000</ele>
        <time>2010-01-01T03:41:25Z</time>
      </trkpt>
      <trkpt lat="43.59230420" lon="11.38958210">
        <ele>384.00000</ele>
        <time>2010-01-01T03:42:17Z</time>
      </trkpt>
      <trkpt lat="43.59207110" lon="11.38956060">
        <ele>390.00000</ele>
        <time>2010-01-01T03:42:27Z</time>
      </trkpt>
      <trkpt lat="43.59190790" lon="11.38877740">
        <ele>386.00000</ele>
        <time>2010-01-01T03:42:50Z</time>
      </trkpt>
      <trkpt lat="43.59048590" lon="11.38882040">
        <ele>410.00000</ele>
        <time>2010-01-01T03:43:47Z</time>
      </trkpt>
      <trkpt lat="43.58994190" lon="11.38913150">
        <ele>418.00000</ele>
        <time>2010-01-01T03:44:11Z</time>
      </trkpt>
      <trkpt lat="43.58929690" lon="11.38913150">
        <ele>428.00000</ele>
        <time>2010-01-01T03:44:37Z</time>
      </trkpt>
      <trkpt lat="43.58851980" lon="11.38860580">
        <ele>428.00000</ele>
        <time>2010-01-01T03:45:11Z</time>
      </trkpt>
      <trkpt lat="43.58790590" lon="11.38830540">
        <ele>433.00000</ele>
        <time>2010-01-01T03:45:37Z</time>
      </trkpt>
      <trkpt lat="43.58618070" lon="11.38792990">
        <ele>445.00000</ele>
        <time>2010-01-01T03:46:47Z</time>
      </trkpt>
      <trkpt lat="43.58577660" lon="11.38815520">
        <ele>446.00000</ele>
        <time>2010-01-01T03:47:05Z</time>
      </trkpt>
      <trkpt lat="43.58464970" lon="11.38942120">
        <ele>449.00000</ele>
        <time>2010-01-01T03:48:03Z</time>
      </trkpt>
      <trkpt lat="43.58430780" lon="11.38944260">
        <ele>448.00000</ele>
        <time>2010-01-01T03:48:17Z</time>
      </trkpt>
      <trkpt lat="43.58344510" lon="11.38913150">
        <ele>453.00000</ele>
        <time>2010-01-01T03:48:52Z</time>
      </trkpt>
      <trkpt lat="43.58172760" lon="11.38785480">
        <ele>471.00000</ele>
        <time>2010-01-01T03:50:10Z</time>
      </trkpt>
      <trkpt lat="43.58117580" lon="11.38764020">
        <ele>478.00000</ele>
        <time>2010-01-01T03:50:33Z</time>
      </trkpt>
      <trkpt lat="43.58004110" lon="11.38770460">
        <ele>483.00000</ele>
        <time>2010-01-01T03:51:19Z</time>
      </trkpt>
      <trkpt lat="43.57917060" lon="11.38791910">
        <ele>483.00000</ele>
        <time>2010-01-01T03:51:54Z</time>
      </trkpt>
      <trkpt lat="43.57739850" lon="11.38624540">
        <ele>501.00000</ele>
        <time>2010-01-01T03:53:20Z</time>
      </trkpt>
      <trkpt lat="43.57668340" lon="11.38612740">
        <ele>509.00000</ele>
        <time>2010-01-01T03:53:49Z</time>
      </trkpt>
      <trkpt lat="43.57453820" lon="11.38662090">
        <ele>529.00000</ele>
        <time>2010-01-01T03:55:16Z</time>
      </trkpt>
      <trkpt lat="43.57433610" lon="11.38677120">
        <ele>529.00000</ele>
        <time>2010-01-01T03:55:25Z</time>
      </trkpt>
      <trkpt lat="43.57410290" lon="11.38725390">
        <ele>531.00000</ele>
        <time>2010-01-01T03:55:42Z</time>
      </trkpt>
      <trkpt lat="43.57410290" lon="11.38776890">
        <ele>529.00000</ele>
        <time>2010-01-01T03:55:57Z</time>
      </trkpt>
      <trkpt lat="43.57442930" lon="11.38903490">
        <ele>521.00000</ele>
        <time>2010-01-01T03:56:36Z</time>
      </trkpt>
      <trkpt lat="43.57432050" lon="11.38939970">
        <ele>522.00000</ele>
        <time>2010-01-01T03:56:47Z</time>
      </trkpt>
      <trkpt lat="43.57406400" lon="11.38962500">
        <ele>521.00000</ele>
        <time>2010-01-01T03:57:00Z</time>
      </trkpt>
      <trkpt lat="43.57330230" lon="11.38935680">
        <ele>526.00000</ele>
        <time>2010-01-01T03:57:31Z</time>
      </trkpt>
      <trkpt lat="43.57297580" lon="11.38906710">
        <ele>531.00000</ele>
        <time>2010-01-01T03:57:47Z</time>
      </trkpt>
      <trkpt lat="43.57286700" lon="11.38869160">
        <ele>532.00000</ele>
        <time>2010-01-01T03:57:58Z</time>
      </trkpt>
      <trkpt lat="43.57312350" lon="11.38776890">
        <ele>537.00000</ele>
        <time>2010-01-01T03:58:27Z</time>
      </trkpt>
      <trkpt lat="43.57299140" lon="11.38699650">
        <ele>544.00000</ele>
        <time>2010-01-01T03:58:50Z</time>
      </trkpt>
      <trkpt lat="43.57231510" lon="11.38666390">
        <ele>555.00000</ele>
        <time>2010-01-01T03:59:19Z</time>
      </trkpt>
      <trkpt lat="43.57181760" lon="11.38680330">
        <ele>564.00000</ele>
        <time>2010-01-01T03:59:39Z</time>
      </trkpt>
      <trkpt lat="43.57136680" lon="11.38738270">
        <ele>557.00000</ele>
        <time>2010-01-01T04:00:04Z</time>
      </trkpt>
      <trkpt lat="43.57109470" lon="11.38747930">
        <ele>558.00000</ele>
        <time>2010-01-01T04:00:15Z</time>
      </trkpt>
      <trkpt lat="43.57067500" lon="11.38721100">
        <ele>565.00000</ele>
        <time>2010-01-01T04:00:33Z</time>
      </trkpt>
      <trkpt lat="43.57013860" lon="11.38652440">
        <ele>575.00000</ele>
        <time>2010-01-01T04:01:03Z</time>
      </trkpt>
      <trkpt lat="43.56965660" lon="11.38622400">
        <ele>574.00000</ele>
        <time>2010-01-01T04:01:24Z</time>
      </trkpt>
      <trkpt lat="43.56955560" lon="11.38576260">
        <ele>580.00000</ele>
        <time>2010-01-01T04:01:38Z</time>
      </trkpt>
      <trkpt lat="43.56985880" lon="11.38562320">
        <ele>590.00000</ele>
        <time>2010-01-01T04:01:51Z</time>
      </trkpt>
      <trkpt lat="43.57037960" lon="11.38623470">
        <ele>587.00000</ele>
        <time>2010-01-01T04:02:18Z</time>
      </trkpt>
      <trkpt lat="43.57127350" lon="11.38629910">
        <ele>592.00000</ele>
        <time>2010-01-01T04:02:54Z</time>
      </trkpt>
      <trkpt lat="43.57166990" lon="11.38580560">
        <ele>601.00000</ele>
        <time>2010-01-01T04:03:15Z</time>
      </trkpt>
      <trkpt lat="43.57184870" lon="11.38532280">
        <ele>604.00000</ele>
        <time>2010-01-01T04:03:31Z</time>
      </trkpt>
      <trkpt lat="43.57172430" lon="11.38480780">
        <ele>609.00000</ele>
        <time>2010-01-01T04:03:47Z</time>
      </trkpt>
      <trkpt lat="43.57090820" lon="11.38444300">
        <ele>615.00000</ele>
        <time>2010-01-01T04:04:21Z</time>
      </trkpt>
      <trkpt lat="43.57020080" lon="11.38368120">
        <ele>616.00000</ele>
        <time>2010-01-01T04:04:57Z</time>
      </trkpt>
      <trkpt lat="43.56995200" lon="11.38315550">
        <ele>624.00000</ele>
        <time>2010-01-01T04:05:15Z</time>
      </trkpt>
      <trkpt lat="43.56964890" lon="11.38310190">
        <ele>627.00000</ele>
        <time>2010-01-01T04:05:27Z</time>
      </trkpt>
      <trkpt lat="43.56943900" lon="11.38286590">
        <ele>632.00000</ele>
        <time>2010-01-01T04:05:38Z</time>
      </trkpt>
      <trkpt lat="43.56719240" lon="11.38361690">
        <ele>653.00000</ele>
        <time>2010-01-01T04:07:11Z</time>
      </trkpt>
      <trkpt lat="43.56589420" lon="11.38367050">
        <ele>670.00000</ele>
        <time>2010-01-01T04:08:03Z</time>
      </trkpt>
      <trkpt lat="43.56540440" lon="11.38384220">
        <ele>673.00000</ele>
        <time>2010-01-01T04:08:23Z</time>
      </trkpt>
      <trkpt lat="43.56488360" lon="11.38386360">
        <ele>686.00000</ele>
        <time>2010-01-01T04:08:44Z</time>
      </trkpt>
      <trkpt lat="43.56458040" lon="11.38442150">
        <ele>685.00000</ele>
        <time>2010-01-01T04:09:04Z</time>
      </trkpt>
      <trkpt lat="43.56283120" lon="11.38524770">
        <ele>709.00000</ele>
        <time>2010-01-01T04:10:18Z</time>
      </trkpt>
      <trkpt lat="43.56296330" lon="11.38629910">
        <ele>703.00000</ele>
        <time>2010-01-01T04:10:49Z</time>
      </trkpt>
      <trkpt lat="43.56269900" lon="11.38687840">
        <ele>703.00000</ele>
        <time>2010-01-01T04:11:09Z</time>
      </trkpt>
      <trkpt lat="43.56215480" lon="11.38730760">
        <ele>707.00000</ele>
        <time>2010-01-01T04:11:34Z</time>
      </trkpt>
      <trkpt lat="43.56196040" lon="11.38787620">
        <ele>707.00000</ele>
        <time>2010-01-01T04:11:52Z</time>
      </trkpt>
      <trkpt lat="43.56129960" lon="11.38886330">
        <ele>707.00000</ele>
        <time>2010-01-01T04:12:31Z</time>
      </trkpt>
      <trkpt lat="43.56070100" lon="11.38912080">
        <ele>708.00000</ele>
        <time>2010-01-01T04:12:56Z</time>
      </trkpt>
      <trkpt lat="43.55990800" lon="11.39030090">
        <ele>702.00000</ele>
        <time>2010-01-01T04:13:43Z</time>
      </trkpt>
      <trkpt lat="43.55973690" lon="11.39097690">
        <ele>698.00000</ele>
        <time>2010-01-01T04:14:04Z</time>
      </trkpt>
      <trkpt lat="43.55945700" lon="11.39147040">
        <ele>702.00000</ele>
        <time>2010-01-01T04:14:22Z</time>
      </trkpt>
      <trkpt lat="43.55909940" lon="11.39174930">
        <ele>706.00000</ele>
        <time>2010-01-01T04:14:38Z</time>
      </trkpt>
      <trkpt lat="43.55889720" lon="11.39258620">
        <ele>706.00000</ele>
        <time>2010-01-01T04:15:04Z</time>
      </trkpt>
      <trkpt lat="43.55843080" lon="11.39303680">
        <ele>718.00000</ele>
        <time>2010-01-01T04:15:27Z</time>
      </trkpt>
      <trkpt lat="43.55809640" lon="11.39386290">
        <ele>717.00000</ele>
        <time>2010-01-01T04:15:54Z</time>
      </trkpt>
      <trkpt lat="43.55745890" lon="11.39459250">
        <ele>723.00000</ele>
        <time>2010-01-01T04:16:27Z</time>
      </trkpt>
      <trkpt lat="43.55666580" lon="11.39463540">
        <ele>722.00000</ele>
        <time>2010-01-01T04:16:59Z</time>
      </trkpt>
      <trkpt lat="43.55584170" lon="11.39490360">
        <ele>719.00000</ele>
        <time>2010-01-01T04:17:33Z</time>
      </trkpt>
      <trkpt lat="43.55531290" lon="11.39479630">
        <ele>724.00000</ele>
        <time>2010-01-01T04:17:54Z</time>
      </trkpt>
      <trkpt lat="43.55474530" lon="11.39523620">
        <ele>727.00000</ele>
        <time>2010-01-01T04:18:21Z</time>
      </trkpt>
      <trkpt lat="43.55441100" lon="11.39528980">
        <ele>730.00000</ele>
        <time>2010-01-01T04:18:34Z</time>
      </trkpt>
      <trkpt lat="43.55381230" lon="11.39469980">
        <ele>743.00000</ele>
        <time>2010-01-01T04:19:03Z</time>
      </trkpt>
      <trkpt lat="43.55351680" lon="11.39477490">
        <ele>742.00000</ele>
        <time>2010-01-01T04:19:15Z</time>
      </trkpt>
      <trkpt lat="43.55317470" lon="11.39578340">
        <ele>745.00000</ele>
        <time>2010-01-01T04:19:48Z</time>
      </trkpt>
      <trkpt lat="43.55287920" lon="11.39619110">
        <ele>749.00000</ele>
        <time>2010-01-01T04:20:05Z</time>
      </trkpt>
      <trkpt lat="43.55162730" lon="11.39734980">
        <ele>755.00000</ele>
        <time>2010-01-01T04:21:05Z</time>
      </trkpt>
      <trkpt lat="43.55026660" lon="11.39840120">
        <ele>748.00000</ele>
        <time>2010-01-01T04:22:07Z</time>
      </trkpt>
      <trkpt lat="43.54846250" lon="11.39761800">
        <ele>731.00000</ele>
        <time>2010-01-01T04:23:23Z</time>
      </trkpt>
      <trkpt lat="43.54755270" lon="11.39756440">
        <ele>721.00000</ele>
        <time>2010-01-01T04:23:59Z</time>
      </trkpt>
      <trkpt lat="43.54693840" lon="11.39741420">
        <ele>713.00000</ele>
        <time>2010-01-01T04:24:24Z</time>
      </trkpt>
      <trkpt lat="43.54668180" lon="11.39750000">
        <ele>707.00000</ele>
        <time>2010-01-01T04:24:35Z</time>
      </trkpt>
      <trkpt lat="43.54667400" lon="11.39790770">
        <ele>704.00000</ele>
        <time>2010-01-01T04:24:47Z</time>
      </trkpt>
      <trkpt lat="43.54714830" lon="11.39860510">
        <ele>709.00000</ele>
        <time>2010-01-01T04:25:15Z</time>
      </trkpt>
      <trkpt lat="43.54819810" lon="11.40111560">
        <ele>713.00000</ele>
        <time>2010-01-01T04:26:39Z</time>
      </trkpt>
      <trkpt lat="43.54812040" lon="11.40208120">
        <ele>703.00000</ele>
        <time>2010-01-01T04:27:07Z</time>
      </trkpt>
      <trkpt lat="43.54830700" lon="11.40282150">
        <ele>704.00000</ele>
        <time>2010-01-01T04:27:30Z</time>
      </trkpt>
      <trkpt lat="43.54813590" lon="11.40323990">
        <ele>705.00000</ele>
        <time>2010-01-01T04:27:44Z</time>
      </trkpt>
      <trkpt lat="43.54722610" lon="11.40372270">
        <ele>707.00000</ele>
        <time>2010-01-01T04:28:23Z</time>
      </trkpt>
      <trkpt lat="43.54612180" lon="11.40616890">
        <ele>696.00000</ele>
        <time>2010-01-01T04:29:46Z</time>
      </trkpt>
      <trkpt lat="43.54549200" lon="11.40691990">
        <ele>692.00000</ele>
        <time>2010-01-01T04:30:19Z</time>
      </trkpt>
      <trkpt lat="43.54319000" lon="11.40825030">
        <ele>682.00000</ele>
        <time>2010-01-01T04:31:59Z</time>
      </trkpt>
      <trkpt lat="43.54256010" lon="11.40845410">
        <ele>674.00000</ele>
        <time>2010-01-01T04:32:25Z</time>
      </trkpt>
      <trkpt lat="43.53927040" lon="11.40841120">
        <ele>705.00000</ele>
        <time>2010-01-01T04:34:37Z</time>
      </trkpt>
      <trkpt lat="43.53900600" lon="11.40869020">
        <ele>711.00000</ele>
        <time>2010-01-01T04:34:50Z</time>
      </trkpt>
      <trkpt lat="43.53833710" lon="11.41026730">
        <ele>723.00000</ele>
        <time>2010-01-01T04:35:43Z</time>
      </trkpt>
      <trkpt lat="43.53778490" lon="11.41079300">
        <ele>719.00000</ele>
        <time>2010-01-01T04:36:10Z</time>
      </trkpt>
      <trkpt lat="43.53713940" lon="11.41109340">
        <ele>713.00000</ele>
        <time>2010-01-01T04:36:37Z</time>
      </trkpt>
      <trkpt lat="43.53640050" lon="11.41084670">
        <ele>705.00000</ele>
        <time>2010-01-01T04:37:08Z</time>
      </trkpt>
      <trkpt lat="43.53508600" lon="11.41128650">
        <ele>699.00000</ele>
        <time>2010-01-01T04:38:02Z</time>
      </trkpt>
      <trkpt lat="43.53472050" lon="11.41161910">
        <ele>705.00000</ele>
        <time>2010-01-01T04:38:20Z</time>
      </trkpt>
      <trkpt lat="43.53447160" lon="11.41170500">
        <ele>709.00000</ele>
        <time>2010-01-01T04:38:30Z</time>
      </trkpt>
      <trkpt lat="43.53398150" lon="11.41129730">
        <ele>708.00000</ele>
        <time>2010-01-01T04:38:53Z</time>
      </trkpt>
      <trkpt lat="43.53274480" lon="11.41083590">
        <ele>708.00000</ele>
        <time>2010-01-01T04:39:44Z</time>
      </trkpt>
      <trkpt lat="43.53185030" lon="11.41141530">
        <ele>704.00000</ele>
        <time>2010-01-01T04:40:24Z</time>
      </trkpt>
      <trkpt lat="43.53073020" lon="11.41275640">
        <ele>706.00000</ele>
        <time>2010-01-01T04:41:23Z</time>
      </trkpt>
      <trkpt lat="43.53024800" lon="11.41267060">
        <ele>705.00000</ele>
        <time>2010-01-01T04:41:42Z</time>
      </trkpt>
      <trkpt lat="43.52979680" lon="11.41220920">
        <ele>701.00000</ele>
        <time>2010-01-01T04:42:05Z</time>
      </trkpt>
      <trkpt lat="43.52939230" lon="11.41233800">
        <ele>703.00000</ele>
        <time>2010-01-01T04:42:22Z</time>
      </trkpt>
      <trkpt lat="43.52919010" lon="11.41226290">
        <ele>701.00000</ele>
        <time>2010-01-01T04:42:30Z</time>
      </trkpt>
      <trkpt lat="43.52884780" lon="11.41137240">
        <ele>692.00000</ele>
        <time>2010-01-01T04:42:59Z</time>
      </trkpt>
      <trkpt lat="43.52856000" lon="11.41121140">
        <ele>689.00000</ele>
        <time>2010-01-01T04:43:12Z</time>
      </trkpt>
      <trkpt lat="43.52802330" lon="11.41131870">
        <ele>685.00000</ele>
        <time>2010-01-01T04:43:33Z</time>
      </trkpt>
      <trkpt lat="43.52775100" lon="11.41143670">
        <ele>685.00000</ele>
        <time>2010-01-01T04:43:45Z</time>
      </trkpt>
      <trkpt lat="43.52753320" lon="11.41139380">
        <ele>681.00000</ele>
        <time>2010-01-01T04:43:54Z</time>
      </trkpt>
      <trkpt lat="43.52720650" lon="11.41091100">
        <ele>678.00000</ele>
        <time>2010-01-01T04:44:13Z</time>
      </trkpt>
      <trkpt lat="43.52663860" lon="11.41052480">
        <ele>676.00000</ele>
        <time>2010-01-01T04:44:38Z</time>
      </trkpt>
      <trkpt lat="43.52629640" lon="11.40973090">
        <ele>670.00000</ele>
        <time>2010-01-01T04:45:05Z</time>
      </trkpt>
      <trkpt lat="43.52603960" lon="11.40893690">
        <ele>670.00000</ele>
        <time>2010-01-01T04:45:30Z</time>
      </trkpt>
      <trkpt lat="43.52558850" lon="11.40840050">
        <ele>666.00000</ele>
        <time>2010-01-01T04:45:54Z</time>
      </trkpt>
      <trkpt lat="43.52525400" lon="11.40738120">
        <ele>666.00000</ele>
        <time>2010-01-01T04:46:26Z</time>
      </trkpt>
      <trkpt lat="43.52505950" lon="11.40700570">
        <ele>664.00000</ele>
        <time>2010-01-01T04:46:40Z</time>
      </trkpt>
      <trkpt lat="43.52446050" lon="11.40648000">
        <ele>658.00000</ele>
        <time>2010-01-01T04:47:08Z</time>
      </trkpt>
      <trkpt lat="43.52341030" lon="11.40525690">
        <ele>652.00000</ele>
        <time>2010-01-01T04:48:03Z</time>
      </trkpt>
      <trkpt lat="43.52278010" lon="11.40509600">
        <ele>645.00000</ele>
        <time>2010-01-01T04:48:29Z</time>
      </trkpt>
      <trkpt lat="43.52256230" lon="11.40476340">
        <ele>645.00000</ele>
        <time>2010-01-01T04:48:42Z</time>
      </trkpt>
      <trkpt lat="43.52210330" lon="11.40444150">
        <ele>640.00000</ele>
        <time>2010-01-01T04:49:03Z</time>
      </trkpt>
      <trkpt lat="43.52120870" lon="11.40430210">
        <ele>626.00000</ele>
        <time>2010-01-01T04:49:39Z</time>
      </trkpt>
      <trkpt lat="43.51965270" lon="11.40380850">
        <ele>614.00000</ele>
        <time>2010-01-01T04:50:42Z</time>
      </trkpt>
      <trkpt lat="43.51913920" lon="11.40381930">
        <ele>607.00000</ele>
        <time>2010-01-01T04:51:03Z</time>
      </trkpt>
      <trkpt lat="43.51808890" lon="11.40407680">
        <ele>591.00000</ele>
        <time>2010-01-01T04:51:46Z</time>
      </trkpt>
      <trkpt lat="43.51775440" lon="11.40409820">
        <ele>584.00000</ele>
        <time>2010-01-01T04:51:59Z</time>
      </trkpt>
      <trkpt lat="43.51676630" lon="11.40476340">
        <ele>569.00000</ele>
        <time>2010-01-01T04:52:43Z</time>
      </trkpt>
      <trkpt lat="43.51686740" lon="11.40529990">
        <ele>568.00000</ele>
        <time>2010-01-01T04:52:59Z</time>
      </trkpt>
      <trkpt lat="43.51664180" lon="11.40558950">
        <ele>563.00000</ele>
        <time>2010-01-01T04:53:12Z</time>
      </trkpt>
      <trkpt lat="43.51597270" lon="11.40549300">
        <ele>553.00000</ele>
        <time>2010-01-01T04:53:39Z</time>
      </trkpt>
      <trkpt lat="43.51601160" lon="11.40600800">
        <ele>551.00000</ele>
        <time>2010-01-01T04:53:54Z</time>
      </trkpt>
      <trkpt lat="43.51589490" lon="11.40631910">
        <ele>547.00000</ele>
        <time>2010-01-01T04:54:04Z</time>
      </trkpt>
      <trkpt lat="43.51503900" lon="11.40623330">
        <ele>533.00000</ele>
        <time>2010-01-01T04:54:38Z</time>
      </trkpt>
      <trkpt lat="43.51403540" lon="11.40727400">
        <ele>519.00000</ele>
        <time>2010-01-01T04:55:28Z</time>
      </trkpt>
      <trkpt lat="43.51359960" lon="11.40730610">
        <ele>514.00000</ele>
        <time>2010-01-01T04:55:46Z</time>
      </trkpt>
      <trkpt lat="43.51254150" lon="11.40700570">
        <ele>501.00000</ele>
        <time>2010-01-01T04:56:29Z</time>
      </trkpt>
      <trkpt lat="43.51252590" lon="11.40803570">
        <ele>494.00000</ele>
        <time>2010-01-01T04:56:59Z</time>
      </trkpt>
      <trkpt lat="43.51231580" lon="11.40802500">
        <ele>490.00000</ele>
        <time>2010-01-01T04:57:07Z</time>
      </trkpt>
      <trkpt lat="43.51175560" lon="11.40734910">
        <ele>483.00000</ele>
        <time>2010-01-01T04:57:37Z</time>
      </trkpt>
      <trkpt lat="43.51152220" lon="11.40682330">
        <ele>480.00000</ele>
        <time>2010-01-01T04:57:55Z</time>
      </trkpt>
      <trkpt lat="43.51154550" lon="11.40585780">
        <ele>478.00000</ele>
        <time>2010-01-01T04:58:23Z</time>
      </trkpt>
      <trkpt lat="43.51004380" lon="11.40551440">
        <ele>470.00000</ele>
        <time>2010-01-01T04:59:24Z</time>
      </trkpt>
      <trkpt lat="43.50998930" lon="11.40465610">
        <ele>466.00000</ele>
        <time>2010-01-01T04:59:49Z</time>
      </trkpt>
      <trkpt lat="43.50954580" lon="11.40318630">
        <ele>463.00000</ele>
        <time>2010-01-01T05:00:35Z</time>
      </trkpt>
      <trkpt lat="43.50932790" lon="11.40288590">
        <ele>461.00000</ele>
        <time>2010-01-01T05:00:48Z</time>
      </trkpt>
      <trkpt lat="43.50791950" lon="11.40266060">
        <ele>447.00000</ele>
        <time>2010-01-01T05:01:44Z</time>
      </trkpt>
      <trkpt lat="43.50692350" lon="11.40228500">
        <ele>430.00000</ele>
        <time>2010-01-01T05:02:26Z</time>
      </trkpt>
      <trkpt lat="43.50626980" lon="11.40166280">
        <ele>413.00000</ele>
        <time>2010-01-01T05:02:57Z</time>
      </trkpt>
      <trkpt lat="43.50592740" lon="11.40158770">
        <ele>409.00000</ele>
        <time>2010-01-01T05:03:11Z</time>
      </trkpt>
      <trkpt lat="43.50583400" lon="11.40130870">
        <ele>408.00000</ele>
        <time>2010-01-01T05:03:20Z</time>
      </trkpt>
      <trkpt lat="43.50598970" lon="11.40107270">
        <ele>405.00000</ele>
        <time>2010-01-01T05:03:30Z</time>
      </trkpt>
      <trkpt lat="43.50630870" lon="11.40099760">
        <ele>406.00000</ele>
        <time>2010-01-01T05:03:43Z</time>
      </trkpt>
      <trkpt lat="43.50636320" lon="11.40068650">
        <ele>406.00000</ele>
        <time>2010-01-01T05:03:52Z</time>
      </trkpt>
      <trkpt lat="43.50493910" lon="11.39997830">
        <ele>390.00000</ele>
        <time>2010-01-01T05:04:52Z</time>
      </trkpt>
      <trkpt lat="43.50473680" lon="11.39976380">
        <ele>388.00000</ele>
        <time>2010-01-01T05:05:03Z</time>
      </trkpt>
      <trkpt lat="43.50449560" lon="11.39906640">
        <ele>386.00000</ele>
        <time>2010-01-01T05:05:25Z</time>
      </trkpt>
      <trkpt lat="43.50363960" lon="11.39769310">
        <ele>384.00000</ele>
        <time>2010-01-01T05:06:18Z</time>
      </trkpt>
      <trkpt lat="43.50299370" lon="11.39702790">
        <ele>378.00000</ele>
        <time>2010-01-01T05:06:50Z</time>
      </trkpt>
      <trkpt lat="43.49996640" lon="11.39431350">
        <ele>373.00000</ele>
        <time>2010-01-01T05:09:14Z</time>
      </trkpt>
      <trkpt lat="43.49868230" lon="11.39368050">
        <ele>379.00000</ele>
        <time>2010-01-01T05:10:09Z</time>
      </trkpt>
      <trkpt lat="43.49781840" lon="11.39304750">
        <ele>393.00000</ele>
        <time>2010-01-01T05:10:48Z</time>
      </trkpt>
      <trkpt lat="43.49721910" lon="11.39236090">
        <ele>399.00000</ele>
        <time>2010-01-01T05:11:19Z</time>
      </trkpt>
      <trkpt lat="43.49689220" lon="11.39221070">
        <ele>401.00000</ele>
        <time>2010-01-01T05:11:33Z</time>
      </trkpt>
      <trkpt lat="43.49614510" lon="11.39227500">
        <ele>410.00000</ele>
        <time>2010-01-01T05:12:03Z</time>
      </trkpt>
      <trkpt lat="43.49578710" lon="11.39199610">
        <ele>414.00000</ele>
        <time>2010-01-01T05:12:20Z</time>
      </trkpt>
      <trkpt lat="43.49561580" lon="11.39156690">
        <ele>423.00000</ele>
        <time>2010-01-01T05:12:34Z</time>
      </trkpt>
      <trkpt lat="43.49573260" lon="11.39120220">
        <ele>422.00000</ele>
        <time>2010-01-01T05:12:45Z</time>
      </trkpt>
      <trkpt lat="43.49599720" lon="11.39092320">
        <ele>418.00000</ele>
        <time>2010-01-01T05:12:59Z</time>
      </trkpt>
      <trkpt lat="43.49592720" lon="11.39054770">
        <ele>422.00000</ele>
        <time>2010-01-01T05:13:10Z</time>
      </trkpt>
      <trkpt lat="43.49455730" lon="11.38923880">
        <ele>435.00000</ele>
        <time>2010-01-01T05:14:17Z</time>
      </trkpt>
      <trkpt lat="43.49424600" lon="11.38871310">
        <ele>437.00000</ele>
        <time>2010-01-01T05:14:36Z</time>
      </trkpt>
      <trkpt lat="43.49373230" lon="11.38831610">
        <ele>444.00000</ele>
        <time>2010-01-01T05:15:00Z</time>
      </trkpt>
      <trkpt lat="43.49339760" lon="11.38825170">
        <ele>447.00000</ele>
        <time>2010-01-01T05:15:14Z</time>
      </trkpt>
      <trkpt lat="43.49284500" lon="11.38846630">
        <ele>459.00000</ele>
        <time>2010-01-01T05:15:37Z</time>
      </trkpt>
      <trkpt lat="43.49267380" lon="11.38814440">
        <ele>457.00000</ele>
        <time>2010-01-01T05:15:48Z</time>
      </trkpt>
      <trkpt lat="43.49113270" lon="11.38682480">
        <ele>465.00000</ele>
        <time>2010-01-01T05:17:01Z</time>
      </trkpt>
      <trkpt lat="43.49093030" lon="11.38654580">
        <ele>466.00000</ele>
        <time>2010-01-01T05:17:12Z</time>
      </trkpt>
      <trkpt lat="43.49007410" lon="11.38471120">
        <ele>461.00000</ele>
        <time>2010-01-01T05:18:16Z</time>
      </trkpt>
      <trkpt lat="43.49002740" lon="11.38424990">
        <ele>463.00000</ele>
        <time>2010-01-01T05:18:29Z</time>
      </trkpt>
      <trkpt lat="43.48982500" lon="11.38373490">
        <ele>467.00000</ele>
        <time>2010-01-01T05:18:46Z</time>
      </trkpt>
      <trkpt lat="43.48843950" lon="11.38231870">
        <ele>483.00000</ele>
        <time>2010-01-01T05:19:55Z</time>
      </trkpt>
      <trkpt lat="43.48805810" lon="11.38138530">
        <ele>490.00000</ele>
        <time>2010-01-01T05:20:26Z</time>
      </trkpt>
      <trkpt lat="43.48791020" lon="11.38074150">
        <ele>495.00000</ele>
        <time>2010-01-01T05:20:46Z</time>
      </trkpt>
      <trkpt lat="43.48779340" lon="11.37971160">
        <ele>501.00000</ele>
        <time>2010-01-01T05:21:16Z</time>
      </trkpt>
      <trkpt lat="43.48744310" lon="11.37940040">
        <ele>505.00000</ele>
        <time>2010-01-01T05:21:33Z</time>
      </trkpt>
      <trkpt lat="43.48680480" lon="11.37804860">
        <ele>515.00000</ele>
        <time>2010-01-01T05:22:20Z</time>
      </trkpt>
      <trkpt lat="43.48692940" lon="11.37595650">
        <ele>525.00000</ele>
        <time>2010-01-01T05:23:21Z</time>
      </trkpt>
      <trkpt lat="43.48608480" lon="11.37443840">
        <ele>527.00000</ele>
        <time>2010-01-01T05:24:16Z</time>
      </trkpt>
      <trkpt lat="43.48642340" lon="11.37309190">
        <ele>530.00000</ele>
        <time>2010-01-01T05:24:58Z</time>
      </trkpt>
      <trkpt lat="43.48622880" lon="11.37138600">
        <ele>517.00000</ele>
        <time>2010-01-01T05:25:48Z</time>
      </trkpt>
      <trkpt lat="43.48601860" lon="11.37055990">
        <ele>514.00000</ele>
        <time>2010-01-01T05:26:13Z</time>
      </trkpt>
      <trkpt lat="43.48574620" lon="11.36999130">
        <ele>515.00000</ele>
        <time>2010-01-01T05:26:33Z</time>
      </trkpt>
      <trkpt lat="43.48515460" lon="11.36974450">
        <ele>511.00000</ele>
        <time>2010-01-01T05:26:58Z</time>
      </trkpt>
      <trkpt lat="43.48477320" lon="11.36910080">
        <ele>506.00000</ele>
        <time>2010-01-01T05:27:22Z</time>
      </trkpt>
      <trkpt lat="43.48453960" lon="11.36748070">
        <ele>498.00000</ele>
        <time>2010-01-01T05:28:10Z</time>
      </trkpt>
      <trkpt lat="43.48434500" lon="11.36672970">
        <ele>496.00000</ele>
        <time>2010-01-01T05:28:33Z</time>
      </trkpt>
      <trkpt lat="43.48441510" lon="11.36577480">
        <ele>502.00000</ele>
        <time>2010-01-01T05:29:01Z</time>
      </trkpt>
      <trkpt lat="43.48390910" lon="11.36539390">
        <ele>507.00000</ele>
        <time>2010-01-01T05:29:24Z</time>
      </trkpt>
      <trkpt lat="43.48337200" lon="11.36594650">
        <ele>505.00000</ele>
        <time>2010-01-01T05:29:51Z</time>
      </trkpt>
      <trkpt lat="43.48299830" lon="11.36597870">
        <ele>509.00000</ele>
        <time>2010-01-01T05:30:06Z</time>
      </trkpt>
      <trkpt lat="43.48236380" lon="11.36499700">
        <ele>518.00000</ele>
        <time>2010-01-01T05:30:44Z</time>
      </trkpt>
      <trkpt lat="43.48176050" lon="11.36561390">
        <ele>518.00000</ele>
        <time>2010-01-01T05:31:14Z</time>
      </trkpt>
      <trkpt lat="43.48142970" lon="11.36571040">
        <ele>520.00000</ele>
        <time>2010-01-01T05:31:28Z</time>
      </trkpt>
      <trkpt lat="43.48073290" lon="11.36559780">
        <ele>526.00000</ele>
        <time>2010-01-01T05:31:56Z</time>
      </trkpt>
      <trkpt lat="43.47996220" lon="11.36567830">
        <ele>531.00000</ele>
        <time>2010-01-01T05:32:27Z</time>
      </trkpt>
      <trkpt lat="43.47945230" lon="11.36597330">
        <ele>533.00000</ele>
        <time>2010-01-01T05:32:49Z</time>
      </trkpt>
      <trkpt lat="43.47785630" lon="11.36642390">
        <ele>544.00000</ele>
        <time>2010-01-01T05:33:54Z</time>
      </trkpt>
      <trkpt lat="43.47727630" lon="11.36636490">
        <ele>546.00000</ele>
        <time>2010-01-01T05:34:17Z</time>
      </trkpt>
      <trkpt lat="43.47683260" lon="11.36643460">
        <ele>545.00000</ele>
        <time>2010-01-01T05:34:35Z</time>
      </trkpt>
      <trkpt lat="43.47660680" lon="11.36634880">
        <ele>545.00000</ele>
        <time>2010-01-01T05:34:44Z</time>
      </trkpt>
      <trkpt lat="43.47656790" lon="11.36605380">
        <ele>547.00000</ele>
        <time>2010-01-01T05:34:53Z</time>
      </trkpt>
      <trkpt lat="43.47682480" lon="11.36513110">
        <ele>548.00000</ele>
        <time>2010-01-01T05:35:22Z</time>
      </trkpt>
      <trkpt lat="43.47723740" lon="11.36440150">
        <ele>549.00000</ele>
        <time>2010-01-01T05:35:49Z</time>
      </trkpt>
      <trkpt lat="43.47824170" lon="11.36373630">
        <ele>556.00000</ele>
        <time>2010-01-01T05:36:33Z</time>
      </trkpt>
      <trkpt lat="43.47872440" lon="11.36321060">
        <ele>554.00000</ele>
        <time>2010-01-01T05:36:58Z</time>
      </trkpt>
      <trkpt lat="43.47905910" lon="11.36307120">
        <ele>557.00000</ele>
        <time>2010-01-01T05:37:12Z</time>
      </trkpt>
      <trkpt lat="43.47921490" lon="11.36295310">
        <ele>558.00000</ele>
        <time>2010-01-01T05:37:19Z</time>
      </trkpt>
      <trkpt lat="43.47937440" lon="11.36265810">
        <ele>558.00000</ele>
        <time>2010-01-01T05:37:30Z</time>
      </trkpt>
      <trkpt lat="43.47942500" lon="11.36229870">
        <ele>558.00000</ele>
        <time>2010-01-01T05:37:40Z</time>
      </trkpt>
      <trkpt lat="43.47928490" lon="11.36170860">
        <ele>558.00000</ele>
        <time>2010-01-01T05:37:58Z</time>
      </trkpt>
      <trkpt lat="43.47922260" lon="11.36090390">
        <ele>559.00000</ele>
        <time>2010-01-01T05:38:22Z</time>
      </trkpt>
      <trkpt lat="43.47852980" lon="11.35861330">
        <ele>558.00000</ele>
        <time>2010-01-01T05:39:34Z</time>
      </trkpt>
      <trkpt lat="43.47852590" lon="11.35825930">
        <ele>558.00000</ele>
        <time>2010-01-01T05:39:44Z</time>
      </trkpt>
      <trkpt lat="43.47905140" lon="11.35718100">
        <ele>563.00000</ele>
        <time>2010-01-01T05:40:22Z</time>
      </trkpt>
      <trkpt lat="43.47859980" lon="11.35448810">
        <ele>562.00000</ele>
        <time>2010-01-01T05:41:42Z</time>
      </trkpt>
      <trkpt lat="43.47812490" lon="11.35325960">
        <ele>564.00000</ele>
        <time>2010-01-01T05:42:23Z</time>
      </trkpt>
      <trkpt lat="43.47787580" lon="11.35277150">
        <ele>569.00000</ele>
        <time>2010-01-01T05:42:40Z</time>
      </trkpt>
      <trkpt lat="43.47788360" lon="11.35191320">
        <ele>566.00000</ele>
        <time>2010-01-01T05:43:05Z</time>
      </trkpt>
      <trkpt lat="43.47777070" lon="11.35158590">
        <ele>568.00000</ele>
        <time>2010-01-01T05:43:16Z</time>
      </trkpt>
      <trkpt lat="43.47757220" lon="11.35126410">
        <ele>571.00000</ele>
        <time>2010-01-01T05:43:28Z</time>
      </trkpt>
      <trkpt lat="43.47748650" lon="11.35051840">
        <ele>571.00000</ele>
        <time>2010-01-01T05:43:50Z</time>
      </trkpt>
      <trkpt lat="43.47757220" lon="11.34988540">
        <ele>567.00000</ele>
        <time>2010-01-01T05:44:08Z</time>
      </trkpt>
      <trkpt lat="43.47748260" lon="11.34944020">
        <ele>567.00000</ele>
        <time>2010-01-01T05:44:22Z</time>
      </trkpt>
      <trkpt lat="43.47701550" lon="11.34887690">
        <ele>572.00000</ele>
        <time>2010-01-01T05:44:47Z</time>
      </trkpt>
      <trkpt lat="43.47671580" lon="11.34708520">
        <ele>567.00000</ele>
        <time>2010-01-01T05:45:40Z</time>
      </trkpt>
      <trkpt lat="43.47647440" lon="11.34672040">
        <ele>566.00000</ele>
        <time>2010-01-01T05:45:54Z</time>
      </trkpt>
      <trkpt lat="43.47607740" lon="11.34668820">
        <ele>568.00000</ele>
        <time>2010-01-01T05:46:10Z</time>
      </trkpt>
      <trkpt lat="43.47550900" lon="11.34685450">
        <ele>574.00000</ele>
        <time>2010-01-01T05:46:34Z</time>
      </trkpt>
      <trkpt lat="43.47532610" lon="11.34674720">
        <ele>577.00000</ele>
        <time>2010-01-01T05:46:42Z</time>
      </trkpt>
      <trkpt lat="43.47526380" lon="11.34648440">
        <ele>579.00000</ele>
        <time>2010-01-01T05:46:50Z</time>
      </trkpt>
      <trkpt lat="43.47574650" lon="11.34482140">
        <ele>578.00000</ele>
        <time>2010-01-01T05:47:42Z</time>
      </trkpt>
      <trkpt lat="43.47582050" lon="11.34436010">
        <ele>578.00000</ele>
        <time>2010-01-01T05:47:55Z</time>
      </trkpt>
      <trkpt lat="43.47578540" lon="11.34388260">
        <ele>579.00000</ele>
        <time>2010-01-01T05:48:09Z</time>
      </trkpt>
      <trkpt lat="43.47556740" lon="11.34316380">
        <ele>581.00000</ele>
        <time>2010-01-01T05:48:32Z</time>
      </trkpt>
      <trkpt lat="43.47550120" lon="11.34272930">
        <ele>581.00000</ele>
        <time>2010-01-01T05:48:45Z</time>
      </trkpt>
      <trkpt lat="43.47580490" lon="11.34066930">
        <ele>588.00000</ele>
        <time>2010-01-01T05:49:46Z</time>
      </trkpt>
      <trkpt lat="43.47572700" lon="11.34003630">
        <ele>588.00000</ele>
        <time>2010-01-01T05:50:05Z</time>
      </trkpt>
      <trkpt lat="43.47603840" lon="11.33828750">
        <ele>597.00000</ele>
        <time>2010-01-01T05:50:57Z</time>
      </trkpt>
      <trkpt lat="43.47580490" lon="11.33744000">
        <ele>597.00000</ele>
        <time>2010-01-01T05:51:23Z</time>
      </trkpt>
      <trkpt lat="43.47491730" lon="11.33614180">
        <ele>597.00000</ele>
        <time>2010-01-01T05:52:15Z</time>
      </trkpt>
      <trkpt lat="43.47409200" lon="11.33427500">
        <ele>599.00000</ele>
        <time>2010-01-01T05:53:19Z</time>
      </trkpt>
      <trkpt lat="43.47407650" lon="11.33380830">
        <ele>597.00000</ele>
        <time>2010-01-01T05:53:32Z</time>
      </trkpt>
      <trkpt lat="43.47423220" lon="11.33362050">
        <ele>596.00000</ele>
        <time>2010-01-01T05:53:40Z</time>
      </trkpt>
      <trkpt lat="43.47558690" lon="11.33370100">
        <ele>598.00000</ele>
        <time>2010-01-01T05:54:35Z</time>
      </trkpt>
      <trkpt lat="43.47589440" lon="11.33359900">
        <ele>599.00000</ele>
        <time>2010-01-01T05:54:47Z</time>
      </trkpt>
      <trkpt lat="43.47634600" lon="11.33292850">
        <ele>608.00000</ele>
        <time>2010-01-01T05:55:14Z</time>
      </trkpt>
      <trkpt lat="43.47656010" lon="11.33285880">
        <ele>606.00000</ele>
        <time>2010-01-01T05:55:23Z</time>
      </trkpt>
      <trkpt lat="43.47710510" lon="11.33300360">
        <ele>604.00000</ele>
        <time>2010-01-01T05:55:45Z</time>
      </trkpt>
      <trkpt lat="43.47759550" lon="11.33281580">
        <ele>607.00000</ele>
        <time>2010-01-01T05:56:05Z</time>
      </trkpt>
      <trkpt lat="43.47900850" lon="11.33170540">
        <ele>615.00000</ele>
        <time>2010-01-01T05:57:10Z</time>
      </trkpt>
      <trkpt lat="43.47923040" lon="11.33141040">
        <ele>617.00000</ele>
        <time>2010-01-01T05:57:23Z</time>
      </trkpt>
      <trkpt lat="43.47918370" lon="11.33010140">
        <ele>620.00000</ele>
        <time>2010-01-01T05:58:01Z</time>
      </trkpt>
      <trkpt lat="43.47944840" lon="11.32926460">
        <ele>615.00000</ele>
        <time>2010-01-01T05:58:27Z</time>
      </trkpt>
      <trkpt lat="43.47962360" lon="11.32900170">
        <ele>613.00000</ele>
        <time>2010-01-01T05:58:38Z</time>
      </trkpt>
      <trkpt lat="43.48011790" lon="11.32893200">
        <ele>615.00000</ele>
        <time>2010-01-01T05:58:58Z</time>
      </trkpt>
      <trkpt lat="43.48028140" lon="11.32872810">
        <ele>614.00000</ele>
        <time>2010-01-01T05:59:06Z</time>
      </trkpt>
      <trkpt lat="43.48037870" lon="11.32835800">
        <ele>613.00000</ele>
        <time>2010-01-01T05:59:18Z</time>
      </trkpt>
      <trkpt lat="43.48040600" lon="11.32789670">
        <ele>611.00000</ele>
        <time>2010-01-01T05:59:31Z</time>
      </trkpt>
      <trkpt lat="43.48022690" lon="11.32694720">
        <ele>608.00000</ele>
        <time>2010-01-01T06:00:00Z</time>
      </trkpt>
      <trkpt lat="43.48109490" lon="11.32545590">
        <ele>615.00000</ele>
        <time>2010-01-01T06:00:55Z</time>
      </trkpt>
      <trkpt lat="43.48142190" lon="11.32536470">
        <ele>615.00000</ele>
        <time>2010-01-01T06:01:09Z</time>
      </trkpt>
      <trkpt lat="43.48272580" lon="11.32564900">
        <ele>611.00000</ele>
        <time>2010-01-01T06:02:02Z</time>
      </trkpt>
      <trkpt lat="43.48300610" lon="11.32559000">
        <ele>609.00000</ele>
        <time>2010-01-01T06:02:13Z</time>
      </trkpt>
      <trkpt lat="43.48382350" lon="11.32514470">
        <ele>605.00000</ele>
        <time>2010-01-01T06:02:48Z</time>
      </trkpt>
      <trkpt lat="43.48408810" lon="11.32482290">
        <ele>605.00000</ele>
        <time>2010-01-01T06:03:02Z</time>
      </trkpt>
      <trkpt lat="43.48436450" lon="11.32408790">
        <ele>602.00000</ele>
        <time>2010-01-01T06:03:26Z</time>
      </trkpt>
      <trkpt lat="43.48462910" lon="11.32234450">
        <ele>599.00000</ele>
        <time>2010-01-01T06:04:18Z</time>
      </trkpt>
      <trkpt lat="43.48521300" lon="11.32045620">
        <ele>601.00000</ele>
        <time>2010-01-01T06:05:18Z</time>
      </trkpt>
      <trkpt lat="43.48520130" lon="11.31957650">
        <ele>604.00000</ele>
        <time>2010-01-01T06:05:43Z</time>
      </trkpt>
      <trkpt lat="43.48543870" lon="11.31871810">
        <ele>599.00000</ele>
        <time>2010-01-01T06:06:10Z</time>
      </trkpt>
      <trkpt lat="43.48603030" lon="11.31780620">
        <ele>601.00000</ele>
        <time>2010-01-01T06:06:45Z</time>
      </trkpt>
      <trkpt lat="43.48603420" lon="11.31750580">
        <ele>602.00000</ele>
        <time>2010-01-01T06:06:54Z</time>
      </trkpt>
      <trkpt lat="43.48567610" lon="11.31694790">
        <ele>599.00000</ele>
        <time>2010-01-01T06:07:16Z</time>
      </trkpt>
      <trkpt lat="43.48553210" lon="11.31656700">
        <ele>597.00000</ele>
        <time>2010-01-01T06:07:28Z</time>
      </trkpt>
      <trkpt lat="43.48545820" lon="11.31570870">
        <ele>603.00000</ele>
        <time>2010-01-01T06:07:53Z</time>
      </trkpt>
      <trkpt lat="43.48492500" lon="11.31518840">
        <ele>600.00000</ele>
        <time>2010-01-01T06:08:19Z</time>
      </trkpt>
      <trkpt lat="43.48478480" lon="11.31471090">
        <ele>602.00000</ele>
        <time>2010-01-01T06:08:34Z</time>
      </trkpt>
      <trkpt lat="43.48468750" lon="11.31391160">
        <ele>606.00000</ele>
        <time>2010-01-01T06:08:58Z</time>
      </trkpt>
      <trkpt lat="43.48453960" lon="11.31353610">
        <ele>607.00000</ele>
        <time>2010-01-01T06:09:10Z</time>
      </trkpt>
      <trkpt lat="43.48431780" lon="11.31333230">
        <ele>609.00000</ele>
        <time>2010-01-01T06:09:21Z</time>
      </trkpt>
      <trkpt lat="43.48355880" lon="11.31323030">
        <ele>604.00000</ele>
        <time>2010-01-01T06:09:52Z</time>
      </trkpt>
      <trkpt lat="43.48327850" lon="11.31305870">
        <ele>605.00000</ele>
        <time>2010-01-01T06:10:04Z</time>
      </trkpt>
      <trkpt lat="43.48288930" lon="11.31247930">
        <ele>611.00000</ele>
        <time>2010-01-01T06:10:27Z</time>
      </trkpt>
      <trkpt lat="43.48263240" lon="11.31223790">
        <ele>613.00000</ele>
        <time>2010-01-01T06:10:39Z</time>
      </trkpt>
      <trkpt lat="43.48204080" lon="11.31210920">
        <ele>606.00000</ele>
        <time>2010-01-01T06:11:03Z</time>
      </trkpt>
      <trkpt lat="43.48177610" lon="11.31193750">
        <ele>605.00000</ele>
        <time>2010-01-01T06:11:15Z</time>
      </trkpt>
      <trkpt lat="43.48113000" lon="11.31111140">
        <ele>605.00000</ele>
        <time>2010-01-01T06:11:50Z</time>
      </trkpt>
      <trkpt lat="43.48110660" lon="11.31073590">
        <ele>608.00000</ele>
        <time>2010-01-01T06:12:01Z</time>
      </trkpt>
      <trkpt lat="43.48142970" lon="11.31017800">
        <ele>605.00000</ele>
        <time>2010-01-01T06:12:22Z</time>
      </trkpt>
      <trkpt lat="43.48152700" lon="11.30919090">
        <ele>603.00000</ele>
        <time>2010-01-01T06:12:51Z</time>
      </trkpt>
      <trkpt lat="43.48143360" lon="11.30862230">
        <ele>601.00000</ele>
        <time>2010-01-01T06:13:08Z</time>
      </trkpt>
      <trkpt lat="43.48123120" lon="11.30810730">
        <ele>598.00000</ele>
        <time>2010-01-01T06:13:25Z</time>
      </trkpt>
      <trkpt lat="43.48104430" lon="11.30713100">
        <ele>593.00000</ele>
        <time>2010-01-01T06:13:54Z</time>
      </trkpt>
      <trkpt lat="43.48100150" lon="11.30644970">
        <ele>587.00000</ele>
        <time>2010-01-01T06:14:14Z</time>
      </trkpt>
      <trkpt lat="43.48107940" lon="11.30586500">
        <ele>584.00000</ele>
        <time>2010-01-01T06:14:31Z</time>
      </trkpt>
      <trkpt lat="43.48102100" lon="11.30559680">
        <ele>582.00000</ele>
        <time>2010-01-01T06:14:39Z</time>
      </trkpt>
      <trkpt lat="43.48080690" lon="11.30550020">
        <ele>581.00000</ele>
        <time>2010-01-01T06:14:48Z</time>
      </trkpt>
      <trkpt lat="43.48042150" lon="11.30575230">
        <ele>580.00000</ele>
        <time>2010-01-01T06:15:05Z</time>
      </trkpt>
      <trkpt lat="43.48000500" lon="11.30555390">
        <ele>580.00000</ele>
        <time>2010-01-01T06:15:23Z</time>
      </trkpt>
      <trkpt lat="43.47937830" lon="11.30490480">
        <ele>583.00000</ele>
        <time>2010-01-01T06:15:54Z</time>
      </trkpt>
      <trkpt lat="43.47836630" lon="11.30336520">
        <ele>588.00000</ele>
        <time>2010-01-01T06:16:55Z</time>
      </trkpt>
      <trkpt lat="43.47806260" lon="11.30234590">
        <ele>588.00000</ele>
        <time>2010-01-01T06:17:27Z</time>
      </trkpt>
      <trkpt lat="43.47788360" lon="11.30210990">
        <ele>586.00000</ele>
        <time>2010-01-01T06:17:37Z</time>
      </trkpt>
      <trkpt lat="43.47707780" lon="11.30151980">
        <ele>582.00000</ele>
        <time>2010-01-01T06:18:13Z</time>
      </trkpt>
      <trkpt lat="43.47697270" lon="11.30116580">
        <ele>583.00000</ele>
        <time>2010-01-01T06:18:24Z</time>
      </trkpt>
      <trkpt lat="43.47732300" lon="11.29941160">
        <ele>572.00000</ele>
        <time>2010-01-01T06:19:17Z</time>
      </trkpt>
      <trkpt lat="43.47723740" lon="11.29883760">
        <ele>573.00000</ele>
        <time>2010-01-01T06:19:34Z</time>
      </trkpt>
      <trkpt lat="43.47688710" lon="11.29768960">
        <ele>569.00000</ele>
        <time>2010-01-01T06:20:10Z</time>
      </trkpt>
      <trkpt lat="43.47652890" lon="11.29697080">
        <ele>570.00000</ele>
        <time>2010-01-01T06:20:36Z</time>
      </trkpt>
      <trkpt lat="43.47589830" lon="11.29669180">
        <ele>564.00000</ele>
        <time>2010-01-01T06:21:02Z</time>
      </trkpt>
      <trkpt lat="43.47538450" lon="11.29619830">
        <ele>557.00000</ele>
        <time>2010-01-01T06:21:27Z</time>
      </trkpt>
      <trkpt lat="43.47515480" lon="11.29538290">
        <ele>554.00000</ele>
        <time>2010-01-01T06:21:53Z</time>
      </trkpt>
      <trkpt lat="43.47533000" lon="11.29296000">
        <ele>550.00000</ele>
        <time>2010-01-01T06:23:03Z</time>
      </trkpt>
      <trkpt lat="43.47541000" lon="11.29248000">
        <ele>549.00000</ele>
        <time>2010-01-01T06:23:18Z</time>
      </trkpt>
      <trkpt lat="43.47554000" lon="11.29213000">
        <ele>547.00000</ele>
        <time>2010-01-01T06:23:29Z</time>
      </trkpt>
      <trkpt lat="43.47588000" lon="11.29156000">
        <ele>544.00000</ele>
        <time>2010-01-01T06:23:51Z</time>
      </trkpt>
      <trkpt lat="43.47643000" lon="11.29116000">
        <ele>543.00000</ele>
        <time>2010-01-01T06:24:15Z</time>
      </trkpt>
      <trkpt lat="43.47651340" lon="11.29090900">
        <ele>542.00000</ele>
        <time>2010-01-01T06:24:24Z</time>
      </trkpt>
      <trkpt lat="43.47615000" lon="11.28912000">
        <ele>536.00000</ele>
        <time>2010-01-01T06:25:17Z</time>
      </trkpt>
      <trkpt lat="43.47583000" lon="11.28870000">
        <ele>541.00000</ele>
        <time>2010-01-01T06:25:35Z</time>
      </trkpt>
      <trkpt lat="43.47511000" lon="11.28840000">
        <ele>547.00000</ele>
        <time>2010-01-01T06:26:05Z</time>
      </trkpt>
      <trkpt lat="43.47490000" lon="11.28801000">
        <ele>550.00000</ele>
        <time>2010-01-01T06:26:19Z</time>
      </trkpt>
      <trkpt lat="43.47479000" lon="11.28751000">
        <ele>553.00000</ele>
        <time>2010-01-01T06:26:35Z</time>
      </trkpt>
      <trkpt lat="43.47457000" lon="11.28606000">
        <ele>555.00000</ele>
        <time>2010-01-01T06:27:18Z</time>
      </trkpt>
      <trkpt lat="43.47446000" lon="11.28591000">
        <ele>554.00000</ele>
        <time>2010-01-01T06:27:24Z</time>
      </trkpt>
      <trkpt lat="43.47434000" lon="11.28587000">
        <ele>553.00000</ele>
        <time>2010-01-01T06:27:29Z</time>
      </trkpt>
      <trkpt lat="43.47421000" lon="11.28591000">
        <ele>553.00000</ele>
        <time>2010-01-01T06:27:34Z</time>
      </trkpt>
      <trkpt lat="43.47410000" lon="11.28604000">
        <ele>555.00000</ele>
        <time>2010-01-01T06:27:40Z</time>
      </trkpt>
      <trkpt lat="43.47402000" lon="11.28624000">
        <ele>556.00000</ele>
        <time>2010-01-01T06:27:46Z</time>
      </trkpt>
      <trkpt lat="43.47378000" lon="11.28779000">
        <ele>562.00000</ele>
        <time>2010-01-01T06:28:33Z</time>
      </trkpt>
      <trkpt lat="43.47365210" lon="11.28821610">
        <ele>564.00000</ele>
        <time>2010-01-01T06:28:46Z</time>
      </trkpt>
      <trkpt lat="43.47339000" lon="11.28875000">
        <ele>567.00000</ele>
        <time>2010-01-01T06:29:05Z</time>
      </trkpt>
      <trkpt lat="43.47324000" lon="11.28881000">
        <ele>567.00000</ele>
        <time>2010-01-01T06:29:11Z</time>
      </trkpt>
      <trkpt lat="43.47312000" lon="11.28877000">
        <ele>567.00000</ele>
        <time>2010-01-01T06:29:16Z</time>
      </trkpt>
      <trkpt lat="43.47297000" lon="11.28847000">
        <ele>566.00000</ele>
        <time>2010-01-01T06:29:26Z</time>
      </trkpt>
      <trkpt lat="43.47298000" lon="11.28820000">
        <ele>568.00000</ele>
        <time>2010-01-01T06:29:34Z</time>
      </trkpt>
      <trkpt lat="43.47311000" lon="11.28689000">
        <ele>574.00000</ele>
        <time>2010-01-01T06:30:13Z</time>
      </trkpt>
      <trkpt lat="43.47300000" lon="11.28634000">
        <ele>576.00000</ele>
        <time>2010-01-01T06:30:29Z</time>
      </trkpt>
      <trkpt lat="43.47273000" lon="11.28586000">
        <ele>580.00000</ele>
        <time>2010-01-01T06:30:47Z</time>
      </trkpt>
      <trkpt lat="43.47127000" lon="11.28540000">
        <ele>571.00000</ele>
        <time>2010-01-01T06:31:47Z</time>
      </trkpt>
      <trkpt lat="43.47094000" lon="11.28542000">
        <ele>568.00000</ele>
        <time>2010-01-01T06:32:00Z</time>
      </trkpt>
      <trkpt lat="43.46986000" lon="11.28601000">
        <ele>572.00000</ele>
        <time>2010-01-01T06:32:47Z</time>
      </trkpt>
      <trkpt lat="43.46897000" lon="11.28616000">
        <ele>569.00000</ele>
        <time>2010-01-01T06:33:22Z</time>
      </trkpt>
      <trkpt lat="43.46864570" lon="11.28648870">
        <ele>569.00000</ele>
        <time>2010-01-01T06:33:39Z</time>
      </trkpt>
      <trkpt lat="43.46828000" lon="11.28700000">
        <ele>567.00000</ele>
        <time>2010-01-01T06:33:59Z</time>
      </trkpt>
      <trkpt lat="43.46808000" lon="11.28718000">
        <ele>567.00000</ele>
        <time>2010-01-01T06:34:09Z</time>
      </trkpt>
      <trkpt lat="43.46769000" lon="11.28738000">
        <ele>569.00000</ele>
        <time>2010-01-01T06:34:26Z</time>
      </trkpt>
      <trkpt lat="43.46761000" lon="11.28746000">
        <ele>570.00000</ele>
        <time>2010-01-01T06:34:30Z</time>
      </trkpt>
      <trkpt lat="43.46707000" lon="11.28841000">
        <ele>569.00000</ele>
        <time>2010-01-01T06:35:05Z</time>
      </trkpt>
      <trkpt lat="43.46693000" lon="11.28854000">
        <ele>568.00000</ele>
        <time>2010-01-01T06:35:11Z</time>
      </trkpt>
      <trkpt lat="43.46628000" lon="11.28894000">
        <ele>571.00000</ele>
        <time>2010-01-01T06:35:40Z</time>
      </trkpt>
      <trkpt lat="43.46524000" lon="11.28929000">
        <ele>564.00000</ele>
        <time>2010-01-01T06:36:23Z</time>
      </trkpt>
      <trkpt lat="43.46166000" lon="11.29028000">
        <ele>562.00000</ele>
        <time>2010-01-01T06:38:49Z</time>
      </trkpt>
      <trkpt lat="43.46044000" lon="11.29095000">
        <ele>570.00000</ele>
        <time>2010-01-01T06:39:42Z</time>
      </trkpt>
      <trkpt lat="43.45864000" lon="11.29184000">
        <ele>570.00000</ele>
        <time>2010-01-01T06:40:58Z</time>
      </trkpt>
      <trkpt lat="43.45825000" lon="11.29199000">
        <ele>574.00000</ele>
        <time>2010-01-01T06:41:14Z</time>
      </trkpt>
      <trkpt lat="43.45721000" lon="11.29224000">
        <ele>578.00000</ele>
        <time>2010-01-01T06:41:57Z</time>
      </trkpt>
      <trkpt lat="43.45660000" lon="11.29233000">
        <ele>577.00000</ele>
        <time>2010-01-01T06:42:21Z</time>
      </trkpt>
      <trkpt lat="43.45631000" lon="11.29230000">
        <ele>576.00000</ele>
        <time>2010-01-01T06:42:33Z</time>
      </trkpt>
      <trkpt lat="43.45501000" lon="11.29195000">
        <ele>570.00000</ele>
        <time>2010-01-01T06:43:26Z</time>
      </trkpt>
      <trkpt lat="43.45474000" lon="11.29194000">
        <ele>572.00000</ele>
        <time>2010-01-01T06:43:37Z</time>
      </trkpt>
      <trkpt lat="43.45448000" lon="11.29199000">
        <ele>575.00000</ele>
        <time>2010-01-01T06:43:47Z</time>
      </trkpt>
      <trkpt lat="43.45369000" lon="11.29235000">
        <ele>576.00000</ele>
        <time>2010-01-01T06:44:20Z</time>
      </trkpt>
      <trkpt lat="43.45335000" lon="11.29238000">
        <ele>577.00000</ele>
        <time>2010-01-01T06:44:34Z</time>
      </trkpt>
      <trkpt lat="43.45305000" lon="11.29232000">
        <ele>575.00000</ele>
        <time>2010-01-01T06:44:46Z</time>
      </trkpt>
      <trkpt lat="43.45222000" lon="11.29205000">
        <ele>573.00000</ele>
        <time>2010-01-01T06:45:20Z</time>
      </trkpt>
      <trkpt lat="43.45194000" lon="11.29210000">
        <ele>573.00000</ele>
        <time>2010-01-01T06:45:32Z</time>
      </trkpt>
      <trkpt lat="43.45144000" lon="11.29263000">
        <ele>576.00000</ele>
        <time>2010-01-01T06:45:57Z</time>
      </trkpt>
      <trkpt lat="43.45020000" lon="11.29327000">
        <ele>565.00000</ele>
        <time>2010-01-01T06:46:50Z</time>
      </trkpt>
      <trkpt lat="43.45007000" lon="11.29337000">
        <ele>562.00000</ele>
        <time>2010-01-01T06:46:56Z</time>
      </trkpt>
      <trkpt lat="43.44996000" lon="11.29354000">
        <ele>560.00000</ele>
        <time>2010-01-01T06:47:02Z</time>
      </trkpt>
      <trkpt lat="43.44958000" lon="11.29425000">
        <ele>559.00000</ele>
        <time>2010-01-01T06:47:28Z</time>
      </trkpt>
      <trkpt lat="43.44911000" lon="11.29464000">
        <ele>561.00000</ele>
        <time>2010-01-01T06:47:50Z</time>
      </trkpt>
      <trkpt lat="43.44866000" lon="11.29486000">
        <ele>566.00000</ele>
        <time>2010-01-01T06:48:09Z</time>
      </trkpt>
      <trkpt lat="43.44828060" lon="11.29516830">
        <ele>565.00000</ele>
        <time>2010-01-01T06:48:27Z</time>
      </trkpt>
      <trkpt lat="43.44788730" lon="11.29609100">
        <ele>564.00000</ele>
        <time>2010-01-01T06:48:58Z</time>
      </trkpt>
      <trkpt lat="43.44791000" lon="11.29677000">
        <ele>563.00000</ele>
        <time>2010-01-01T06:49:18Z</time>
      </trkpt>
      <trkpt lat="43.44748000" lon="11.29755000">
        <ele>558.00000</ele>
        <time>2010-01-01T06:49:46Z</time>
      </trkpt>
      <trkpt lat="43.44724000" lon="11.29778000">
        <ele>558.00000</ele>
        <time>2010-01-01T06:49:58Z</time>
      </trkpt>
      <trkpt lat="43.44619000" lon="11.29938000">
        <ele>548.00000</ele>
        <time>2010-01-01T06:51:01Z</time>
      </trkpt>
      <trkpt lat="43.44589000" lon="11.29964000">
        <ele>547.00000</ele>
        <time>2010-01-01T06:51:15Z</time>
      </trkpt>
      <trkpt lat="43.44561000" lon="11.29975000">
        <ele>546.00000</ele>
        <time>2010-01-01T06:51:26Z</time>
      </trkpt>
      <trkpt lat="43.44536000" lon="11.29981000">
        <ele>547.00000</ele>
        <time>2010-01-01T06:51:37Z</time>
      </trkpt>
      <trkpt lat="43.44508000" lon="11.29984000">
        <ele>551.00000</ele>
        <time>2010-01-01T06:51:48Z</time>
      </trkpt>
      <trkpt lat="43.44487000" lon="11.29979000">
        <ele>552.00000</ele>
        <time>2010-01-01T06:51:56Z</time>
      </trkpt>
      <trkpt lat="43.44459000" lon="11.29958000">
        <ele>550.00000</ele>
        <time>2010-01-01T06:52:09Z</time>
      </trkpt>
      <trkpt lat="43.44423000" lon="11.29922000">
        <ele>545.00000</ele>
        <time>2010-01-01T06:52:27Z</time>
      </trkpt>
      <trkpt lat="43.44397000" lon="11.29909000">
        <ele>543.00000</ele>
        <time>2010-01-01T06:52:38Z</time>
      </trkpt>
      <trkpt lat="43.44382000" lon="11.29906000">
        <ele>542.00000</ele>
        <time>2010-01-01T06:52:44Z</time>
      </trkpt>
      <trkpt lat="43.44370000" lon="11.29911000">
        <ele>542.00000</ele>
        <time>2010-01-01T06:52:49Z</time>
      </trkpt>
      <trkpt lat="43.44326000" lon="11.29990000">
        <ele>539.00000</ele>
        <time>2010-01-01T06:53:18Z</time>
      </trkpt>
      <trkpt lat="43.44321360" lon="11.30031820">
        <ele>539.00000</ele>
        <time>2010-01-01T06:53:30Z</time>
      </trkpt>
      <trkpt lat="43.44322000" lon="11.30064000">
        <ele>540.00000</ele>
        <time>2010-01-01T06:53:40Z</time>
      </trkpt>
      <trkpt lat="43.44310000" lon="11.30081000">
        <ele>538.00000</ele>
        <time>2010-01-01T06:53:46Z</time>
      </trkpt>
      <trkpt lat="43.44290000" lon="11.30092000">
        <ele>537.00000</ele>
        <time>2010-01-01T06:53:55Z</time>
      </trkpt>
      <trkpt lat="43.44268000" lon="11.30096000">
        <ele>536.00000</ele>
        <time>2010-01-01T06:54:04Z</time>
      </trkpt>
      <trkpt lat="43.44259000" lon="11.30095000">
        <ele>535.00000</ele>
        <time>2010-01-01T06:54:08Z</time>
      </trkpt>
      <trkpt lat="43.44198000" lon="11.30044000">
        <ele>531.00000</ele>
        <time>2010-01-01T06:54:36Z</time>
      </trkpt>
      <trkpt lat="43.44184000" lon="11.30038000">
        <ele>531.00000</ele>
        <time>2010-01-01T06:54:42Z</time>
      </trkpt>
      <trkpt lat="43.44113000" lon="11.30040000">
        <ele>531.00000</ele>
        <time>2010-01-01T06:55:10Z</time>
      </trkpt>
      <trkpt lat="43.44098000" lon="11.30049000">
        <ele>530.00000</ele>
        <time>2010-01-01T06:55:17Z</time>
      </trkpt>
      <trkpt lat="43.44089000" lon="11.30061000">
        <ele>529.00000</ele>
        <time>2010-01-01T06:55:22Z</time>
      </trkpt>
      <trkpt lat="43.44074000" lon="11.30088000">
        <ele>529.00000</ele>
        <time>2010-01-01T06:55:32Z</time>
      </trkpt>
      <trkpt lat="43.44061000" lon="11.30103000">
        <ele>530.00000</ele>
        <time>2010-01-01T06:55:39Z</time>
      </trkpt>
      <trkpt lat="43.43978000" lon="11.30122000">
        <ele>537.00000</ele>
        <time>2010-01-01T06:56:12Z</time>
      </trkpt>
      <trkpt lat="43.43959000" lon="11.30130000">
        <ele>536.00000</ele>
        <time>2010-01-01T06:56:20Z</time>
      </trkpt>
      <trkpt lat="43.43949000" lon="11.30146000">
        <ele>535.00000</ele>
        <time>2010-01-01T06:56:26Z</time>
      </trkpt>
      <trkpt lat="43.43949000" lon="11.30164000">
        <ele>535.00000</ele>
        <time>2010-01-01T06:56:32Z</time>
      </trkpt>
      <trkpt lat="43.43970030" lon="11.30316130">
        <ele>534.00000</ele>
        <time>2010-01-01T06:57:17Z</time>
      </trkpt>
      <trkpt lat="43.43979000" lon="11.30345000">
        <ele>535.00000</ele>
        <time>2010-01-01T06:57:26Z</time>
      </trkpt>
      <trkpt lat="43.43981000" lon="11.30359000">
        <ele>535.00000</ele>
        <time>2010-01-01T06:57:30Z</time>
      </trkpt>
      <trkpt lat="43.43965000" lon="11.30435000">
        <ele>529.00000</ele>
        <time>2010-01-01T06:57:53Z</time>
      </trkpt>
      <trkpt lat="43.43954000" lon="11.30508000">
        <ele>530.00000</ele>
        <time>2010-01-01T06:58:15Z</time>
      </trkpt>
      <trkpt lat="43.43931000" lon="11.30535000">
        <ele>529.00000</ele>
        <time>2010-01-01T06:58:27Z</time>
      </trkpt>
      <trkpt lat="43.43907000" lon="11.30543000">
        <ele>527.00000</ele>
        <time>2010-01-01T06:58:37Z</time>
      </trkpt>
      <trkpt lat="43.43886000" lon="11.30549000">
        <ele>525.00000</ele>
        <time>2010-01-01T06:58:45Z</time>
      </trkpt>
      <trkpt lat="43.43857000" lon="11.30569000">
        <ele>523.00000</ele>
        <time>2010-01-01T06:58:58Z</time>
      </trkpt>
      <trkpt lat="43.43843000" lon="11.30586000">
        <ele>523.00000</ele>
        <time>2010-01-01T06:59:06Z</time>
      </trkpt>
      <trkpt lat="43.43833000" lon="11.30606000">
        <ele>522.00000</ele>
        <time>2010-01-01T06:59:13Z</time>
      </trkpt>
      <trkpt lat="43.43827000" lon="11.30642000">
        <ele>521.00000</ele>
        <time>2010-01-01T06:59:23Z</time>
      </trkpt>
      <trkpt lat="43.43827000" lon="11.30683000">
        <ele>519.00000</ele>
        <time>2010-01-01T06:59:35Z</time>
      </trkpt>
      <trkpt lat="43.43854000" lon="11.30750000">
        <ele>520.00000</ele>
        <time>2010-01-01T06:59:58Z</time>
      </trkpt>
      <trkpt lat="43.43856000" lon="11.30777000">
        <ele>518.00000</ele>
        <time>2010-01-01T07:00:06Z</time>
      </trkpt>
      <trkpt lat="43.43843000" lon="11.30807000">
        <ele>516.00000</ele>
        <time>2010-01-01T07:00:16Z</time>
      </trkpt>
      <trkpt lat="43.43832000" lon="11.30815000">
        <ele>515.00000</ele>
        <time>2010-01-01T07:00:21Z</time>
      </trkpt>
      <trkpt lat="43.43815000" lon="11.30817000">
        <ele>514.00000</ele>
        <time>2010-01-01T07:00:28Z</time>
      </trkpt>
      <trkpt lat="43.43783000" lon="11.30802000">
        <ele>514.00000</ele>
        <time>2010-01-01T07:00:41Z</time>
      </trkpt>
      <trkpt lat="43.43715000" lon="11.30751000">
        <ele>509.00000</ele>
        <time>2010-01-01T07:01:12Z</time>
      </trkpt>
      <trkpt lat="43.43651000" lon="11.30696000">
        <ele>505.00000</ele>
        <time>2010-01-01T07:01:42Z</time>
      </trkpt>
      <trkpt lat="43.43609730" lon="11.30655700">
        <ele>510.00000</ele>
        <time>2010-01-01T07:02:02Z</time>
      </trkpt>
      <trkpt lat="43.43587000" lon="11.30651000">
        <ele>511.00000</ele>
        <time>2010-01-01T07:02:12Z</time>
      </trkpt>
      <trkpt lat="43.43537000" lon="11.30671000">
        <ele>509.00000</ele>
        <time>2010-01-01T07:02:33Z</time>
      </trkpt>
      <trkpt lat="43.43448000" lon="11.30756000">
        <ele>500.00000</ele>
        <time>2010-01-01T07:03:16Z</time>
      </trkpt>
      <trkpt lat="43.43427000" lon="11.30772000">
        <ele>496.00000</ele>
        <time>2010-01-01T07:03:26Z</time>
      </trkpt>
      <trkpt lat="43.43396000" lon="11.30787000">
        <ele>495.00000</ele>
        <time>2010-01-01T07:03:39Z</time>
      </trkpt>
      <trkpt lat="43.43365000" lon="11.30796000">
        <ele>495.00000</ele>
        <time>2010-01-01T07:03:51Z</time>
      </trkpt>
      <trkpt lat="43.43341000" lon="11.30811000">
        <ele>494.00000</ele>
        <time>2010-01-01T07:04:02Z</time>
      </trkpt>
      <trkpt lat="43.43285000" lon="11.30890000">
        <ele>489.00000</ele>
        <time>2010-01-01T07:04:34Z</time>
      </trkpt>
      <trkpt lat="43.43266000" lon="11.30904000">
        <ele>488.00000</ele>
        <time>2010-01-01T07:04:43Z</time>
      </trkpt>
      <trkpt lat="43.43240000" lon="11.30912000">
        <ele>487.00000</ele>
        <time>2010-01-01T07:04:53Z</time>
      </trkpt>
      <trkpt lat="43.43175770" lon="11.30928750">
        <ele>484.00000</ele>
        <time>2010-01-01T07:05:19Z</time>
      </trkpt>
      <trkpt lat="43.43141000" lon="11.30976000">
        <ele>489.00000</ele>
        <time>2010-01-01T07:05:39Z</time>
      </trkpt>
      <trkpt lat="43.43132000" lon="11.30982000">
        <ele>489.00000</ele>
        <time>2010-01-01T07:05:43Z</time>
      </trkpt>
      <trkpt lat="43.43118000" lon="11.30984000">
        <ele>488.00000</ele>
        <time>2010-01-01T07:05:49Z</time>
      </trkpt>
      <trkpt lat="43.43105000" lon="11.30976000">
        <ele>486.00000</ele>
        <time>2010-01-01T07:05:54Z</time>
      </trkpt>
      <trkpt lat="43.43063000" lon="11.30863000">
        <ele>477.00000</ele>
        <time>2010-01-01T07:06:31Z</time>
      </trkpt>
      <trkpt lat="43.43058510" lon="11.30787670">
        <ele>473.00000</ele>
        <time>2010-01-01T07:06:53Z</time>
      </trkpt>
      <trkpt lat="43.43034000" lon="11.30716000">
        <ele>468.00000</ele>
        <time>2010-01-01T07:07:16Z</time>
      </trkpt>
      <trkpt lat="43.42979000" lon="11.30612000">
        <ele>466.00000</ele>
        <time>2010-01-01T07:07:54Z</time>
      </trkpt>
      <trkpt lat="43.42970000" lon="11.30579000">
        <ele>464.00000</ele>
        <time>2010-01-01T07:08:04Z</time>
      </trkpt>
      <trkpt lat="43.42959000" lon="11.30503000">
        <ele>456.00000</ele>
        <time>2010-01-01T07:08:26Z</time>
      </trkpt>
      <trkpt lat="43.42943000" lon="11.30469000">
        <ele>453.00000</ele>
        <time>2010-01-01T07:08:38Z</time>
      </trkpt>
      <trkpt lat="43.42918000" lon="11.30450000">
        <ele>449.00000</ele>
        <time>2010-01-01T07:08:50Z</time>
      </trkpt>
      <trkpt lat="43.42897000" lon="11.30447000">
        <ele>447.00000</ele>
        <time>2010-01-01T07:08:58Z</time>
      </trkpt>
      <trkpt lat="43.42870000" lon="11.30454000">
        <ele>447.00000</ele>
        <time>2010-01-01T07:09:09Z</time>
      </trkpt>
      <trkpt lat="43.42847000" lon="11.30474000">
        <ele>445.00000</ele>
        <time>2010-01-01T07:09:20Z</time>
      </trkpt>
      <trkpt lat="43.42835000" lon="11.30499000">
        <ele>444.00000</ele>
        <time>2010-01-01T07:09:29Z</time>
      </trkpt>
      <trkpt lat="43.42829000" lon="11.30528000">
        <ele>442.00000</ele>
        <time>2010-01-01T07:09:37Z</time>
      </trkpt>
      <trkpt lat="43.42831000" lon="11.30622000">
        <ele>446.00000</ele>
        <time>2010-01-01T07:10:05Z</time>
      </trkpt>
      <trkpt lat="43.42825550" lon="11.30640680">
        <ele>446.00000</ele>
        <time>2010-01-01T07:10:11Z</time>
      </trkpt>
      <trkpt lat="43.42812000" lon="11.30646000">
        <ele>443.00000</ele>
        <time>2010-01-01T07:10:16Z</time>
      </trkpt>
      <trkpt lat="43.42780000" lon="11.30637000">
        <ele>439.00000</ele>
        <time>2010-01-01T07:10:29Z</time>
      </trkpt>
      <trkpt lat="43.42738000" lon="11.30608000">
        <ele>436.00000</ele>
        <time>2010-01-01T07:10:48Z</time>
      </trkpt>
      <trkpt lat="43.42707000" lon="11.30576000">
        <ele>431.00000</ele>
        <time>2010-01-01T07:11:04Z</time>
      </trkpt>
      <trkpt lat="43.42679000" lon="11.30530000">
        <ele>426.00000</ele>
        <time>2010-01-01T07:11:21Z</time>
      </trkpt>
      <trkpt lat="43.42646000" lon="11.30446000">
        <ele>423.00000</ele>
        <time>2010-01-01T07:11:49Z</time>
      </trkpt>
      <trkpt lat="43.42600000" lon="11.30331000">
        <ele>417.00000</ele>
        <time>2010-01-01T07:12:27Z</time>
      </trkpt>
      <trkpt lat="43.42565000" lon="11.30275000">
        <ele>414.00000</ele>
        <time>2010-01-01T07:12:49Z</time>
      </trkpt>
      <trkpt lat="43.42501000" lon="11.30189000">
        <ele>415.00000</ele>
        <time>2010-01-01T07:13:24Z</time>
      </trkpt>
      <trkpt lat="43.42449000" lon="11.30065000">
        <ele>412.00000</ele>
        <time>2010-01-01T07:14:06Z</time>
      </trkpt>
      <trkpt lat="43.42427000" lon="11.30028000">
        <ele>412.00000</ele>
        <time>2010-01-01T07:14:20Z</time>
      </trkpt>
      <trkpt lat="43.42398000" lon="11.30001000">
        <ele>414.00000</ele>
        <time>2010-01-01T07:14:34Z</time>
      </trkpt>
      <trkpt lat="43.42310000" lon="11.29945000">
        <ele>407.00000</ele>
        <time>2010-01-01T07:15:13Z</time>
      </trkpt>
      <trkpt lat="43.42283000" lon="11.29919000">
        <ele>402.00000</ele>
        <time>2010-01-01T07:15:26Z</time>
      </trkpt>
      <trkpt lat="43.42230000" lon="11.29848000">
        <ele>394.00000</ele>
        <time>2010-01-01T07:15:55Z</time>
      </trkpt>
      <trkpt lat="43.42086070" lon="11.29785590">
        <ele>372.00000</ele>
        <time>2010-01-01T07:16:56Z</time>
      </trkpt>
      <trkpt lat="43.42041000" lon="11.29746000">
        <ele>369.00000</ele>
        <time>2010-01-01T07:17:17Z</time>
      </trkpt>
      <trkpt lat="43.42019000" lon="11.29735000">
        <ele>366.00000</ele>
        <time>2010-01-01T07:17:27Z</time>
      </trkpt>
      <trkpt lat="43.41993000" lon="11.29734000">
        <ele>364.00000</ele>
        <time>2010-01-01T07:17:37Z</time>
      </trkpt>
      <trkpt lat="43.41928000" lon="11.29716000">
        <ele>362.00000</ele>
        <time>2010-01-01T07:18:04Z</time>
      </trkpt>
      <trkpt lat="43.41883000" lon="11.29711000">
        <ele>357.00000</ele>
        <time>2010-01-01T07:18:22Z</time>
      </trkpt>
      <trkpt lat="43.41845000" lon="11.29687000">
        <ele>352.00000</ele>
        <time>2010-01-01T07:18:38Z</time>
      </trkpt>
      <trkpt lat="43.41781000" lon="11.29635000">
        <ele>351.00000</ele>
        <time>2010-01-01T07:19:08Z</time>
      </trkpt>
      <trkpt lat="43.41714000" lon="11.29605000">
        <ele>347.00000</ele>
        <time>2010-01-01T07:19:36Z</time>
      </trkpt>
      <trkpt lat="43.41688000" lon="11.29583000">
        <ele>343.00000</ele>
        <time>2010-01-01T07:19:49Z</time>
      </trkpt>
      <trkpt lat="43.41667000" lon="11.29551000">
        <ele>339.00000</ele>
        <time>2010-01-01T07:20:01Z</time>
      </trkpt>
      <trkpt lat="43.41655000" lon="11.29511000">
        <ele>339.00000</ele>
        <time>2010-01-01T07:20:14Z</time>
      </trkpt>
      <trkpt lat="43.41633000" lon="11.29405000">
        <ele>342.00000</ele>
        <time>2010-01-01T07:20:46Z</time>
      </trkpt>
      <trkpt lat="43.41617000" lon="11.29370000">
        <ele>339.00000</ele>
        <time>2010-01-01T07:20:58Z</time>
      </trkpt>
      <trkpt lat="43.41592000" lon="11.29344000">
        <ele>333.00000</ele>
        <time>2010-01-01T07:21:10Z</time>
      </trkpt>
      <trkpt lat="43.41494000" lon="11.29285000">
        <ele>327.00000</ele>
        <time>2010-01-01T07:21:53Z</time>
      </trkpt>
      <trkpt lat="43.41459000" lon="11.29278000">
        <ele>326.00000</ele>
        <time>2010-01-01T07:22:07Z</time>
      </trkpt>
      <trkpt lat="43.41365000" lon="11.29271000">
        <ele>324.00000</ele>
        <time>2010-01-01T07:22:45Z</time>
      </trkpt>
      <trkpt lat="43.41308000" lon="11.29274000">
        <ele>322.00000</ele>
        <time>2010-01-01T07:23:08Z</time>
      </trkpt>
      <trkpt lat="43.41155000" lon="11.29298000">
        <ele>312.00000</ele>
        <time>2010-01-01T07:24:09Z</time>
      </trkpt>
      <trkpt lat="43.41119000" lon="11.29299000">
        <ele>312.00000</ele>
        <time>2010-01-01T07:24:24Z</time>
      </trkpt>
      <trkpt lat="43.41103000" lon="11.29296000">
        <ele>312.00000</ele>
        <time>2010-01-01T07:24:30Z</time>
      </trkpt>
      <trkpt lat="43.41074000" lon="11.29280000">
        <ele>312.00000</ele>
        <time>2010-01-01T07:24:43Z</time>
      </trkpt>
      <trkpt lat="43.40973000" lon="11.29195000">
        <ele>312.00000</ele>
        <time>2010-01-01T07:25:30Z</time>
      </trkpt>
      <trkpt lat="43.40923000" lon="11.29129000">
        <ele>304.00000</ele>
        <time>2010-01-01T07:25:58Z</time>
      </trkpt>
      <trkpt lat="43.40857000" lon="11.29063000">
        <ele>295.00000</ele>
        <time>2010-01-01T07:26:31Z</time>
      </trkpt>
      <trkpt lat="43.40844970" lon="11.29035110">
        <ele>294.00000</ele>
        <time>2010-01-01T07:26:40Z</time>
      </trkpt>
      <trkpt lat="43.40843020" lon="11.29007750">
        <ele>294.00000</ele>
        <time>2010-01-01T07:26:48Z</time>
      </trkpt>
      <trkpt lat="43.40852000" lon="11.28940000">
        <ele>292.00000</ele>
        <time>2010-01-01T07:27:08Z</time>
      </trkpt>
      <trkpt lat="43.40869000" lon="11.28876000">
        <ele>291.00000</ele>
        <time>2010-01-01T07:27:28Z</time>
      </trkpt>
      <trkpt lat="43.40913000" lon="11.28771000">
        <ele>289.00000</ele>
        <time>2010-01-01T07:28:03Z</time>
      </trkpt>
      <trkpt lat="43.40939000" lon="11.28654000">
        <ele>294.00000</ele>
        <time>2010-01-01T07:28:39Z</time>
      </trkpt>
      <trkpt lat="43.40938890" lon="11.28601670">
        <ele>298.00000</ele>
        <time>2010-01-01T07:28:54Z</time>
      </trkpt>
      <trkpt lat="43.40915000" lon="11.28566000">
        <ele>303.00000</ele>
        <time>2010-01-01T07:29:08Z</time>
      </trkpt>
      <trkpt lat="43.40844000" lon="11.28513000">
        <ele>303.00000</ele>
        <time>2010-01-01T07:29:40Z</time>
      </trkpt>
      <trkpt lat="43.40823000" lon="11.28478000">
        <ele>305.00000</ele>
        <time>2010-01-01T07:29:54Z</time>
      </trkpt>
      <trkpt lat="43.40786000" lon="11.28401000">
        <ele>308.00000</ele>
        <time>2010-01-01T07:30:20Z</time>
      </trkpt>
      <trkpt lat="43.40753000" lon="11.28353000">
        <ele>308.00000</ele>
        <time>2010-01-01T07:30:40Z</time>
      </trkpt>
      <trkpt lat="43.40692000" lon="11.28312000">
        <ele>303.00000</ele>
        <time>2010-01-01T07:31:07Z</time>
      </trkpt>
      <trkpt lat="43.40626000" lon="11.28275000">
        <ele>300.00000</ele>
        <time>2010-01-01T07:31:35Z</time>
      </trkpt>
      <trkpt lat="43.40598000" lon="11.28247000">
        <ele>299.00000</ele>
        <time>2010-01-01T07:31:49Z</time>
      </trkpt>
      <trkpt lat="43.40580000" lon="11.28207000">
        <ele>297.00000</ele>
        <time>2010-01-01T07:32:03Z</time>
      </trkpt>
      <trkpt lat="43.40539000" lon="11.28027000">
        <ele>289.00000</ele>
        <time>2010-01-01T07:32:58Z</time>
      </trkpt>
      <trkpt lat="43.40527000" lon="11.27984000">
        <ele>288.00000</ele>
        <time>2010-01-01T07:33:11Z</time>
      </trkpt>
      <trkpt lat="43.40454000" lon="11.27867000">
        <ele>276.00000</ele>
        <time>2010-01-01T07:33:56Z</time>
      </trkpt>
      <trkpt lat="43.40432000" lon="11.27823000">
        <ele>275.00000</ele>
        <time>2010-01-01T07:34:12Z</time>
      </trkpt>
      <trkpt lat="43.40414000" lon="11.27775000">
        <ele>275.00000</ele>
        <time>2010-01-01T07:34:27Z</time>
      </trkpt>
      <trkpt lat="43.40401000" lon="11.27724000">
        <ele>274.00000</ele>
        <time>2010-01-01T07:34:43Z</time>
      </trkpt>
      <trkpt lat="43.40373000" lon="11.27540000">
        <ele>274.00000</ele>
        <time>2010-01-01T07:35:38Z</time>
      </trkpt>
      <trkpt lat="43.40347000" lon="11.27438000">
        <ele>272.00000</ele>
        <time>2010-01-01T07:36:09Z</time>
      </trkpt>
      <trkpt lat="43.40328000" lon="11.27391000">
        <ele>272.00000</ele>
        <time>2010-01-01T07:36:25Z</time>
      </trkpt>
      <trkpt lat="43.40293000" lon="11.27326000">
        <ele>274.00000</ele>
        <time>2010-01-01T07:36:48Z</time>
      </trkpt>
      <trkpt lat="43.40112000" lon="11.27029000">
        <ele>290.00000</ele>
        <time>2010-01-01T07:38:41Z</time>
      </trkpt>
      <trkpt lat="43.40075000" lon="11.26982000">
        <ele>293.00000</ele>
        <time>2010-01-01T07:39:01Z</time>
      </trkpt>
      <trkpt lat="43.40045000" lon="11.26963000">
        <ele>293.00000</ele>
        <time>2010-01-01T07:39:14Z</time>
      </trkpt>
      <trkpt lat="43.40012880" lon="11.26954790">
        <ele>291.00000</ele>
        <time>2010-01-01T07:39:27Z</time>
      </trkpt>
      <trkpt lat="43.39964000" lon="11.26958000">
        <ele>289.00000</ele>
        <time>2010-01-01T07:39:47Z</time>
      </trkpt>
      <trkpt lat="43.39845000" lon="11.26979000">
        <ele>295.00000</ele>
        <time>2010-01-01T07:40:35Z</time>
      </trkpt>
      <trkpt lat="43.39820000" lon="11.26979000">
        <ele>297.00000</ele>
        <time>2010-01-01T07:40:45Z</time>
      </trkpt>
      <trkpt lat="43.39798000" lon="11.26970000">
        <ele>299.00000</ele>
        <time>2010-01-01T07:40:54Z</time>
      </trkpt>
      <trkpt lat="43.39775000" lon="11.26944000">
        <ele>299.00000</ele>
        <time>2010-01-01T07:41:06Z</time>
      </trkpt>
      <trkpt lat="43.39754000" lon="11.26937000">
        <ele>299.00000</ele>
        <time>2010-01-01T07:41:15Z</time>
      </trkpt>
      <trkpt lat="43.39722000" lon="11.26950000">
        <ele>296.00000</ele>
        <time>2010-01-01T07:41:28Z</time>
      </trkpt>
      <trkpt lat="43.39689000" lon="11.26980000">
        <ele>293.00000</ele>
        <time>2010-01-01T07:41:44Z</time>
      </trkpt>
      <trkpt lat="43.39647000" lon="11.27001000">
        <ele>287.00000</ele>
        <time>2010-01-01T07:42:02Z</time>
      </trkpt>
      <trkpt lat="43.39617000" lon="11.27006000">
        <ele>282.00000</ele>
        <time>2010-01-01T07:42:14Z</time>
      </trkpt>
      <trkpt lat="43.39581000" lon="11.27026000">
        <ele>279.00000</ele>
        <time>2010-01-01T07:42:30Z</time>
      </trkpt>
      <trkpt lat="43.39483000" lon="11.27122000">
        <ele>264.00000</ele>
        <time>2010-01-01T07:43:18Z</time>
      </trkpt>
      <trkpt lat="43.39452000" lon="11.27136000">
        <ele>261.00000</ele>
        <time>2010-01-01T07:43:31Z</time>
      </trkpt>
      <trkpt lat="43.39417000" lon="11.27138000">
        <ele>256.00000</ele>
        <time>2010-01-01T07:43:45Z</time>
      </trkpt>
      <trkpt lat="43.39376000" lon="11.27130000">
        <ele>251.00000</ele>
        <time>2010-01-01T07:44:01Z</time>
      </trkpt>
      <trkpt lat="43.39343000" lon="11.27128000">
        <ele>248.00000</ele>
        <time>2010-01-01T07:44:15Z</time>
      </trkpt>
      <trkpt lat="43.39304000" lon="11.27137000">
        <ele>248.00000</ele>
        <time>2010-01-01T07:44:30Z</time>
      </trkpt>
      <trkpt lat="43.39145000" lon="11.27210000">
        <ele>242.00000</ele>
        <time>2010-01-01T07:45:37Z</time>
      </trkpt>
      <trkpt lat="43.38973000" lon="11.27258000">
        <ele>233.00000</ele>
        <time>2010-01-01T07:46:48Z</time>
      </trkpt>
      <trkpt lat="43.38945000" lon="11.27260000">
        <ele>232.00000</ele>
        <time>2010-01-01T07:46:59Z</time>
      </trkpt>
      <trkpt lat="43.38880000" lon="11.27249000">
        <ele>225.00000</ele>
        <time>2010-01-01T07:47:25Z</time>
      </trkpt>
      <trkpt lat="43.38784000" lon="11.27243000">
        <ele>225.00000</ele>
        <time>2010-01-01T07:48:04Z</time>
      </trkpt>
      <trkpt lat="43.38742000" lon="11.27247000">
        <ele>226.00000</ele>
        <time>2010-01-01T07:48:20Z</time>
      </trkpt>
      <trkpt lat="43.38706000" lon="11.27267000">
        <ele>227.00000</ele>
        <time>2010-01-01T07:48:36Z</time>
      </trkpt>
      <trkpt lat="43.38647000" lon="11.27323000">
        <ele>226.00000</ele>
        <time>2010-01-01T07:49:05Z</time>
      </trkpt>
      <trkpt lat="43.38603000" lon="11.27384000">
        <ele>226.00000</ele>
        <time>2010-01-01T07:49:30Z</time>
      </trkpt>
      <trkpt lat="43.38588000" lon="11.27395000">
        <ele>225.00000</ele>
        <time>2010-01-01T07:49:37Z</time>
      </trkpt>
      <trkpt lat="43.38567000" lon="11.27391000">
        <ele>225.00000</ele>
        <time>2010-01-01T07:49:45Z</time>
      </trkpt>
      <trkpt lat="43.38525000" lon="11.27291000">
        <ele>221.00000</ele>
        <time>2010-01-01T07:50:19Z</time>
      </trkpt>
      <trkpt lat="43.38521000" lon="11.27270000">
        <ele>221.00000</ele>
        <time>2010-01-01T07:50:25Z</time>
      </trkpt>
      <trkpt lat="43.38507000" lon="11.27272000">
        <ele>221.00000</ele>
        <time>2010-01-01T07:50:31Z</time>
      </trkpt>
      <trkpt lat="43.38487000" lon="11.27290000">
        <ele>221.00000</ele>
        <time>2010-01-01T07:50:40Z</time>
      </trkpt>
      <trkpt lat="43.38385000" lon="11.27367000">
        <ele>224.00000</ele>
        <time>2010-01-01T07:51:27Z</time>
      </trkpt>
      <trkpt lat="43.38279000" lon="11.27484000">
        <ele>225.00000</ele>
        <time>2010-01-01T07:52:21Z</time>
      </trkpt>
      <trkpt lat="43.38191000" lon="11.27568000">
        <ele>226.00000</ele>
        <time>2010-01-01T07:53:04Z</time>
      </trkpt>
      <trkpt lat="43.38157000" lon="11.27591000">
        <ele>225.00000</ele>
        <time>2010-01-01T07:53:19Z</time>
      </trkpt>
      <trkpt lat="43.38089000" lon="11.27609000">
        <ele>223.00000</ele>
        <time>2010-01-01T07:53:47Z</time>
      </trkpt>
      <trkpt lat="43.38048000" lon="11.27570000">
        <ele>224.00000</ele>
        <time>2010-01-01T07:54:07Z</time>
      </trkpt>
      <trkpt lat="43.37983000" lon="11.27489000">
        <ele>222.00000</ele>
        <time>2010-01-01T07:54:42Z</time>
      </trkpt>
      <trkpt lat="43.37937000" lon="11.27461000">
        <ele>221.00000</ele>
        <time>2010-01-01T07:55:02Z</time>
      </trkpt>
      <trkpt lat="43.37885000" lon="11.27438000">
        <ele>222.00000</ele>
        <time>2010-01-01T07:55:24Z</time>
      </trkpt>
      <trkpt lat="43.37864000" lon="11.27415000">
        <ele>222.00000</ele>
        <time>2010-01-01T07:55:35Z</time>
      </trkpt>
      <trkpt lat="43.37874000" lon="11.27386000">
        <ele>223.00000</ele>
        <time>2010-01-01T07:55:44Z</time>
      </trkpt>
      <trkpt lat="43.38114000" lon="11.27120000">
        <ele>221.00000</ele>
        <time>2010-01-01T07:57:47Z</time>
      </trkpt>
      <trkpt lat="43.38264000" lon="11.26968000">
        <ele>219.00000</ele>
        <time>2010-01-01T07:59:02Z</time>
      </trkpt>
      <trkpt lat="43.38416000" lon="11.26817000">
        <ele>216.00000</ele>
        <time>2010-01-01T08:00:17Z</time>
      </trkpt>
      <trkpt lat="43.38516000" lon="11.26684420">
        <ele>221.00000</ele>
        <time>2010-01-01T08:01:13Z</time>
      </trkpt>
      <trkpt lat="43.38577000" lon="11.26514000">
        <ele>221.00000</ele>
        <time>2010-01-01T08:02:08Z</time>
      </trkpt>
      <trkpt lat="43.38651000" lon="11.26465000">
        <ele>217.00000</ele>
        <time>2010-01-01T08:02:41Z</time>
      </trkpt>
      <trkpt lat="43.38654000" lon="11.26416000">
        <ele>219.00000</ele>
        <time>2010-01-01T08:02:55Z</time>
      </trkpt>
      <trkpt lat="43.38615810" lon="11.26316420">
        <ele>228.00000</ele>
        <time>2010-01-01T08:03:28Z</time>
      </trkpt>
      <trkpt lat="43.38667000" lon="11.26118000">
        <ele>224.00000</ele>
        <time>2010-01-01T08:04:29Z</time>
      </trkpt>
      <trkpt lat="43.38683000" lon="11.26034000">
        <ele>225.00000</ele>
        <time>2010-01-01T08:04:54Z</time>
      </trkpt>
      <trkpt lat="43.38687000" lon="11.25939000">
        <ele>225.00000</ele>
        <time>2010-01-01T08:05:22Z</time>
      </trkpt>
      <trkpt lat="43.38681000" lon="11.25920000">
        <ele>225.00000</ele>
        <time>2010-01-01T08:05:28Z</time>
      </trkpt>
      <trkpt lat="43.38658000" lon="11.25896000">
        <ele>229.00000</ele>
        <time>2010-01-01T08:05:40Z</time>
      </trkpt>
      <trkpt lat="43.38615000" lon="11.25777000">
        <ele>238.00000</ele>
        <time>2010-01-01T08:06:18Z</time>
      </trkpt>
      <trkpt lat="43.38598000" lon="11.25707000">
        <ele>240.00000</ele>
        <time>2010-01-01T08:06:40Z</time>
      </trkpt>
      <trkpt lat="43.38559000" lon="11.25654000">
        <ele>243.00000</ele>
        <time>2010-01-01T08:07:02Z</time>
      </trkpt>
      <trkpt lat="43.38503000" lon="11.25538000">
        <ele>240.00000</ele>
        <time>2010-01-01T08:07:42Z</time>
      </trkpt>
      <trkpt lat="43.38493000" lon="11.25459000">
        <ele>241.00000</ele>
        <time>2010-01-01T08:08:05Z</time>
      </trkpt>
      <trkpt lat="43.38466000" lon="11.25380000">
        <ele>244.00000</ele>
        <time>2010-01-01T08:08:31Z</time>
      </trkpt>
      <trkpt lat="43.38431000" lon="11.25341000">
        <ele>251.00000</ele>
        <time>2010-01-01T08:08:49Z</time>
      </trkpt>
      <trkpt lat="43.38422000" lon="11.25323000">
        <ele>254.00000</ele>
        <time>2010-01-01T08:08:55Z</time>
      </trkpt>
      <trkpt lat="43.38432000" lon="11.25307000">
        <ele>252.00000</ele>
        <time>2010-01-01T08:09:01Z</time>
      </trkpt>
      <trkpt lat="43.38491000" lon="11.25284000">
        <ele>243.00000</ele>
        <time>2010-01-01T08:09:26Z</time>
      </trkpt>
      <trkpt lat="43.38519000" lon="11.25258000">
        <ele>242.00000</ele>
        <time>2010-01-01T08:09:39Z</time>
      </trkpt>
      <trkpt lat="43.38514000" lon="11.25234000">
        <ele>242.00000</ele>
        <time>2010-01-01T08:09:47Z</time>
      </trkpt>
      <trkpt lat="43.38490000" lon="11.25209000">
        <ele>243.00000</ele>
        <time>2010-01-01T08:09:59Z</time>
      </trkpt>
      <trkpt lat="43.38424000" lon="11.25152000">
        <ele>247.00000</ele>
        <time>2010-01-01T08:10:30Z</time>
      </trkpt>
      <trkpt lat="43.38425000" lon="11.25123000">
        <ele>245.00000</ele>
        <time>2010-01-01T08:10:38Z</time>
      </trkpt>
      <trkpt lat="43.38446000" lon="11.25094000">
        <ele>243.00000</ele>
        <time>2010-01-01T08:10:50Z</time>
      </trkpt>
      <trkpt lat="43.38452000" lon="11.25074000">
        <ele>242.00000</ele>
        <time>2010-01-01T08:10:57Z</time>
      </trkpt>
      <trkpt lat="43.38443000" lon="11.25054000">
        <ele>241.00000</ele>
        <time>2010-01-01T08:11:03Z</time>
      </trkpt>
      <trkpt lat="43.38407000" lon="11.25016000">
        <ele>245.00000</ele>
        <time>2010-01-01T08:11:22Z</time>
      </trkpt>
      <trkpt lat="43.38397000" lon="11.24986000">
        <ele>247.00000</ele>
        <time>2010-01-01T08:11:31Z</time>
      </trkpt>
      <trkpt lat="43.38390000" lon="11.24839000">
        <ele>235.00000</ele>
        <time>2010-01-01T08:12:14Z</time>
      </trkpt>
      <trkpt lat="43.38372000" lon="11.24739000">
        <ele>229.00000</ele>
        <time>2010-01-01T08:12:44Z</time>
      </trkpt>
      <trkpt lat="43.38356000" lon="11.24704000">
        <ele>227.00000</ele>
        <time>2010-01-01T08:12:56Z</time>
      </trkpt>
      <trkpt lat="43.38334000" lon="11.24671000">
        <ele>226.00000</ele>
        <time>2010-01-01T08:13:09Z</time>
      </trkpt>
      <trkpt lat="43.38282000" lon="11.24455000">
        <ele>236.00000</ele>
        <time>2010-01-01T08:14:15Z</time>
      </trkpt>
      <trkpt lat="43.38252000" lon="11.24411000">
        <ele>241.00000</ele>
        <time>2010-01-01T08:14:33Z</time>
      </trkpt>
      <trkpt lat="43.38239000" lon="11.24407000">
        <ele>241.00000</ele>
        <time>2010-01-01T08:14:38Z</time>
      </trkpt>
      <trkpt lat="43.38232000" lon="11.24391000">
        <ele>241.00000</ele>
        <time>2010-01-01T08:14:44Z</time>
      </trkpt>
      <trkpt lat="43.38196000" lon="11.24326000">
        <ele>238.00000</ele>
        <time>2010-01-01T08:15:07Z</time>
      </trkpt>
      <trkpt lat="43.38196000" lon="11.24282000">
        <ele>236.00000</ele>
        <time>2010-01-01T08:15:20Z</time>
      </trkpt>
      <trkpt lat="43.38291000" lon="11.23995000">
        <ele>244.00000</ele>
        <time>2010-01-01T08:16:52Z</time>
      </trkpt>
      <trkpt lat="43.38319000" lon="11.23955000">
        <ele>243.00000</ele>
        <time>2010-01-01T08:17:08Z</time>
      </trkpt>
      <trkpt lat="43.38471000" lon="11.23823000">
        <ele>240.00000</ele>
        <time>2010-01-01T08:18:20Z</time>
      </trkpt>
      <trkpt lat="43.38606000" lon="11.23693000">
        <ele>230.00000</ele>
        <time>2010-01-01T08:19:26Z</time>
      </trkpt>
      <trkpt lat="43.38621000" lon="11.23664000">
        <ele>229.00000</ele>
        <time>2010-01-01T08:19:36Z</time>
      </trkpt>
      <trkpt lat="43.38620000" lon="11.23632000">
        <ele>227.00000</ele>
        <time>2010-01-01T08:19:46Z</time>
      </trkpt>
      <trkpt lat="43.38519000" lon="11.23305000">
        <ele>226.00000</ele>
        <time>2010-01-01T08:21:29Z</time>
      </trkpt>
      <trkpt lat="43.38500000" lon="11.23213000">
        <ele>231.00000</ele>
        <time>2010-01-01T08:21:57Z</time>
      </trkpt>
      <trkpt lat="43.38497000" lon="11.23136000">
        <ele>234.00000</ele>
        <time>2010-01-01T08:22:19Z</time>
      </trkpt>
      <trkpt lat="43.38520000" lon="11.22876000">
        <ele>239.00000</ele>
        <time>2010-01-01T08:23:36Z</time>
      </trkpt>
      <trkpt lat="43.38587740" lon="11.22489450">
        <ele>237.00000</ele>
        <time>2010-01-01T08:25:31Z</time>
      </trkpt>
      <trkpt lat="43.38710000" lon="11.22304000">
        <ele>230.00000</ele>
        <time>2010-01-01T08:26:44Z</time>
      </trkpt>
      <trkpt lat="43.38917000" lon="11.22071000">
        <ele>223.00000</ele>
        <time>2010-01-01T08:28:31Z</time>
      </trkpt>
      <trkpt lat="43.38993000" lon="11.22007000">
        <ele>219.00000</ele>
        <time>2010-01-01T08:29:07Z</time>
      </trkpt>
      <trkpt lat="43.39028000" lon="11.21991000">
        <ele>217.00000</ele>
        <time>2010-01-01T08:29:22Z</time>
      </trkpt>
      <trkpt lat="43.39112000" lon="11.21983000">
        <ele>212.00000</ele>
        <time>2010-01-01T08:29:55Z</time>
      </trkpt>
      <trkpt lat="43.39166000" lon="11.21944000">
        <ele>214.00000</ele>
        <time>2010-01-01T08:30:20Z</time>
      </trkpt>
      <trkpt lat="43.39192000" lon="11.21935000">
        <ele>212.00000</ele>
        <time>2010-01-01T08:30:30Z</time>
      </trkpt>
      <trkpt lat="43.39244000" lon="11.21928000">
        <ele>208.00000</ele>
        <time>2010-01-01T08:30:51Z</time>
      </trkpt>
      <trkpt lat="43.39286000" lon="11.21886000">
        <ele>205.00000</ele>
        <time>2010-01-01T08:31:12Z</time>
      </trkpt>
      <trkpt lat="43.39325000" lon="11.21848000">
        <ele>203.00000</ele>
        <time>2010-01-01T08:31:31Z</time>
      </trkpt>
      <trkpt lat="43.39354920" lon="11.21836060">
        <ele>202.00000</ele>
        <time>2010-01-01T08:31:44Z</time>
      </trkpt>
      <trkpt lat="43.39352580" lon="11.21792070">
        <ele>200.00000</ele>
        <time>2010-01-01T08:31:57Z</time>
      </trkpt>
      <trkpt lat="43.39318000" lon="11.21784000">
        <ele>200.00000</ele>
        <time>2010-01-01T08:32:11Z</time>
      </trkpt>
      <trkpt lat="43.39282000" lon="11.21735000">
        <ele>198.00000</ele>
        <time>2010-01-01T08:32:31Z</time>
      </trkpt>
      <trkpt lat="43.39270000" lon="11.21694000">
        <ele>197.00000</ele>
        <time>2010-01-01T08:32:44Z</time>
      </trkpt>
      <trkpt lat="43.39283000" lon="11.21009000">
        <ele>193.00000</ele>
        <time>2010-01-01T08:36:03Z</time>
      </trkpt>
      <trkpt lat="43.39296000" lon="11.20382000">
        <ele>197.00000</ele>
        <time>2010-01-01T08:39:05Z</time>
      </trkpt>
      <trkpt lat="43.39301910" lon="11.20011090">
        <ele>199.00000</ele>
        <time>2010-01-01T08:40:53Z</time>
      </trkpt>
      <trkpt lat="43.38975240" lon="11.19890920">
        <ele>200.00000</ele>
        <time>2010-01-01T08:43:09Z</time>
      </trkpt>
      <trkpt lat="43.38953410" lon="11.19866250">
        <ele>201.00000</ele>
        <time>2010-01-01T08:43:20Z</time>
      </trkpt>
      <trkpt lat="43.38929240" lon="11.19800800">
        <ele>199.00000</ele>
        <time>2010-01-01T08:43:41Z</time>
      </trkpt>
      <trkpt lat="43.38918320" lon="11.19662400">
        <ele>200.00000</ele>
        <time>2010-01-01T08:44:22Z</time>
      </trkpt>
      <trkpt lat="43.38859850" lon="11.19549750">
        <ele>199.00000</ele>
        <time>2010-01-01T08:45:02Z</time>
      </trkpt>
      <trkpt lat="43.38732760" lon="11.19384520">
        <ele>207.00000</ele>
        <time>2010-01-01T08:46:12Z</time>
      </trkpt>
      <trkpt lat="43.38565120" lon="11.18983260">
        <ele>229.00000</ele>
        <time>2010-01-01T08:48:27Z</time>
      </trkpt>
      <trkpt lat="43.38565900" lon="11.18885630">
        <ele>231.00000</ele>
        <time>2010-01-01T08:48:55Z</time>
      </trkpt>
      <trkpt lat="43.38534720" lon="11.18680710">
        <ele>233.00000</ele>
        <time>2010-01-01T08:49:56Z</time>
      </trkpt>
      <trkpt lat="43.38522240" lon="11.18642090">
        <ele>235.00000</ele>
        <time>2010-01-01T08:50:08Z</time>
      </trkpt>
      <trkpt lat="43.38435690" lon="11.18502610">
        <ele>233.00000</ele>
        <time>2010-01-01T08:51:02Z</time>
      </trkpt>
      <trkpt lat="43.38333540" lon="11.18306270">
        <ele>239.00000</ele>
        <time>2010-01-01T08:52:12Z</time>
      </trkpt>
      <trkpt lat="43.38304690" lon="11.18142120">
        <ele>239.00000</ele>
        <time>2010-01-01T08:53:01Z</time>
      </trkpt>
      <trkpt lat="43.38204890" lon="11.17970460">
        <ele>242.00000</ele>
        <time>2010-01-01T08:54:05Z</time>
      </trkpt>
      <trkpt lat="43.38086360" lon="11.17868540">
        <ele>249.00000</ele>
        <time>2010-01-01T08:55:01Z</time>
      </trkpt>
      <trkpt lat="43.37962370" lon="11.17699020">
        <ele>254.00000</ele>
        <time>2010-01-01T08:56:11Z</time>
      </trkpt>
      <trkpt lat="43.37896090" lon="11.17640010">
        <ele>257.00000</ele>
        <time>2010-01-01T08:56:43Z</time>
      </trkpt>
      <trkpt lat="43.37881280" lon="11.17588520">
        <ele>253.00000</ele>
        <time>2010-01-01T08:56:59Z</time>
      </trkpt>
      <trkpt lat="43.37901550" lon="11.17423290">
        <ele>257.00000</ele>
        <time>2010-01-01T08:57:47Z</time>
      </trkpt>
      <trkpt lat="43.37844630" lon="11.17288110">
        <ele>265.00000</ele>
        <time>2010-01-01T08:58:33Z</time>
      </trkpt>
      <trkpt lat="43.37845400" lon="11.17192620">
        <ele>269.00000</ele>
        <time>2010-01-01T08:59:01Z</time>
      </trkpt>
      <trkpt lat="43.37861000" lon="11.17066020">
        <ele>266.00000</ele>
        <time>2010-01-01T08:59:38Z</time>
      </trkpt>
      <trkpt lat="43.37838390" lon="11.16978040">
        <ele>269.00000</ele>
        <time>2010-01-01T09:00:05Z</time>
      </trkpt>
      <trkpt lat="43.37836830" lon="11.16914740">
        <ele>268.00000</ele>
        <time>2010-01-01T09:00:24Z</time>
      </trkpt>
      <trkpt lat="43.37851640" lon="11.16804240">
        <ele>270.00000</ele>
        <time>2010-01-01T09:00:56Z</time>
      </trkpt>
      <trkpt lat="43.37796280" lon="11.16649740">
        <ele>270.00000</ele>
        <time>2010-01-01T09:01:46Z</time>
      </trkpt>
      <trkpt lat="43.37797840" lon="11.16620770">
        <ele>271.00000</ele>
        <time>2010-01-01T09:01:55Z</time>
      </trkpt>
      <trkpt lat="43.37864120" lon="11.16481300">
        <ele>280.00000</ele>
        <time>2010-01-01T09:02:43Z</time>
      </trkpt>
      <trkpt lat="43.37874260" lon="11.16367570">
        <ele>278.00000</ele>
        <time>2010-01-01T09:03:17Z</time>
      </trkpt>
      <trkpt lat="43.37942880" lon="11.16095060">
        <ele>265.00000</ele>
        <time>2010-01-01T09:04:41Z</time>
      </trkpt>
      <trkpt lat="43.37991230" lon="11.16023180">
        <ele>261.00000</ele>
        <time>2010-01-01T09:05:09Z</time>
      </trkpt>
      <trkpt lat="43.38007600" lon="11.15973830">
        <ele>257.00000</ele>
        <time>2010-01-01T09:05:25Z</time>
      </trkpt>
      <trkpt lat="43.38016960" lon="11.15831130">
        <ele>252.00000</ele>
        <time>2010-01-01T09:06:07Z</time>
      </trkpt>
      <trkpt lat="43.38004480" lon="11.15705600">
        <ele>259.00000</ele>
        <time>2010-01-01T09:06:43Z</time>
      </trkpt>
      <trkpt lat="43.37959260" lon="11.15639090">
        <ele>259.00000</ele>
        <time>2010-01-01T09:07:10Z</time>
      </trkpt>
      <trkpt lat="43.37940540" lon="11.15588660">
        <ele>259.00000</ele>
        <time>2010-01-01T09:07:26Z</time>
      </trkpt>
      <trkpt lat="43.37881280" lon="11.15317220">
        <ele>245.00000</ele>
        <time>2010-01-01T09:08:49Z</time>
      </trkpt>
      <trkpt lat="43.37835270" lon="11.15043640">
        <ele>246.00000</ele>
        <time>2010-01-01T09:10:11Z</time>
      </trkpt>
      <trkpt lat="43.37848520" lon="11.15002870">
        <ele>247.00000</ele>
        <time>2010-01-01T09:10:24Z</time>
      </trkpt>
      <trkpt lat="43.37998250" lon="11.14738940">
        <ele>223.00000</ele>
        <time>2010-01-01T09:12:01Z</time>
      </trkpt>
      <trkpt lat="43.38187730" lon="11.14672420">
        <ele>219.00000</ele>
        <time>2010-01-01T09:13:19Z</time>
      </trkpt>
      <trkpt lat="43.38331210" lon="11.14185330">
        <ele>221.00000</ele>
        <time>2010-01-01T09:15:52Z</time>
      </trkpt>
      <trkpt lat="43.38370190" lon="11.13660690">
        <ele>190.00000</ele>
        <time>2010-01-01T09:18:26Z</time>
      </trkpt>
      <trkpt lat="43.38445830" lon="11.13595240">
        <ele>188.00000</ele>
        <time>2010-01-01T09:19:01Z</time>
      </trkpt>
      <trkpt lat="43.38636860" lon="11.13379590">
        <ele>183.00000</ele>
        <time>2010-01-01T09:20:40Z</time>
      </trkpt>
      <trkpt lat="43.38754590" lon="11.13284110">
        <ele>188.00000</ele>
        <time>2010-01-01T09:21:35Z</time>
      </trkpt>
      <trkpt lat="43.38896490" lon="11.13306640">
        <ele>186.00000</ele>
        <time>2010-01-01T09:22:32Z</time>
      </trkpt>
      <trkpt lat="43.39099210" lon="11.13264790">
        <ele>182.00000</ele>
        <time>2010-01-01T09:23:54Z</time>
      </trkpt>
      <trkpt lat="43.39177170" lon="11.13284110">
        <ele>183.00000</ele>
        <time>2010-01-01T09:24:26Z</time>
      </trkpt>
      <trkpt lat="43.39221610" lon="11.13232610">
        <ele>185.00000</ele>
        <time>2010-01-01T09:24:49Z</time>
      </trkpt>
      <trkpt lat="43.39503830" lon="11.13172530">
        <ele>180.00000</ele>
        <time>2010-01-01T09:26:44Z</time>
      </trkpt>
      <trkpt lat="43.40135270" lon="11.13377450">
        <ele>179.00000</ele>
        <time>2010-01-01T09:31:03Z</time>
      </trkpt>
      <trkpt lat="43.40218670" lon="11.13421440">
        <ele>179.00000</ele>
        <time>2010-01-01T09:31:39Z</time>
      </trkpt>
      <trkpt lat="43.40304420" lon="11.13460060">
        <ele>176.00000</ele>
        <time>2010-01-01T09:32:15Z</time>
      </trkpt>
      <trkpt lat="43.40319230" lon="11.13484740">
        <ele>176.00000</ele>
        <time>2010-01-01T09:32:24Z</time>
      </trkpt>
      <trkpt lat="43.40330140" lon="11.13458990">
        <ele>175.00000</ele>
        <time>2010-01-01T09:32:33Z</time>
      </trkpt>
      <trkpt lat="43.40361320" lon="11.13436460">
        <ele>173.00000</ele>
        <time>2010-01-01T09:32:47Z</time>
      </trkpt>
      <trkpt lat="43.40497730" lon="11.13398900">
        <ele>174.00000</ele>
        <time>2010-01-01T09:33:43Z</time>
      </trkpt>
      <trkpt lat="43.40615430" lon="11.13381740">
        <ele>174.00000</ele>
        <time>2010-01-01T09:34:30Z</time>
      </trkpt>
      <trkpt lat="43.40762740" lon="11.13337750">
        <ele>166.00000</ele>
        <time>2010-01-01T09:35:31Z</time>
      </trkpt>
      <trkpt lat="43.41069050" lon="11.13291620">
        <ele>169.00000</ele>
        <time>2010-01-01T09:37:34Z</time>
      </trkpt>
      <trkpt lat="43.41086980" lon="11.13305560">
        <ele>168.00000</ele>
        <time>2010-01-01T09:37:42Z</time>
      </trkpt>
      <trkpt lat="43.41106460" lon="11.13285180">
        <ele>168.00000</ele>
        <time>2010-01-01T09:37:52Z</time>
      </trkpt>
      <trkpt lat="43.41547580" lon="11.13188620">
        <ele>164.00000</ele>
        <time>2010-01-01T09:40:51Z</time>
      </trkpt>
      <trkpt lat="43.41571740" lon="11.13212220">
        <ele>163.00000</ele>
        <time>2010-01-01T09:41:03Z</time>
      </trkpt>
      <trkpt lat="43.41591220" lon="11.13176820">
        <ele>165.00000</ele>
        <time>2010-01-01T09:41:16Z</time>
      </trkpt>
      <trkpt lat="43.41628630" lon="11.13170380">
        <ele>167.00000</ele>
        <time>2010-01-01T09:41:31Z</time>
      </trkpt>
      <trkpt lat="43.41722930" lon="11.13092060">
        <ele>166.00000</ele>
        <time>2010-01-01T09:42:15Z</time>
      </trkpt>
      <trkpt lat="43.41840600" lon="11.13059870">
        <ele>160.00000</ele>
        <time>2010-01-01T09:43:03Z</time>
      </trkpt>
      <trkpt lat="43.41877230" lon="11.13047000">
        <ele>160.00000</ele>
        <time>2010-01-01T09:43:18Z</time>
      </trkpt>
      <trkpt lat="43.42161660" lon="11.12891430">
        <ele>147.00000</ele>
        <time>2010-01-01T09:45:20Z</time>
      </trkpt>
      <trkpt lat="43.42181530" lon="11.12884990">
        <ele>146.00000</ele>
        <time>2010-01-01T09:45:29Z</time>
      </trkpt>
      <trkpt lat="43.42181140" lon="11.12868360">
        <ele>146.00000</ele>
        <time>2010-01-01T09:45:33Z</time>
      </trkpt>
      <trkpt lat="43.42253610" lon="11.12762680">
        <ele>142.00000</ele>
        <time>2010-01-01T09:46:16Z</time>
      </trkpt>
      <trkpt lat="43.42304260" lon="11.12755710">
        <ele>142.00000</ele>
        <time>2010-01-01T09:46:36Z</time>
      </trkpt>
      <trkpt lat="43.42333870" lon="11.12655930">
        <ele>141.00000</ele>
        <time>2010-01-01T09:47:07Z</time>
      </trkpt>
      <trkpt lat="43.42390760" lon="11.12613550">
        <ele>139.00000</ele>
        <time>2010-01-01T09:47:33Z</time>
      </trkpt>
      <trkpt lat="43.42398550" lon="11.12573320">
        <ele>142.00000</ele>
        <time>2010-01-01T09:47:45Z</time>
      </trkpt>
      <trkpt lat="43.42341270" lon="11.12581900">
        <ele>145.00000</ele>
        <time>2010-01-01T09:48:08Z</time>
      </trkpt>
      <trkpt lat="43.42301920" lon="11.12455300">
        <ele>159.00000</ele>
        <time>2010-01-01T09:48:48Z</time>
      </trkpt>
      <trkpt lat="43.42296080" lon="11.12419900">
        <ele>162.00000</ele>
        <time>2010-01-01T09:48:59Z</time>
      </trkpt>
      <trkpt lat="43.42293740" lon="11.12317440">
        <ele>184.00000</ele>
        <time>2010-01-01T09:49:29Z</time>
      </trkpt>
      <trkpt lat="43.42292570" lon="11.12292760">
        <ele>187.00000</ele>
        <time>2010-01-01T09:49:36Z</time>
      </trkpt>
      <trkpt lat="43.42303870" lon="11.12305100">
        <ele>189.00000</ele>
        <time>2010-01-01T09:49:42Z</time>
      </trkpt>
      <trkpt lat="43.42315950" lon="11.12334600">
        <ele>186.00000</ele>
        <time>2010-01-01T09:49:52Z</time>
      </trkpt>
      <trkpt lat="43.42310500" lon="11.12299200">
        <ele>191.00000</ele>
        <time>2010-01-01T09:50:02Z</time>
      </trkpt>
      <trkpt lat="43.42324910" lon="11.12285250">
        <ele>194.00000</ele>
        <time>2010-01-01T09:50:09Z</time>
      </trkpt>
      <trkpt lat="43.42275040" lon="11.12132900">
        <ele>211.00000</ele>
        <time>2010-01-01T09:50:58Z</time>
      </trkpt>
      <trkpt lat="43.42160100" lon="11.11868440">
        <ele>201.00000</ele>
        <time>2010-01-01T09:52:27Z</time>
      </trkpt>
      <trkpt lat="43.42126590" lon="11.11755780">
        <ele>204.00000</ele>
        <time>2010-01-01T09:53:03Z</time>
      </trkpt>
      <trkpt lat="43.42111010" lon="11.11663520">
        <ele>209.00000</ele>
        <time>2010-01-01T09:53:30Z</time>
      </trkpt>
      <trkpt lat="43.42095420" lon="11.11635620">
        <ele>207.00000</ele>
        <time>2010-01-01T09:53:41Z</time>
      </trkpt>
      <trkpt lat="43.42098150" lon="11.11747740">
        <ele>196.00000</ele>
        <time>2010-01-01T09:54:13Z</time>
      </trkpt>
      <trkpt lat="43.42126590" lon="11.11852880">
        <ele>193.00000</ele>
        <time>2010-01-01T09:54:46Z</time>
      </trkpt>
      <trkpt lat="43.42170620" lon="11.11820690">
        <ele>199.00000</ele>
        <time>2010-01-01T09:55:06Z</time>
      </trkpt>
      <trkpt lat="43.42160100" lon="11.11786360">
        <ele>201.00000</ele>
        <time>2010-01-01T09:55:17Z</time>
      </trkpt>
      <trkpt lat="43.42162830" lon="11.11780460">
        <ele>200.00000</ele>
        <time>2010-01-01T09:55:19Z</time>
      </trkpt>
      <trkpt lat="43.42158540" lon="11.11740760">
        <ele>201.00000</ele>
        <time>2010-01-01T09:55:30Z</time>
      </trkpt>
      <trkpt lat="43.42162830" lon="11.11667810">
        <ele>197.00000</ele>
        <time>2010-01-01T09:55:52Z</time>
      </trkpt>
      <trkpt lat="43.42174910" lon="11.11655470">
        <ele>196.00000</ele>
        <time>2010-01-01T09:55:58Z</time>
      </trkpt>
      <trkpt lat="43.42204520" lon="11.11640450">
        <ele>200.00000</ele>
        <time>2010-01-01T09:56:10Z</time>
      </trkpt>
      <trkpt lat="43.42161660" lon="11.11518140">
        <ele>207.00000</ele>
        <time>2010-01-01T09:56:50Z</time>
      </trkpt>
      <trkpt lat="43.42164000" lon="11.11477370">
        <ele>211.00000</ele>
        <time>2010-01-01T09:57:02Z</time>
      </trkpt>
      <trkpt lat="43.42180360" lon="11.11450550">
        <ele>214.00000</ele>
        <time>2010-01-01T09:57:12Z</time>
      </trkpt>
      <trkpt lat="43.42198280" lon="11.11460200">
        <ele>214.00000</ele>
        <time>2010-01-01T09:57:20Z</time>
      </trkpt>
      <trkpt lat="43.42203740" lon="11.11492390">
        <ele>214.00000</ele>
        <time>2010-01-01T09:57:29Z</time>
      </trkpt>
      <trkpt lat="43.42195170" lon="11.11524580">
        <ele>209.00000</ele>
        <time>2010-01-01T09:57:39Z</time>
      </trkpt>
      <trkpt lat="43.42207640" lon="11.11584660">
        <ele>207.00000</ele>
        <time>2010-01-01T09:57:57Z</time>
      </trkpt>
      <trkpt lat="43.42229450" lon="11.11618990">
        <ele>210.00000</ele>
        <time>2010-01-01T09:58:11Z</time>
      </trkpt>
      <trkpt lat="43.42243480" lon="11.11651180">
        <ele>209.00000</ele>
        <time>2010-01-01T09:58:21Z</time>
      </trkpt>
      <trkpt lat="43.42260620" lon="11.11675320">
        <ele>208.00000</ele>
        <time>2010-01-01T09:58:31Z</time>
      </trkpt>
      <trkpt lat="43.42283610" lon="11.11675320">
        <ele>213.00000</ele>
        <time>2010-01-01T09:58:40Z</time>
      </trkpt>
      <trkpt lat="43.42321400" lon="11.11656010">
        <ele>220.00000</ele>
        <time>2010-01-01T09:58:57Z</time>
      </trkpt>
      <trkpt lat="43.42330370" lon="11.11620060">
        <ele>222.00000</ele>
        <time>2010-01-01T09:59:08Z</time>
      </trkpt>
      <trkpt lat="43.42321400" lon="11.11415140">
        <ele>228.00000</ele>
        <time>2010-01-01T10:00:07Z</time>
      </trkpt>
      <trkpt lat="43.42303480" lon="11.11341110">
        <ele>228.00000</ele>
        <time>2010-01-01T10:00:30Z</time>
      </trkpt>
      <trkpt lat="43.42153480" lon="11.11156580">
        <ele>232.00000</ele>
        <time>2010-01-01T10:01:51Z</time>
      </trkpt>
      <trkpt lat="43.42183480" lon="11.10729570">
        <ele>238.00000</ele>
        <time>2010-01-01T10:03:55Z</time>
      </trkpt>
      <trkpt lat="43.42046330" lon="11.10223710">
        <ele>240.00000</ele>
        <time>2010-01-01T10:06:32Z</time>
      </trkpt>
      <trkpt lat="43.42051010" lon="11.10188300">
        <ele>240.00000</ele>
        <time>2010-01-01T10:06:43Z</time>
      </trkpt>
      <trkpt lat="43.42030740" lon="11.10166310">
        <ele>243.00000</ele>
        <time>2010-01-01T10:06:53Z</time>
      </trkpt>
      <trkpt lat="43.41964000" lon="11.09931000">
        <ele>245.00000</ele>
        <time>2010-01-01T10:08:06Z</time>
      </trkpt>
      <trkpt lat="43.41964000" lon="11.09930000">
        <ele>245.00000</ele>
        <time>2010-01-01T10:08:07Z</time>
      </trkpt>
      <trkpt lat="43.41941000" lon="11.09872000">
        <ele>245.00000</ele>
        <time>2010-01-01T10:08:26Z</time>
      </trkpt>
      <trkpt lat="43.41915000" lon="11.09744000">
        <ele>243.00000</ele>
        <time>2010-01-01T10:09:05Z</time>
      </trkpt>
      <trkpt lat="43.41915000" lon="11.09721000">
        <ele>243.00000</ele>
        <time>2010-01-01T10:09:11Z</time>
      </trkpt>
      <trkpt lat="43.41918000" lon="11.09702000">
        <ele>243.00000</ele>
        <time>2010-01-01T10:09:17Z</time>
      </trkpt>
      <trkpt lat="43.41928000" lon="11.09685000">
        <ele>243.00000</ele>
        <time>2010-01-01T10:09:23Z</time>
      </trkpt>
      <trkpt lat="43.41940000" lon="11.09676000">
        <ele>243.00000</ele>
        <time>2010-01-01T10:09:29Z</time>
      </trkpt>
      <trkpt lat="43.41973000" lon="11.09665000">
        <ele>243.00000</ele>
        <time>2010-01-01T10:09:42Z</time>
      </trkpt>
      <trkpt lat="43.42006000" lon="11.09645000">
        <ele>243.00000</ele>
        <time>2010-01-01T10:09:57Z</time>
      </trkpt>
      <trkpt lat="43.42167000" lon="11.09505000">
        <ele>246.00000</ele>
        <time>2010-01-01T10:11:13Z</time>
      </trkpt>
      <trkpt lat="43.42191000" lon="11.09482000">
        <ele>248.00000</ele>
        <time>2010-01-01T10:11:25Z</time>
      </trkpt>
      <trkpt lat="43.42267000" lon="11.09374000">
        <ele>249.00000</ele>
        <time>2010-01-01T10:12:08Z</time>
      </trkpt>
      <trkpt lat="43.42289000" lon="11.09351000">
        <ele>248.00000</ele>
        <time>2010-01-01T10:12:20Z</time>
      </trkpt>
      <trkpt lat="43.42355000" lon="11.09299000">
        <ele>250.00000</ele>
        <time>2010-01-01T10:12:50Z</time>
      </trkpt>
      <trkpt lat="43.42421000" lon="11.09252000">
        <ele>250.00000</ele>
        <time>2010-01-01T10:13:20Z</time>
      </trkpt>
      <trkpt lat="43.42631000" lon="11.09157000">
        <ele>250.00000</ele>
        <time>2010-01-01T10:14:48Z</time>
      </trkpt>
      <trkpt lat="43.42681000" lon="11.09144000">
        <ele>252.00000</ele>
        <time>2010-01-01T10:15:09Z</time>
      </trkpt>
      <trkpt lat="43.42810000" lon="11.09089000">
        <ele>249.00000</ele>
        <time>2010-01-01T10:16:03Z</time>
      </trkpt>
      <trkpt lat="43.43067000" lon="11.09068000">
        <ele>244.00000</ele>
        <time>2010-01-01T10:17:46Z</time>
      </trkpt>
      <trkpt lat="43.43112000" lon="11.09067000">
        <ele>242.00000</ele>
        <time>2010-01-01T10:18:04Z</time>
      </trkpt>
      <trkpt lat="43.43145000" lon="11.09085000">
        <ele>242.00000</ele>
        <time>2010-01-01T10:18:18Z</time>
      </trkpt>
      <trkpt lat="43.43176000" lon="11.09108000">
        <ele>242.00000</ele>
        <time>2010-01-01T10:18:32Z</time>
      </trkpt>
      <trkpt lat="43.43216000" lon="11.09143000">
        <ele>241.00000</ele>
        <time>2010-01-01T10:18:51Z</time>
      </trkpt>
      <trkpt lat="43.43283000" lon="11.09223000">
        <ele>241.00000</ele>
        <time>2010-01-01T10:19:26Z</time>
      </trkpt>
      <trkpt lat="43.43327000" lon="11.09256000">
        <ele>240.00000</ele>
        <time>2010-01-01T10:19:47Z</time>
      </trkpt>
      <trkpt lat="43.43438000" lon="11.09333000">
        <ele>236.00000</ele>
        <time>2010-01-01T10:20:36Z</time>
      </trkpt>
      <trkpt lat="43.43482000" lon="11.09354000">
        <ele>235.00000</ele>
        <time>2010-01-01T10:20:55Z</time>
      </trkpt>
      <trkpt lat="43.43640000" lon="11.09416000">
        <ele>231.00000</ele>
        <time>2010-01-01T10:22:01Z</time>
      </trkpt>
      <trkpt lat="43.43679000" lon="11.09423000">
        <ele>231.00000</ele>
        <time>2010-01-01T10:22:16Z</time>
      </trkpt>
      <trkpt lat="43.43835000" lon="11.09439000">
        <ele>228.00000</ele>
        <time>2010-01-01T10:23:19Z</time>
      </trkpt>
      <trkpt lat="43.43855000" lon="11.09446000">
        <ele>228.00000</ele>
        <time>2010-01-01T10:23:27Z</time>
      </trkpt>
      <trkpt lat="43.43872000" lon="11.09460000">
        <ele>228.00000</ele>
        <time>2010-01-01T10:23:35Z</time>
      </trkpt>
      <trkpt lat="43.44042000" lon="11.09623000">
        <ele>224.00000</ele>
        <time>2010-01-01T10:24:58Z</time>
      </trkpt>
      <trkpt lat="43.44061000" lon="11.09639000">
        <ele>223.00000</ele>
        <time>2010-01-01T10:25:07Z</time>
      </trkpt>
      <trkpt lat="43.44083000" lon="11.09653000">
        <ele>223.00000</ele>
        <time>2010-01-01T10:25:17Z</time>
      </trkpt>
      <trkpt lat="43.44159000" lon="11.09688000">
        <ele>222.00000</ele>
        <time>2010-01-01T10:25:49Z</time>
      </trkpt>
      <trkpt lat="43.44180000" lon="11.09704000">
        <ele>220.00000</ele>
        <time>2010-01-01T10:25:58Z</time>
      </trkpt>
      <trkpt lat="43.44194000" lon="11.09722000">
        <ele>219.00000</ele>
        <time>2010-01-01T10:26:06Z</time>
      </trkpt>
      <trkpt lat="43.44280000" lon="11.09848000">
        <ele>217.00000</ele>
        <time>2010-01-01T10:26:56Z</time>
      </trkpt>
      <trkpt lat="43.44319000" lon="11.09894000">
        <ele>215.00000</ele>
        <time>2010-01-01T10:27:17Z</time>
      </trkpt>
      <trkpt lat="43.44401000" lon="11.09990000">
        <ele>213.00000</ele>
        <time>2010-01-01T10:28:00Z</time>
      </trkpt>
      <trkpt lat="43.44433000" lon="11.10024000">
        <ele>215.00000</ele>
        <time>2010-01-01T10:28:16Z</time>
      </trkpt>
      <trkpt lat="43.44448000" lon="11.10032000">
        <ele>214.00000</ele>
        <time>2010-01-01T10:28:23Z</time>
      </trkpt>
      <trkpt lat="43.44460000" lon="11.10033000">
        <ele>213.00000</ele>
        <time>2010-01-01T10:28:27Z</time>
      </trkpt>
      <trkpt lat="43.44471000" lon="11.10029000">
        <ele>211.00000</ele>
        <time>2010-01-01T10:28:32Z</time>
      </trkpt>
      <trkpt lat="43.44480000" lon="11.10023000">
        <ele>209.00000</ele>
        <time>2010-01-01T10:28:36Z</time>
      </trkpt>
      <trkpt lat="43.44492000" lon="11.10007000">
        <ele>208.00000</ele>
        <time>2010-01-01T10:28:43Z</time>
      </trkpt>
      <trkpt lat="43.44498000" lon="11.09989000">
        <ele>207.00000</ele>
        <time>2010-01-01T10:28:48Z</time>
      </trkpt>
      <trkpt lat="43.44499000" lon="11.09972000">
        <ele>205.00000</ele>
        <time>2010-01-01T10:28:53Z</time>
      </trkpt>
      <trkpt lat="43.44495000" lon="11.09948000">
        <ele>204.00000</ele>
        <time>2010-01-01T10:29:01Z</time>
      </trkpt>
      <trkpt lat="43.44430000" lon="11.09735000">
        <ele>194.00000</ele>
        <time>2010-01-01T10:30:08Z</time>
      </trkpt>
      <trkpt lat="43.44428000" lon="11.09718000">
        <ele>193.00000</ele>
        <time>2010-01-01T10:30:13Z</time>
      </trkpt>
      <trkpt lat="43.44429000" lon="11.09705000">
        <ele>193.00000</ele>
        <time>2010-01-01T10:30:17Z</time>
      </trkpt>
      <trkpt lat="43.44432000" lon="11.09684000">
        <ele>193.00000</ele>
        <time>2010-01-01T10:30:23Z</time>
      </trkpt>
      <trkpt lat="43.44437000" lon="11.09669000">
        <ele>194.00000</ele>
        <time>2010-01-01T10:30:28Z</time>
      </trkpt>
      <trkpt lat="43.44446000" lon="11.09656000">
        <ele>194.00000</ele>
        <time>2010-01-01T10:30:33Z</time>
      </trkpt>
      <trkpt lat="43.44480000" lon="11.09624000">
        <ele>191.00000</ele>
        <time>2010-01-01T10:30:49Z</time>
      </trkpt>
      <trkpt lat="43.44611000" lon="11.09514000">
        <ele>178.00000</ele>
        <time>2010-01-01T10:31:51Z</time>
      </trkpt>
      <trkpt lat="43.44625000" lon="11.09495000">
        <ele>176.00000</ele>
        <time>2010-01-01T10:31:59Z</time>
      </trkpt>
      <trkpt lat="43.44643000" lon="11.09449000">
        <ele>175.00000</ele>
        <time>2010-01-01T10:32:14Z</time>
      </trkpt>
      <trkpt lat="43.44655000" lon="11.09426000">
        <ele>176.00000</ele>
        <time>2010-01-01T10:32:22Z</time>
      </trkpt>
      <trkpt lat="43.44667000" lon="11.09414000">
        <ele>175.00000</ele>
        <time>2010-01-01T10:32:28Z</time>
      </trkpt>
      <trkpt lat="43.44685000" lon="11.09403000">
        <ele>173.00000</ele>
        <time>2010-01-01T10:32:36Z</time>
      </trkpt>
      <trkpt lat="43.44704000" lon="11.09389000">
        <ele>170.00000</ele>
        <time>2010-01-01T10:32:44Z</time>
      </trkpt>
      <trkpt lat="43.44733000" lon="11.09349000">
        <ele>171.00000</ele>
        <time>2010-01-01T10:33:01Z</time>
      </trkpt>
      <trkpt lat="43.44748000" lon="11.09333000">
        <ele>172.00000</ele>
        <time>2010-01-01T10:33:08Z</time>
      </trkpt>
      <trkpt lat="43.44760000" lon="11.09327000">
        <ele>172.00000</ele>
        <time>2010-01-01T10:33:14Z</time>
      </trkpt>
      <trkpt lat="43.44770000" lon="11.09324000">
        <ele>172.00000</ele>
        <time>2010-01-01T10:33:18Z</time>
      </trkpt>
      <trkpt lat="43.44843000" lon="11.09309000">
        <ele>170.00000</ele>
        <time>2010-01-01T10:33:47Z</time>
      </trkpt>
      <trkpt lat="43.44875000" lon="11.09301000">
        <ele>166.00000</ele>
        <time>2010-01-01T10:34:00Z</time>
      </trkpt>
      <trkpt lat="43.44887000" lon="11.09296000">
        <ele>165.00000</ele>
        <time>2010-01-01T10:34:05Z</time>
      </trkpt>
      <trkpt lat="43.44896000" lon="11.09289000">
        <ele>164.00000</ele>
        <time>2010-01-01T10:34:09Z</time>
      </trkpt>
      <trkpt lat="43.44910000" lon="11.09268000">
        <ele>164.00000</ele>
        <time>2010-01-01T10:34:18Z</time>
      </trkpt>
      <trkpt lat="43.44913000" lon="11.09263000">
        <ele>164.00000</ele>
        <time>2010-01-01T10:34:20Z</time>
      </trkpt>
      <trkpt lat="43.44940000" lon="11.09173000">
        <ele>160.00000</ele>
        <time>2010-01-01T10:34:48Z</time>
      </trkpt>
      <trkpt lat="43.44943000" lon="11.09150000">
        <ele>158.00000</ele>
        <time>2010-01-01T10:34:55Z</time>
      </trkpt>
      <trkpt lat="43.44942000" lon="11.09132000">
        <ele>156.00000</ele>
        <time>2010-01-01T10:35:00Z</time>
      </trkpt>
      <trkpt lat="43.44938000" lon="11.09117000">
        <ele>155.00000</ele>
        <time>2010-01-01T10:35:05Z</time>
      </trkpt>
      <trkpt lat="43.44927000" lon="11.09094000">
        <ele>153.00000</ele>
        <time>2010-01-01T10:35:13Z</time>
      </trkpt>
      <trkpt lat="43.44916000" lon="11.09084000">
        <ele>154.00000</ele>
        <time>2010-01-01T10:35:18Z</time>
      </trkpt>
      <trkpt lat="43.44900000" lon="11.09074000">
        <ele>154.00000</ele>
        <time>2010-01-01T10:35:25Z</time>
      </trkpt>
      <trkpt lat="43.44889000" lon="11.09065000">
        <ele>154.00000</ele>
        <time>2010-01-01T10:35:30Z</time>
      </trkpt>
      <trkpt lat="43.44878000" lon="11.09046000">
        <ele>154.00000</ele>
        <time>2010-01-01T10:35:37Z</time>
      </trkpt>
      <trkpt lat="43.44863000" lon="11.09013000">
        <ele>149.00000</ele>
        <time>2010-01-01T10:35:48Z</time>
      </trkpt>
      <trkpt lat="43.44852000" lon="11.09000000">
        <ele>146.00000</ele>
        <time>2010-01-01T10:35:54Z</time>
      </trkpt>
      <trkpt lat="43.44830000" lon="11.08991000">
        <ele>142.00000</ele>
        <time>2010-01-01T10:36:03Z</time>
      </trkpt>
      <trkpt lat="43.44809000" lon="11.08996000">
        <ele>140.00000</ele>
        <time>2010-01-01T10:36:12Z</time>
      </trkpt>
      <trkpt lat="43.44800000" lon="11.09003000">
        <ele>140.00000</ele>
        <time>2010-01-01T10:36:16Z</time>
      </trkpt>
      <trkpt lat="43.44774000" lon="11.09040000">
        <ele>141.00000</ele>
        <time>2010-01-01T10:36:31Z</time>
      </trkpt>
      <trkpt lat="43.44757000" lon="11.09049000">
        <ele>142.00000</ele>
        <time>2010-01-01T10:36:38Z</time>
      </trkpt>
      <trkpt lat="43.44746000" lon="11.09048000">
        <ele>143.00000</ele>
        <time>2010-01-01T10:36:43Z</time>
      </trkpt>
      <trkpt lat="43.44736000" lon="11.09044000">
        <ele>144.00000</ele>
        <time>2010-01-01T10:36:47Z</time>
      </trkpt>
      <trkpt lat="43.44724000" lon="11.09030000">
        <ele>144.00000</ele>
        <time>2010-01-01T10:36:53Z</time>
      </trkpt>
      <trkpt lat="43.44719000" lon="11.09020000">
        <ele>144.00000</ele>
        <time>2010-01-01T10:36:57Z</time>
      </trkpt>
      <trkpt lat="43.44717000" lon="11.09003000">
        <ele>142.00000</ele>
        <time>2010-01-01T10:37:02Z</time>
      </trkpt>
      <trkpt lat="43.44719000" lon="11.08985000">
        <ele>139.00000</ele>
        <time>2010-01-01T10:37:07Z</time>
      </trkpt>
      <trkpt lat="43.44728000" lon="11.08969000">
        <ele>135.00000</ele>
        <time>2010-01-01T10:37:13Z</time>
      </trkpt>
      <trkpt lat="43.44741000" lon="11.08959000">
        <ele>132.00000</ele>
        <time>2010-01-01T10:37:19Z</time>
      </trkpt>
      <trkpt lat="43.44765000" lon="11.08951000">
        <ele>130.00000</ele>
        <time>2010-01-01T10:37:29Z</time>
      </trkpt>
      <trkpt lat="43.44838000" lon="11.08934000">
        <ele>126.00000</ele>
        <time>2010-01-01T10:37:58Z</time>
      </trkpt>
      <trkpt lat="43.44922000" lon="11.08932000">
        <ele>119.00000</ele>
        <time>2010-01-01T10:38:32Z</time>
      </trkpt>
      <trkpt lat="43.44969000" lon="11.08921000">
        <ele>114.00000</ele>
        <time>2010-01-01T10:38:51Z</time>
      </trkpt>
      <trkpt lat="43.45134000" lon="11.08866000">
        <ele>108.00000</ele>
        <time>2010-01-01T10:39:59Z</time>
      </trkpt>
      <trkpt lat="43.45149000" lon="11.08857000">
        <ele>107.00000</ele>
        <time>2010-01-01T10:40:06Z</time>
      </trkpt>
      <trkpt lat="43.45164000" lon="11.08843000">
        <ele>107.00000</ele>
        <time>2010-01-01T10:40:13Z</time>
      </trkpt>
      <trkpt lat="43.45181000" lon="11.08818000">
        <ele>108.00000</ele>
        <time>2010-01-01T10:40:23Z</time>
      </trkpt>
      <trkpt lat="43.45190000" lon="11.08792000">
        <ele>109.00000</ele>
        <time>2010-01-01T10:40:31Z</time>
      </trkpt>
      <trkpt lat="43.45204000" lon="11.08738000">
        <ele>108.00000</ele>
        <time>2010-01-01T10:40:48Z</time>
      </trkpt>
      <trkpt lat="43.45237000" lon="11.08580000">
        <ele>112.00000</ele>
        <time>2010-01-01T10:41:36Z</time>
      </trkpt>
      <trkpt lat="43.45270000" lon="11.08404000">
        <ele>115.00000</ele>
        <time>2010-01-01T10:42:28Z</time>
      </trkpt>
      <trkpt lat="43.45279000" lon="11.08393000">
        <ele>116.00000</ele>
        <time>2010-01-01T10:42:33Z</time>
      </trkpt>
      <trkpt lat="43.45286000" lon="11.08390000">
        <ele>117.00000</ele>
        <time>2010-01-01T10:42:36Z</time>
      </trkpt>
      <trkpt lat="43.45300000" lon="11.08372000">
        <ele>119.00000</ele>
        <time>2010-01-01T10:42:44Z</time>
      </trkpt>
      <trkpt lat="43.45294000" lon="11.08336000">
        <ele>119.00000</ele>
        <time>2010-01-01T10:42:55Z</time>
      </trkpt>
      <trkpt lat="43.45289000" lon="11.08292000">
        <ele>119.00000</ele>
        <time>2010-01-01T10:43:07Z</time>
      </trkpt>
      <trkpt lat="43.45296000" lon="11.08230000">
        <ele>120.00000</ele>
        <time>2010-01-01T10:43:26Z</time>
      </trkpt>
      <trkpt lat="43.45369000" lon="11.07709000">
        <ele>124.00000</ele>
        <time>2010-01-01T10:46:00Z</time>
      </trkpt>
      <trkpt lat="43.45389000" lon="11.07575000">
        <ele>128.00000</ele>
        <time>2010-01-01T10:46:40Z</time>
      </trkpt>
      <trkpt lat="43.45398000" lon="11.07549000">
        <ele>128.00000</ele>
        <time>2010-01-01T10:46:48Z</time>
      </trkpt>
      <trkpt lat="43.45409000" lon="11.07526000">
        <ele>128.00000</ele>
        <time>2010-01-01T10:46:56Z</time>
      </trkpt>
      <trkpt lat="43.45420000" lon="11.07511000">
        <ele>129.00000</ele>
        <time>2010-01-01T10:47:02Z</time>
      </trkpt>
      <trkpt lat="43.45434000" lon="11.07498000">
        <ele>131.00000</ele>
        <time>2010-01-01T10:47:09Z</time>
      </trkpt>
      <trkpt lat="43.45524000" lon="11.07434000">
        <ele>130.00000</ele>
        <time>2010-01-01T10:47:50Z</time>
      </trkpt>
      <trkpt lat="43.45543000" lon="11.07413000">
        <ele>129.00000</ele>
        <time>2010-01-01T10:47:59Z</time>
      </trkpt>
      <trkpt lat="43.45686000" lon="11.07226000">
        <ele>130.00000</ele>
        <time>2010-01-01T10:49:18Z</time>
      </trkpt>
      <trkpt lat="43.45709000" lon="11.07190000">
        <ele>132.00000</ele>
        <time>2010-01-01T10:49:32Z</time>
      </trkpt>
      <trkpt lat="43.45840000" lon="11.06946000">
        <ele>137.00000</ele>
        <time>2010-01-01T10:51:00Z</time>
      </trkpt>
      <trkpt lat="43.45923000" lon="11.06775000">
        <ele>137.00000</ele>
        <time>2010-01-01T10:52:00Z</time>
      </trkpt>
      <trkpt lat="43.45966000" lon="11.06669000">
        <ele>136.00000</ele>
        <time>2010-01-01T10:52:35Z</time>
      </trkpt>
      <trkpt lat="43.45983000" lon="11.06619000">
        <ele>138.00000</ele>
        <time>2010-01-01T10:52:51Z</time>
      </trkpt>
      <trkpt lat="43.45986000" lon="11.06596000">
        <ele>140.00000</ele>
        <time>2010-01-01T10:52:58Z</time>
      </trkpt>
      <trkpt lat="43.45987000" lon="11.06565000">
        <ele>142.00000</ele>
        <time>2010-01-01T10:53:07Z</time>
      </trkpt>
      <trkpt lat="43.45982000" lon="11.06470000">
        <ele>150.00000</ele>
        <time>2010-01-01T10:53:35Z</time>
      </trkpt>
      <trkpt lat="43.45970000" lon="11.06355000">
        <ele>154.00000</ele>
        <time>2010-01-01T10:54:09Z</time>
      </trkpt>
      <trkpt lat="43.45962000" lon="11.06329000">
        <ele>155.00000</ele>
        <time>2010-01-01T10:54:17Z</time>
      </trkpt>
      <trkpt lat="43.45948000" lon="11.06305000">
        <ele>155.00000</ele>
        <time>2010-01-01T10:54:26Z</time>
      </trkpt>
      <trkpt lat="43.45914000" lon="11.06268000">
        <ele>159.00000</ele>
        <time>2010-01-01T10:54:43Z</time>
      </trkpt>
      <trkpt lat="43.45901000" lon="11.06251000">
        <ele>161.00000</ele>
        <time>2010-01-01T10:54:50Z</time>
      </trkpt>
      <trkpt lat="43.45894000" lon="11.06232000">
        <ele>162.00000</ele>
        <time>2010-01-01T10:54:57Z</time>
      </trkpt>
      <trkpt lat="43.45891000" lon="11.06207000">
        <ele>165.00000</ele>
        <time>2010-01-01T10:55:04Z</time>
      </trkpt>
      <trkpt lat="43.45884000" lon="11.06125000">
        <ele>168.00000</ele>
        <time>2010-01-01T10:55:28Z</time>
      </trkpt>
      <trkpt lat="43.45885000" lon="11.06097000">
        <ele>169.00000</ele>
        <time>2010-01-01T10:55:36Z</time>
      </trkpt>
      <trkpt lat="43.45895000" lon="11.06028000">
        <ele>171.00000</ele>
        <time>2010-01-01T10:55:56Z</time>
      </trkpt>
      <trkpt lat="43.45914000" lon="11.05874000">
        <ele>181.00000</ele>
        <time>2010-01-01T10:56:42Z</time>
      </trkpt>
      <trkpt lat="43.45916000" lon="11.05846000">
        <ele>183.00000</ele>
        <time>2010-01-01T10:56:50Z</time>
      </trkpt>
      <trkpt lat="43.45914000" lon="11.05814000">
        <ele>186.00000</ele>
        <time>2010-01-01T10:56:59Z</time>
      </trkpt>
      <trkpt lat="43.45909000" lon="11.05788000">
        <ele>189.00000</ele>
        <time>2010-01-01T10:57:07Z</time>
      </trkpt>
      <trkpt lat="43.45888000" lon="11.05729000">
        <ele>194.00000</ele>
        <time>2010-01-01T10:57:26Z</time>
      </trkpt>
      <trkpt lat="43.45877000" lon="11.05705000">
        <ele>194.00000</ele>
        <time>2010-01-01T10:57:34Z</time>
      </trkpt>
      <trkpt lat="43.45867000" lon="11.05679000">
        <ele>194.00000</ele>
        <time>2010-01-01T10:57:43Z</time>
      </trkpt>
      <trkpt lat="43.45857000" lon="11.05635000">
        <ele>196.00000</ele>
        <time>2010-01-01T10:57:56Z</time>
      </trkpt>
      <trkpt lat="43.45856000" lon="11.05591000">
        <ele>200.00000</ele>
        <time>2010-01-01T10:58:09Z</time>
      </trkpt>
      <trkpt lat="43.45860030" lon="11.05355500">
        <ele>216.00000</ele>
        <time>2010-01-01T10:59:18Z</time>
      </trkpt>
    </trkseg>
  </trk>
</gpx>

